Provisional Data: West Creek near Weber City, PA


Please select a monitoring station.
Please select start date.
Please select start date.

Toggle Unit: C/F Toggle Unit: C/F
Sample Time Temperature (C) Temperature (F) Specific Conductivity (mS/cm) pH   Turbidity (NTU+) DO (mg/L)
5/17/2022 12:00:00 AM 14.18 57.524 0.074 7.18 4.15 9.45
5/17/2022 12:15:00 AM 14.1 57.38 0.074 7.18 4.26 9.47
5/17/2022 12:30:00 AM 14.04 57.272 0.074 7.18 4.1 9.48
5/17/2022 12:45:00 AM 13.96 57.128 0.074 7.18 4.31 9.5
5/17/2022 1:00:00 AM 13.88 56.984 0.074 7.18 4.32 9.51
5/17/2022 1:15:00 AM 13.81 56.858 0.074 7.18 4.26 9.54
5/17/2022 1:30:00 AM 13.75 56.75 0.074 7.17 4.4 9.55
5/17/2022 1:45:00 AM 13.69 56.642 0.074 7.17 4.1 9.56
5/17/2022 2:00:00 AM 13.61 56.498 0.075 7.17 4.16 9.58
5/17/2022 2:15:00 AM 13.53 56.354 0.075 7.17 4.12 9.6
5/17/2022 2:30:00 AM 13.46 56.228 0.075 7.17 4.11 9.61
5/17/2022 2:45:00 AM 13.38 56.084 0.075 7.17 4.04 9.63
5/17/2022 3:00:00 AM 13.29 55.922 0.075 7.17 4.38 9.65
5/17/2022 3:15:00 AM 13.21 55.778 0.075 7.17 4.19 9.67
5/17/2022 3:30:00 AM 13.14 55.652 0.075 7.17 4.18 9.68
5/17/2022 3:45:00 AM 13.06 55.508 0.075 7.17 4.24 9.7
5/17/2022 4:00:00 AM 12.99 55.382 0.075 7.17 4.45 9.72
5/17/2022 4:15:00 AM 12.92 55.256 0.075 7.17 4.28 9.74
5/17/2022 4:30:00 AM 12.86 55.148 0.075 7.17 4.72 9.76
5/17/2022 4:45:00 AM 12.8 55.04 0.075 7.17 4.15 9.77
5/17/2022 5:00:00 AM 12.74 54.932 0.075 7.17 4.43 9.79
5/17/2022 5:15:00 AM 12.68 54.824 0.075 7.17 4.15 9.81
5/17/2022 5:30:00 AM 12.63 54.734 0.075 7.17 4.22 9.82
5/17/2022 5:45:00 AM 12.57 54.626 0.075 7.17 4.16 9.84
5/17/2022 6:00:00 AM 12.52 54.536 0.075 7.17 4.21 9.86
5/17/2022 6:15:00 AM 12.47 54.446 0.075 7.17 4.07 9.88
5/17/2022 6:30:00 AM 12.42 54.356 0.075 7.18 4.03 9.91
5/17/2022 6:45:00 AM 12.38 54.284 0.075 7.19 3.97 9.95
5/17/2022 7:00:00 AM 12.35 54.23 0.076 7.2 3.92 10
5/17/2022 7:15:00 AM 12.32 54.176 0.076 7.21 3.94 10.05
5/17/2022 7:30:00 AM 12.29 54.122 0.076 7.22 3.76 10.08
5/17/2022 7:45:00 AM 12.26 54.068 0.076 7.22 4.13 10.13
5/17/2022 8:00:00 AM 12.22 53.996 0.076 7.24 3.9 10.18
5/17/2022 8:15:00 AM 12.25 54.05 0.076 7.26 3.87 10.23
5/17/2022 8:30:00 AM 12.29 54.122 0.076 7.28 3.86 10.28
5/17/2022 8:45:00 AM 12.33 54.194 0.076 7.3 3.9 10.33
5/17/2022 9:00:00 AM 12.41 54.338 0.076 7.31 3.7 10.36
5/17/2022 9:15:00 AM 12.5 54.5 0.076 7.34 3.8 10.38
5/17/2022 9:30:00 AM 12.61 54.698 0.076 7.35 3.71 10.39
5/17/2022 9:45:00 AM 12.77 54.986 0.076 7.36 3.75 10.38
5/17/2022 10:00:00 AM 12.91 55.238 0.075 7.36 3.61 10.37
5/17/2022 10:15:00 AM 13.07 55.526 0.076 7.36 3.73 10.35
5/17/2022 10:30:00 AM 13.23 55.814 0.076 7.35 3.73 10.33
5/17/2022 10:45:00 AM 13.41 56.138 0.076 7.36 3.84 10.32
5/17/2022 11:00:00 AM 13.59 56.462 0.076 7.36 3.76 10.28
5/17/2022 11:15:00 AM 13.75 56.75 0.076 7.35 3.74 10.26
5/17/2022 11:30:00 AM 13.95 57.11 0.076 7.36 3.71 10.23
5/17/2022 11:45:00 AM 14.13 57.434 0.076 7.36 3.8 10.19
5/17/2022 12:00:00 PM 14.38 57.884 0.076 7.36 3.57 10.16
5/17/2022 12:15:00 PM 14.6 58.28 0.076 7.36 3.83 10.13
5/17/2022 12:30:00 PM 14.82 58.676 0.076 7.36 3.59 10.1
5/17/2022 12:45:00 PM 15.05 59.09 0.076 7.36 3.55 10.06
5/17/2022 1:00:00 PM 15.28 59.504 0.076 7.37 3.43 10
5/17/2022 1:15:00 PM 15.49 59.882 0.076 7.37 3.46 9.96
5/17/2022 1:30:00 PM 15.71 60.278 0.076 7.37 3.34 9.92
5/17/2022 1:45:00 PM 15.92 60.656 0.076 7.37 3.55 9.88
5/17/2022 2:00:00 PM 16.13 61.034 0.076 7.38 3.72 9.84
5/17/2022 2:15:00 PM 16.32 61.376 0.076 7.38 3.39 9.79
5/17/2022 2:30:00 PM 16.45 61.61 0.077 7.38 3.45 9.75
5/17/2022 2:45:00 PM 16.53 61.754 0.077 7.38 3.4 9.71
5/17/2022 3:00:00 PM 16.76 62.168 0.077 7.39 3.55 9.67
5/17/2022 3:15:00 PM 16.96 62.528 0.077 7.39 3.47 9.63
5/17/2022 3:30:00 PM 17.12 62.816 0.077 7.39 3.39 9.57
5/17/2022 3:45:00 PM 17.29 63.122 0.077 7.4 3.5 9.53
5/17/2022 4:00:00 PM 17.41 63.338 0.077 7.4 3.3 9.49
5/17/2022 4:15:00 PM 17.51 63.518 0.077 7.4 3.54 9.45
5/17/2022 4:30:00 PM 17.61 63.698 0.077 7.39 6.38 9.41
5/17/2022 4:45:00 PM 17.65 63.77 0.077 7.4 3.34 9.37
5/17/2022 5:00:00 PM 17.74 63.932 0.077 7.39 3.47 9.33
5/17/2022 5:15:00 PM 17.79 64.022 0.077 7.44 3.51 9.3
5/17/2022 5:30:00 PM 17.8 64.04 0.077 7.44 3.39 9.27
5/17/2022 5:45:00 PM 17.8 64.04 0.077 7.4 3.39 9.26
5/17/2022 6:00:00 PM 17.75 63.95 0.077 7.39 3.5 9.23
5/17/2022 6:15:00 PM 17.65 63.77 0.078 7.37 3.43 9.2
5/17/2022 6:30:00 PM 17.55 63.59 0.077 7.36 3.59 9.19
5/17/2022 6:45:00 PM 17.44 63.392 0.077 7.35 3.43 9.17
5/17/2022 7:00:00 PM 17.32 63.176 0.078 7.34 3.46 9.15
5/17/2022 7:15:00 PM 17.18 62.924 0.078 7.33 3.42 9.14
5/17/2022 7:30:00 PM 17.04 62.672 0.078 7.32 3.37 9.15
5/17/2022 7:45:00 PM 16.89 62.402 0.078 7.31 3.41 9.13
5/17/2022 8:00:00 PM 16.72 62.096 0.078 7.3 3.53 9.12
5/17/2022 8:15:00 PM 16.54 61.772 0.079 7.28 3.42 9.11
5/17/2022 8:30:00 PM 16.37 61.466 0.078 7.27 3.48 9.11
5/17/2022 8:45:00 PM 16.2 61.16 0.079 7.25 3.6 9.11
5/17/2022 9:00:00 PM 16.03 60.854 0.079 7.25 3.54 9.11
5/17/2022 9:15:00 PM 15.87 60.566 0.079 7.24 3.88 9.12
5/17/2022 9:30:00 PM 15.72 60.296 0.079 7.23 3.71 9.13
5/17/2022 9:45:00 PM 15.57 60.026 0.079 7.23 3.83 9.16
5/17/2022 10:00:00 PM 15.42 59.756 0.079 7.22 3.93 9.17
5/17/2022 10:15:00 PM 15.28 59.504 0.079 7.22 3.96 9.2
5/17/2022 10:30:00 PM 15.15 59.27 0.079 7.21 3.86 9.23
5/17/2022 10:45:00 PM 15.02 59.036 0.079 7.21 3.94 9.25
5/17/2022 11:00:00 PM 14.9 58.82 0.079 7.21 3.94 9.29
5/17/2022 11:15:00 PM 14.78 58.604 0.079 7.21 3.9 9.31
5/17/2022 11:30:00 PM 14.67 58.406 0.08 7.21 4.07 9.33
5/17/2022 11:45:00 PM 14.55 58.19 0.079 7.2 3.91 9.35
5/18/2022 12:00:00 AM 14.44 57.992 0.079 7.2 3.94 9.38
5/18/2022 12:15:00 AM 14.32 57.776 0.08 7.2 3.99 9.4
5/18/2022 12:30:00 AM 14.22 57.596 0.08 7.2 3.77 9.42
5/18/2022 12:45:00 AM 14.11 57.398 0.08 7.19 3.88 9.45
5/18/2022 1:00:00 AM 14 57.2 0.08 7.19 3.88 9.48
5/18/2022 1:15:00 AM 13.89 57.002 0.08 7.19 4.09 9.51
5/18/2022 1:30:00 AM 13.78 56.804 0.08 7.19 4.03 9.53
5/18/2022 1:45:00 AM 13.68 56.624 0.08 7.19 3.98 9.56
5/18/2022 2:00:00 AM 13.57 56.426 0.08 7.19 3.89 9.58
5/18/2022 2:15:00 AM 13.46 56.228 0.08 7.19 4.02 9.61
5/18/2022 2:30:00 AM 13.35 56.03 0.08 7.19 4.08 9.63
5/18/2022 2:45:00 AM 13.25 55.85 0.08 7.19 3.93 9.67
5/18/2022 3:00:00 AM 13.14 55.652 0.08 7.19 4.24 9.68
5/18/2022 3:15:00 AM 13.03 55.454 0.08 7.19 3.82 9.72
5/18/2022 3:30:00 AM 12.92 55.256 0.08 7.19 4.11 9.74
5/18/2022 3:45:00 AM 12.81 55.058 0.08 7.19 3.9 9.77
5/18/2022 4:00:00 AM 12.71 54.878 0.08 7.19 3.94 9.8
5/18/2022 4:15:00 AM 12.6 54.68 0.08 7.19 3.93 9.84
5/18/2022 4:30:00 AM 12.5 54.5 0.079 7.19 3.98 9.86
5/18/2022 4:45:00 AM 12.41 54.338 0.08 7.19 4.14 9.89
5/18/2022 5:00:00 AM 12.32 54.176 0.08 7.19 3.85 9.91
5/18/2022 5:15:00 AM 12.22 53.996 0.079 7.19 3.91 9.94
5/18/2022 5:30:00 AM 12.12 53.816 0.079 7.19 3.84 9.97
5/18/2022 5:45:00 AM 12.02 53.636 0.08 7.19 3.75 10
5/18/2022 6:00:00 AM 11.93 53.474 0.079 7.19 3.86 10.02
5/18/2022 6:15:00 AM 11.84 53.312 0.079 7.2 3.55 10.06
5/18/2022 6:30:00 AM 11.76 53.168 0.079 7.2 3.93 10.11
5/18/2022 6:45:00 AM 11.69 53.042 0.079 7.21 3.94 10.17
5/18/2022 7:00:00 AM 11.64 52.952 0.079 7.22 3.78 10.22
5/18/2022 7:15:00 AM 11.59 52.862 0.079 7.23 4.3 10.29
5/18/2022 7:30:00 AM 11.56 52.808 0.079 7.25 3.7 10.35
5/18/2022 7:45:00 AM 11.52 52.736 0.079 7.26 3.84 10.41
5/18/2022 8:00:00 AM 11.5 52.7 0.079 7.28 3.75 10.46
5/18/2022 8:15:00 AM 11.49 52.682 0.079 7.31 3.63 10.5
5/18/2022 8:30:00 AM 11.5 52.7 0.079 7.34 3.66 10.53
5/18/2022 8:45:00 AM 11.55 52.79 0.079 7.35 3.69 10.56
5/18/2022 9:00:00 AM 11.61 52.898 0.079 7.36 3.52 10.59
5/18/2022 9:15:00 AM 11.7 53.06 0.079 7.37 3.47 10.6
5/18/2022 9:30:00 AM 11.8 53.24 0.079 7.37 3.58 10.61
5/18/2022 9:45:00 AM 11.91 53.438 0.078 7.36 3.51 10.61
5/18/2022 10:00:00 AM 12.06 53.708 0.078 7.35 3.52 10.61
5/18/2022 10:15:00 AM 12.23 54.014 0.078 7.35 3.23 10.6
5/18/2022 10:30:00 AM 12.4 54.32 0.079 7.36 3.48 10.6
5/18/2022 10:45:00 AM 12.59 54.662 0.078 7.37 3.23 10.57
5/18/2022 11:00:00 AM 12.77 54.986 0.078 7.37 3.2 10.55
5/18/2022 11:15:00 AM 12.99 55.382 0.078 7.37 3.26 10.51
5/18/2022 11:30:00 AM 13.21 55.778 0.078 7.37 3.24 10.49
5/18/2022 11:45:00 AM 13.42 56.156 0.078 7.37 3.14 10.46
5/18/2022 12:00:00 PM 13.69 56.642 0.078 7.39 3.09 10.41
5/18/2022 12:15:00 PM 13.9 57.02 0.078 7.4 3.01 10.39
5/18/2022 12:30:00 PM 14.15 57.47 0.078 7.4 3.16 10.33
5/18/2022 12:45:00 PM 14.29 57.722 0.078 7.41 3.06 10.3
5/18/2022 1:00:00 PM 14.39 57.902 0.078 7.42 3.14 10.26
5/18/2022 1:15:00 PM 14.42 57.956 0.077 7.42 3.14 10.23
5/18/2022 1:30:00 PM 14.5 58.1 0.077 7.44 3.08 10.21
5/18/2022 1:45:00 PM 14.63 58.334 0.077 7.44 3.14 10.18
5/18/2022 2:00:00 PM 14.79 58.622 0.077 7.44 3.02 10.16
5/18/2022 2:15:00 PM 14.84 58.712 0.077 7.45 3.12 10.12
5/18/2022 2:30:00 PM 14.85 58.73 0.077 7.44 3.11 10.1
5/18/2022 2:45:00 PM 14.84 58.712 0.077 7.43 3.01 10.07
5/18/2022 3:00:00 PM 14.82 58.676 0.077 7.42 2.95 10.03
5/18/2022 3:15:00 PM 14.8 58.64 0.077 7.41 3.28 9.99
5/18/2022 3:30:00 PM 14.8 58.64 0.077 7.4 3.04 9.96
5/18/2022 3:45:00 PM 14.79 58.622 0.077 7.39 3.08 9.93
5/18/2022 4:00:00 PM 14.76 58.568 0.077 7.37 3.12 9.88
5/18/2022 4:15:00 PM 14.7 58.46 0.077 7.35 3.04 9.81
5/18/2022 4:30:00 PM 14.66 58.388 0.077 7.34 3.19 9.77
5/18/2022 4:45:00 PM 14.63 58.334 0.077 7.33 3.13 9.73
5/18/2022 5:00:00 PM 14.61 58.298 0.077 7.33 2.95 9.72
5/18/2022 5:15:00 PM 14.62 58.316 0.077 7.33 3.03 9.74
5/18/2022 5:30:00 PM 14.61 58.298 0.077 7.32 2.95 9.72
5/18/2022 5:45:00 PM 14.59 58.262 0.078 7.31 3.1 9.68
5/18/2022 6:00:00 PM 14.56 58.208 0.078 7.31 3.01 9.67
5/18/2022 6:15:00 PM 14.53 58.154 0.078 7.3 3.02 9.65
5/18/2022 6:30:00 PM 14.5 58.1 0.078 7.29 3.09 9.63
5/18/2022 6:45:00 PM 14.47 58.046 0.078 7.29 3.03 9.61
5/18/2022 7:00:00 PM 14.42 57.956 0.078 7.28 2.95 9.59
5/18/2022 7:15:00 PM 14.38 57.884 0.078 7.28 2.96 9.58
5/18/2022 7:30:00 PM 14.34 57.812 0.078 7.27 2.98 9.56
5/18/2022 7:45:00 PM 14.29 57.722 0.078 7.26 2.98 9.55
5/18/2022 8:00:00 PM 14.22 57.596 0.078 7.26 3.07 9.55
5/18/2022 8:15:00 PM 14.16 57.488 0.079 7.25 3.05 9.54
5/18/2022 8:30:00 PM 14.09 57.362 0.078 7.24 3.17 9.53
5/18/2022 8:45:00 PM 14.03 57.254 0.078 7.23 3.26 9.53
5/18/2022 9:00:00 PM 13.95 57.11 0.079 7.23 3.68 9.54
5/18/2022 9:15:00 PM 13.89 57.002 0.079 7.22 3.45 9.54
5/18/2022 9:30:00 PM 13.81 56.858 0.078 7.22 3.58 9.55
5/18/2022 9:45:00 PM 13.74 56.732 0.078 7.22 4.11 9.54
5/18/2022 10:00:00 PM 13.67 56.606 0.078 7.21 3.55 9.55
5/18/2022 10:15:00 PM 13.6 56.48 0.078 7.21 3.75 9.56
5/18/2022 10:30:00 PM 13.53 56.354 0.078 7.21 3.67 9.58
5/18/2022 10:45:00 PM 13.47 56.246 0.078 7.2 3.7 9.58
5/18/2022 11:00:00 PM 13.42 56.156 0.078 7.2 3.98 9.59
5/18/2022 11:15:00 PM 13.36 56.048 0.078 7.2 3.88 9.59
5/18/2022 11:30:00 PM 13.31 55.958 0.078 7.2 3.75 9.6
5/18/2022 11:45:00 PM 13.26 55.868 0.077 7.19 3.88 9.61
5/19/2022 12:00:00 AM 13.22 55.796 0.078 7.19 3.82 9.61
5/19/2022 12:15:00 AM 13.18 55.724 0.078 7.19 3.87 9.63
5/19/2022 12:30:00 AM 13.14 55.652 0.078 7.19 3.77 9.63
5/19/2022 12:45:00 AM 13.1 55.58 0.078 7.19 3.77 9.63
5/19/2022 1:00:00 AM 13.07 55.526 0.078 7.19 3.79 9.64
5/19/2022 1:15:00 AM 13.03 55.454 0.078 7.19 3.79 9.65
5/19/2022 1:30:00 AM 13 55.4 0.078 7.18 3.69 9.66
5/19/2022 1:45:00 AM 12.96 55.328 0.078 7.19 3.68 9.68
5/19/2022 2:00:00 AM 12.93 55.274 0.078 7.18 3.85 9.67
5/19/2022 2:15:00 AM 12.89 55.202 0.078 7.18 3.71 9.68
5/19/2022 2:30:00 AM 12.85 55.13 0.078 7.18 3.71 9.7
5/19/2022 2:45:00 AM 12.82 55.076 0.078 7.18 3.61 9.7
5/19/2022 3:00:00 AM 12.79 55.022 0.078 7.18 3.8 9.72
5/19/2022 3:15:00 AM 12.76 54.968 0.078 7.19 3.74 9.73
5/19/2022 3:30:00 AM 12.73 54.914 0.078 7.19 3.67 9.74
5/19/2022 3:45:00 AM 12.7 54.86 0.078 7.19 3.7 9.76
5/19/2022 4:00:00 AM 12.67 54.806 0.078 7.19 3.65 9.76
5/19/2022 4:15:00 AM 12.64 54.752 0.078 7.19 3.8 9.77
5/19/2022 4:30:00 AM 12.61 54.698 0.078 7.19 3.86 9.79
5/19/2022 4:45:00 AM 12.59 54.662 0.078 7.19 3.78 9.79
5/19/2022 5:00:00 AM 12.56 54.608 0.078 7.19 3.64 9.8
5/19/2022 5:15:00 AM 12.53 54.554 0.078 7.19 3.86 9.81
5/19/2022 5:30:00 AM 12.51 54.518 0.078 7.19 3.95 9.82
5/19/2022 5:45:00 AM 12.48 54.464 0.077 7.19 3.93 9.82
5/19/2022 6:00:00 AM 12.46 54.428 0.078 7.19 3.9 9.83
5/19/2022 6:15:00 AM 12.43 54.374 0.077 7.19 3.96 9.84
5/19/2022 6:30:00 AM 12.41 54.338 0.078 7.19 4.18 9.86
5/19/2022 6:45:00 AM 12.38 54.284 0.077 7.2 3.78 9.87
5/19/2022 7:00:00 AM 12.37 54.266 0.077 7.2 3.55 9.89
5/19/2022 7:15:00 AM 12.35 54.23 0.077 7.2 3.88 9.91
5/19/2022 7:30:00 AM 12.34 54.212 0.077 7.21 3.74 9.92
5/19/2022 7:45:00 AM 12.32 54.176 0.077 7.21 3.65 9.94
5/19/2022 8:00:00 AM 12.31 54.158 0.077 7.21 3.92 9.96
5/19/2022 8:15:00 AM 12.3 54.14 0.077 7.22 3.63 9.99
5/19/2022 8:30:00 AM 12.3 54.14 0.077 7.23 3.55 10.03
5/19/2022 8:45:00 AM 12.3 54.14 0.077 7.23 3.71 10.04
5/19/2022 9:00:00 AM 12.3 54.14 0.076 7.23 3.61 10.07
5/19/2022 9:15:00 AM 12.31 54.158 0.076 7.24 3.74 10.09
5/19/2022 9:30:00 AM 12.31 54.158 0.076 7.24 3.64 10.1
5/19/2022 9:45:00 AM 12.32 54.176 0.076 7.25 3.52 10.12
5/19/2022 10:00:00 AM 12.34 54.212 0.076 7.25 3.59 10.15
5/19/2022 10:15:00 AM 12.35 54.23 0.076 7.25 3.81 10.15
5/19/2022 10:30:00 AM 12.37 54.266 0.076 7.26 3.39 10.17
5/19/2022 10:45:00 AM 12.4 54.32 0.076 7.27 3.28 10.19
5/19/2022 11:00:00 AM 12.43 54.374 0.076 7.28 3.33 10.21
5/19/2022 11:15:00 AM 12.46 54.428 0.076 7.28 3.44 10.22
5/19/2022 11:30:00 AM 12.51 54.518 0.075 7.3 3.43 10.25
5/19/2022 11:45:00 AM 12.67 54.806 0.075 7.32 3.42 10.28
5/19/2022 12:00:00 PM 12.82 55.076 0.075 7.33 3.43 10.28
5/19/2022 12:15:00 PM 12.92 55.256 0.075 7.34 3.45 10.28
5/19/2022 12:30:00 PM 13.04 55.472 0.075 7.36 3.38 10.28
5/19/2022 12:45:00 PM 13.32 55.976 0.075 7.37 3.29 10.27
5/19/2022 1:00:00 PM 13.62 56.516 0.075 7.38 3.29 10.26
5/19/2022 1:15:00 PM 13.78 56.804 0.075 7.39 3.33 10.22
5/19/2022 1:30:00 PM 14 57.2 0.075 7.4 3.23 10.2
5/19/2022 1:45:00 PM 14.3 57.74 0.075 7.39 3.33 10.15
5/19/2022 2:00:00 PM 14.41 57.938 0.075 7.38 3.3 10.1
5/19/2022 2:15:00 PM 14.61 58.298 0.075 7.38 3.27 10.06
5/19/2022 2:30:00 PM 14.74 58.532 0.075 7.38 3.41 10.03
5/19/2022 2:45:00 PM 15.06 59.108 0.075 7.39 3.31 9.98
5/19/2022 3:00:00 PM 15.39 59.702 0.075 7.4 3.35 9.93
5/19/2022 3:15:00 PM 15.64 60.152 0.074 7.39 3.44 9.88
5/19/2022 3:30:00 PM 15.87 60.566 0.075 7.39 3.2 9.83
5/19/2022 3:45:00 PM 16.05 60.89 0.075 7.4 3.11 9.78
5/19/2022 4:00:00 PM 16.23 61.214 0.075 7.4 3.25 9.73
5/19/2022 4:15:00 PM 16.39 61.502 0.075 7.4 3.22 9.68
5/19/2022 4:30:00 PM 16.54 61.772 0.075 7.39 3.2 9.63
5/19/2022 4:45:00 PM 16.67 62.006 0.075 7.4 3.25 9.58
5/19/2022 5:00:00 PM 16.71 62.078 0.075 7.41 3.22 9.52
5/19/2022 5:15:00 PM 16.83 62.294 0.075 7.41 3.46 9.48
5/19/2022 5:30:00 PM 16.89 62.402 0.075 7.41 3.27 9.45
5/19/2022 5:45:00 PM 16.92 62.456 0.075 7.39 3.31 9.41
5/19/2022 6:00:00 PM 16.92 62.456 0.075 7.4 3.3 9.38
5/19/2022 6:15:00 PM 16.92 62.456 0.075 7.39 3.26 9.36
5/19/2022 6:30:00 PM 16.91 62.438 0.075 7.39 3.37 9.33
5/19/2022 6:45:00 PM 16.85 62.33 0.075 7.36 3.28 9.29
5/19/2022 7:00:00 PM 16.78 62.204 0.075 7.35 3.61 9.26
5/19/2022 7:15:00 PM 16.71 62.078 0.076 7.34 3.32 9.24
5/19/2022 7:30:00 PM 16.64 61.952 0.076 7.33 3.26 9.22
5/19/2022 7:45:00 PM 16.56 61.808 0.076 7.31 3.51 9.2
5/19/2022 8:00:00 PM 16.49 61.682 0.076 7.3 3.31 9.18
5/19/2022 8:15:00 PM 16.39 61.502 0.076 7.28 3.92 9.15
5/19/2022 8:30:00 PM 16.29 61.322 0.077 7.27 3.45 9.13
5/19/2022 8:45:00 PM 16.19 61.142 0.077 7.25 3.27 9.11
5/19/2022 9:00:00 PM 16.09 60.962 0.077 7.25 3.58 9.11
5/19/2022 9:15:00 PM 16 60.8 0.077 7.24 3.54 9.1
5/19/2022 9:30:00 PM 15.91 60.638 0.077 7.23 3.84 9.1
5/19/2022 9:45:00 PM 15.82 60.476 0.078 7.22 3.67 9.1
5/19/2022 10:00:00 PM 15.72 60.296 0.078 7.22 3.73 9.11
5/19/2022 10:15:00 PM 15.63 60.134 0.078 7.21 3.54 9.12
5/19/2022 10:30:00 PM 15.54 59.972 0.078 7.21 3.67 9.13
5/19/2022 10:45:00 PM 15.47 59.846 0.079 7.21 3.66 9.15
5/19/2022 11:00:00 PM 15.39 59.702 0.079 7.21 3.61 9.16
5/19/2022 11:15:00 PM 15.3 59.54 0.079 7.21 3.82 9.18
5/19/2022 11:30:00 PM 15.23 59.414 0.079 7.21 3.61 9.19
5/19/2022 11:45:00 PM 15.15 59.27 0.079 7.2 3.77 9.2
5/20/2022 12:00:00 AM 15.07 59.126 0.079 7.2 3.58 9.23
5/20/2022 12:15:00 AM 14.99 58.982 0.079 7.2 3.57 9.24
5/20/2022 12:30:00 AM 14.92 58.856 0.08 7.19 3.55 9.25
5/20/2022 12:45:00 AM 14.84 58.712 0.08 7.19 3.62 9.26
5/20/2022 1:00:00 AM 14.77 58.586 0.08 7.19 3.56 9.29
5/20/2022 1:15:00 AM 14.7 58.46 0.08 7.19 3.51 9.3
5/20/2022 1:30:00 AM 14.62 58.316 0.08 7.19 3.6 9.31
5/20/2022 1:45:00 AM 14.55 58.19 0.08 7.19 3.75 9.33
5/20/2022 2:00:00 AM 14.48 58.064 0.08 7.19 3.66 9.34
5/20/2022 2:15:00 AM 14.41 57.938 0.08 7.19 3.51 9.36
5/20/2022 2:30:00 AM 14.34 57.812 0.08 7.19 3.64 9.37
5/20/2022 2:45:00 AM 14.27 57.686 0.081 7.19 3.42 9.39
5/20/2022 3:00:00 AM 14.2 57.56 0.081 7.19 3.38 9.41
5/20/2022 3:15:00 AM 14.14 57.452 0.081 7.19 3.48 9.42
5/20/2022 3:30:00 AM 14.08 57.344 0.081 7.19 3.53 9.44
5/20/2022 3:45:00 AM 14.03 57.254 0.081 7.19 3.55 9.45
5/20/2022 4:00:00 AM 13.98 57.164 0.081 7.19 3.59 9.46
5/20/2022 4:15:00 AM 13.94 57.092 0.081 7.19 3.57 9.48
5/20/2022 4:30:00 AM 13.89 57.002 0.081 7.19 3.49 9.5
5/20/2022 4:45:00 AM 13.84 56.912 0.081 7.19 3.68 9.5
5/20/2022 5:00:00 AM 13.8 56.84 0.081 7.19 3.67 9.52
5/20/2022 5:15:00 AM 13.75 56.75 0.081 7.19 3.56 9.54
5/20/2022 5:30:00 AM 13.71 56.678 0.082 7.19 3.6 9.55
5/20/2022 5:45:00 AM 13.67 56.606 0.081 7.19 4.34 9.57
5/20/2022 6:00:00 AM 13.62 56.516 0.082 7.19 3.51 9.58
5/20/2022 6:15:00 AM 13.59 56.462 0.082 7.19 3.46 9.59
5/20/2022 6:30:00 AM 13.54 56.372 0.082 7.2 3.36 9.63
5/20/2022 6:45:00 AM 13.52 56.336 0.082 7.2 3.94 9.66
5/20/2022 7:00:00 AM 13.49 56.282 0.082 7.21 3.51 9.68
5/20/2022 7:15:00 AM 13.47 56.246 0.082 7.22 3.3 9.71
5/20/2022 7:30:00 AM 13.46 56.228 0.082 7.23 3.3 9.78
5/20/2022 7:45:00 AM 13.47 56.246 0.082 7.25 3.28 9.83
5/20/2022 8:00:00 AM 13.48 56.264 0.082 7.27 3.15 9.89
5/20/2022 8:15:00 AM 13.51 56.318 0.082 7.28 3.21 9.93
5/20/2022 8:30:00 AM 13.56 56.408 0.081 7.31 3.33 9.96
5/20/2022 8:45:00 AM 13.59 56.462 0.082 7.31 3.24 9.99
5/20/2022 9:00:00 AM 13.62 56.516 0.081 7.3 3.11 9.99
5/20/2022 9:15:00 AM 13.66 56.588 0.082 7.3 3.12 10
5/20/2022 9:30:00 AM 13.71 56.678 0.082 7.32 3.12 10.02
5/20/2022 9:45:00 AM 13.76 56.768 0.082 7.32 3.05 10.03
5/20/2022 10:00:00 AM 13.84 56.912 0.081 7.33 3.03 10.04
5/20/2022 10:15:00 AM 13.92 57.056 0.081 7.34 3.04 10.05
5/20/2022 10:30:00 AM 14.12 57.416 0.081 7.37 3.05 10.05
5/20/2022 10:45:00 AM 14.25 57.65 0.081 7.38 2.9 10.05
5/20/2022 11:00:00 AM 14.38 57.884 0.081 7.39 3.17 10.05
5/20/2022 11:15:00 AM 14.56 58.208 0.081 7.4 3.02 10.03
5/20/2022 11:30:00 AM 14.79 58.622 0.081 7.4 2.91 10.02
5/20/2022 11:45:00 AM 14.99 58.982 0.081 7.4 3.05 9.98
5/20/2022 12:00:00 PM 15.2 59.36 0.081 7.41 2.92 9.96
5/20/2022 12:15:00 PM 15.37 59.666 0.081 7.43 2.87 9.93
5/20/2022 12:30:00 PM 15.57 60.026 0.081 7.42 2.85 9.89
5/20/2022 12:45:00 PM 15.74 60.332 0.081 7.41 2.96 9.85
5/20/2022 1:00:00 PM 15.84 60.512 0.081 7.42 2.98 9.8
5/20/2022 1:15:00 PM 15.8 60.44 0.08 7.39 2.86 9.72
5/20/2022 1:30:00 PM 15.79 60.422 0.081 7.36 3.02 9.64
5/20/2022 1:45:00 PM 15.93 60.674 0.08 7.37 2.97 9.63
5/20/2022 2:00:00 PM 16.05 60.89 0.081 7.38 3.12 9.63
5/20/2022 2:15:00 PM 16.12 61.016 0.081 7.38 2.94 9.61
5/20/2022 2:30:00 PM 16.19 61.142 0.08 7.38 3.11 9.6
5/20/2022 2:45:00 PM 16.17 61.106 0.08 7.36 2.92 9.57
5/20/2022 3:00:00 PM 16.17 61.106 0.08 7.37 3.08 9.56
5/20/2022 3:15:00 PM 16.15 61.07 0.081 7.35 3.02 9.52
5/20/2022 3:30:00 PM 16.19 61.142 0.081 7.36 2.95 9.52
5/20/2022 3:45:00 PM 16.22 61.196 0.08 7.37 2.89 9.52
5/20/2022 4:00:00 PM 16.29 61.322 0.08 7.37 2.94 9.52
5/20/2022 4:15:00 PM 16.27 61.286 0.08 7.36 2.94 9.48
5/20/2022 4:30:00 PM 16.26 61.268 0.08 7.34 2.96 9.44
5/20/2022 4:45:00 PM 16.26 61.268 0.08 7.34 3.17 9.43
5/20/2022 5:00:00 PM 16.29 61.322 0.08 7.35 2.94 9.43
5/20/2022 5:15:00 PM 16.31 61.358 0.08 7.34 2.9 9.41
5/20/2022 5:30:00 PM 16.32 61.376 0.08 7.33 3.03 9.39
5/20/2022 5:45:00 PM 16.33 61.394 0.08 7.33 3.03 9.38
5/20/2022 6:00:00 PM 16.34 61.412 0.08 7.33 3.08 9.36
5/20/2022 6:15:00 PM 16.34 61.412 0.08 7.33 3.07 9.36
5/20/2022 6:30:00 PM 16.34 61.412 0.08 7.33 3.07 9.36
5/20/2022 6:45:00 PM 16.34 61.412 0.08 7.33 3.11 9.36
5/20/2022 7:00:00 PM 16.32 61.376 0.08 7.32 3.08 9.34
5/20/2022 7:15:00 PM 16.31 61.358 0.08 7.31 3.17 9.32
5/20/2022 7:30:00 PM 16.29 61.322 0.081 7.3 3.04 9.29
5/20/2022 7:45:00 PM 16.26 61.268 0.081 7.29 3.1 9.26
5/20/2022 8:00:00 PM 16.23 61.214 0.081 7.27 3.09 9.23
5/20/2022 8:15:00 PM 16.19 61.142 0.081 7.26 3 9.19
5/20/2022 8:30:00 PM 16.15 61.07 0.081 7.24 3.03 9.16
5/20/2022 8:45:00 PM 16.11 60.998 0.081 7.23 3.05 9.13
5/20/2022 9:00:00 PM 16.07 60.926 0.081 7.21 3.46 9.12
5/20/2022 9:15:00 PM 16.03 60.854 0.081 7.21 3.38 9.1
5/20/2022 9:30:00 PM 15.99 60.782 0.081 7.19 3.36 9.09
5/20/2022 9:45:00 PM 15.95 60.71 0.081 7.19 3.3 9.09
5/20/2022 10:00:00 PM 15.91 60.638 0.081 7.18 3.47 9.09
5/20/2022 10:15:00 PM 15.88 60.584 0.082 7.17 3.38 9.09
5/20/2022 10:30:00 PM 15.84 60.512 0.082 7.16 3.38 9.09
5/20/2022 10:45:00 PM 15.81 60.458 0.082 7.16 3.43 9.1
5/20/2022 11:00:00 PM 15.78 60.404 0.082 7.16 3.25 9.1
5/20/2022 11:15:00 PM 15.75 60.35 0.082 7.16 3.3 9.1
5/20/2022 11:30:00 PM 15.72 60.296 0.082 7.15 3.38 9.1
5/20/2022 11:45:00 PM 15.69 60.242 0.082 7.15 3.55 9.11
5/21/2022 12:00:00 AM 15.66 60.188 0.082 7.15 3.8 9.11
5/21/2022 12:15:00 AM 15.64 60.152 0.082 7.15 3.3 9.12
5/21/2022 12:30:00 AM 15.61 60.098 0.082 7.15 3.34 9.13
5/21/2022 12:45:00 AM 15.59 60.062 0.082 7.15 3.28 9.14
5/21/2022 1:00:00 AM 15.57 60.026 0.082 7.14 3.36 9.14
5/21/2022 1:15:00 AM 15.55 59.99 0.082 7.14 3.4 9.14
5/21/2022 1:30:00 AM 15.53 59.954 0.082 7.14 3.64 9.15
5/21/2022 1:45:00 AM 15.51 59.918 0.082 7.14 3.48 9.16
5/21/2022 2:00:00 AM 15.48 59.864 0.082 7.14 3.39 9.17
5/21/2022 2:15:00 AM 15.46 59.828 0.082 7.14 3.33 9.18
5/21/2022 2:30:00 AM 15.44 59.792 0.082 7.14 3.33 9.18
5/21/2022 2:45:00 AM 15.42 59.756 0.082 7.14 3.26 9.18
5/21/2022 3:00:00 AM 15.39 59.702 0.082 7.13 3.46 9.19
5/21/2022 3:15:00 AM 15.37 59.666 0.083 7.13 3.56 9.19
5/21/2022 3:30:00 AM 15.35 59.63 0.083 7.13 3.4 9.2
5/21/2022 3:45:00 AM 15.32 59.576 0.083 7.14 3.52 9.21
5/21/2022 4:00:00 AM 15.3 59.54 0.082 7.15 3.65 9.23
5/21/2022 4:15:00 AM 15.27 59.486 0.082 7.14 3.57 9.25
5/21/2022 4:30:00 AM 15.25 59.45 0.082 7.16 3.4 9.27
5/21/2022 4:45:00 AM 15.22 59.396 0.082 7.15 3.22 9.27
5/21/2022 5:00:00 AM 15.2 59.36 0.082 7.16 3.23 9.27
5/21/2022 5:15:00 AM 15.17 59.306 0.082 7.16 3.19 9.28
5/21/2022 5:30:00 AM 15.15 59.27 0.082 7.16 3.24 9.29
5/21/2022 5:45:00 AM 15.12 59.216 0.082 7.16 3.14 9.3
5/21/2022 6:00:00 AM 15.1 59.18 0.082 7.17 3.12 9.31
5/21/2022 6:15:00 AM 15.08 59.144 0.082 7.17 3.09 9.33
5/21/2022 6:30:00 AM 15.06 59.108 0.082 7.18 3.22 9.35
5/21/2022 6:45:00 AM 15.05 59.09 0.082 7.19 3.09 9.39
5/21/2022 7:00:00 AM 15.05 59.09 0.082 7.2 3.15 9.42
5/21/2022 7:15:00 AM 15.05 59.09 0.082 7.22 2.97 9.46
5/21/2022 7:30:00 AM 15.07 59.126 0.082 7.23 3.08 9.52
5/21/2022 7:45:00 AM 15.09 59.162 0.082 7.25 2.95 9.57
5/21/2022 8:00:00 AM 15.14 59.252 0.082 7.27 2.98 9.6
5/21/2022 8:15:00 AM 15.16 59.288 0.081 7.29 2.94 9.64
5/21/2022 8:30:00 AM 15.21 59.378 0.082 7.3 2.97 9.66
5/21/2022 8:45:00 AM 15.29 59.522 0.081 7.3 2.88 9.69
5/21/2022 9:00:00 AM 15.37 59.666 0.081 7.31 4.56 9.71
5/21/2022 9:15:00 AM 15.49 59.882 0.081 7.31 3.15 9.71
5/21/2022 9:30:00 AM 15.63 60.134 0.081 7.33 3.01 9.71
5/21/2022 9:45:00 AM 15.79 60.422 0.081 7.33 3.01 9.71
5/21/2022 10:00:00 AM 15.95 60.71 0.081 7.36 3.31 9.71
5/21/2022 10:15:00 AM 16.16 61.088 0.08 7.37 2.83 9.71
5/21/2022 10:30:00 AM 16.4 61.52 0.08 7.4 3.07 9.69
5/21/2022 10:45:00 AM 16.68 62.024 0.08 7.4 3.04 9.65
5/21/2022 11:00:00 AM 16.86 62.348 0.08 7.42 3.07 9.64
5/21/2022 11:15:00 AM 17.08 62.744 0.08 7.43 2.8 9.63
5/21/2022 11:30:00 AM 17.21 62.978 0.08 7.44 2.81 9.58
5/21/2022 11:45:00 AM 17.51 63.518 0.08 7.45 2.88 9.56
5/21/2022 12:00:00 PM 17.78 64.004 0.08 7.45 2.87 9.52
5/21/2022 12:15:00 PM -99999.99 -179968 -99999.99 -99999.99 -99999.99 -99999.99
5/21/2022 12:30:00 PM -99999.99 -179968 -99999.99 -99999.99 -99999.99 -99999.99
5/21/2022 12:45:00 PM -99999.99 -179968 -99999.99 -99999.99 -99999.99 -99999.99
5/21/2022 1:00:00 PM -99999.99 -179968 -99999.99 -99999.99 -99999.99 -99999.99
5/21/2022 1:15:00 PM -99999.99 -179968 -99999.99 -99999.99 -99999.99 -99999.99
5/21/2022 1:30:00 PM -99999.99 -179968 -99999.99 -99999.99 -99999.99 -99999.99
5/21/2022 1:45:00 PM -99999.99 -179968 -99999.99 -99999.99 -99999.99 -99999.99
5/21/2022 2:00:00 PM -99999.99 -179968 -99999.99 -99999.99 -99999.99 -99999.99
5/21/2022 2:15:00 PM -99999.99 -179968 -99999.99 -99999.99 -99999.99 -99999.99
5/21/2022 2:30:00 PM -99999.99 -179968 -99999.99 -99999.99 -99999.99 -99999.99
5/21/2022 2:45:00 PM -99999.99 -179968 -99999.99 -99999.99 -99999.99 -99999.99
5/21/2022 3:00:00 PM -99999.99 -179968 -99999.99 -99999.99 -99999.99 -99999.99
5/21/2022 3:15:00 PM -99999.99 -179968 -99999.99 -99999.99 -99999.99 -99999.99
5/21/2022 3:30:00 PM -99999.99 -179968 -99999.99 -99999.99 -99999.99 -99999.99
5/21/2022 3:45:00 PM -99999.99 -179968 -99999.99 -99999.99 -99999.99 -99999.99
5/21/2022 4:00:00 PM -99999.99 -179968 -99999.99 -99999.99 -99999.99 -99999.99
5/21/2022 4:15:00 PM -99999.99 -179968 -99999.99 -99999.99 -99999.99 -99999.99
5/21/2022 4:30:00 PM -99999.99 -179968 -99999.99 -99999.99 -99999.99 -99999.99
5/21/2022 4:45:00 PM -99999.99 -179968 -99999.99 -99999.99 -99999.99 -99999.99
5/21/2022 5:00:00 PM -99999.99 -179968 -99999.99 -99999.99 -99999.99 -99999.99
5/21/2022 5:15:00 PM -99999.99 -179968 -99999.99 -99999.99 -99999.99 -99999.99
5/21/2022 5:30:00 PM -99999.99 -179968 -99999.99 -99999.99 -99999.99 -99999.99
5/21/2022 5:45:00 PM -99999.99 -179968 -99999.99 -99999.99 -99999.99 -99999.99
5/21/2022 6:00:00 PM -99999.99 -179968 -99999.99 -99999.99 -99999.99 -99999.99
5/21/2022 6:15:00 PM -99999.99 -179968 -99999.99 -99999.99 -99999.99 -99999.99
5/21/2022 6:30:00 PM -99999.99 -179968 -99999.99 -99999.99 -99999.99 -99999.99
5/21/2022 6:45:00 PM -99999.99 -179968 -99999.99 -99999.99 -99999.99 -99999.99
5/21/2022 7:00:00 PM -99999.99 -179968 -99999.99 -99999.99 -99999.99 -99999.99
5/21/2022 7:15:00 PM -99999.99 -179968 -99999.99 -99999.99 -99999.99 -99999.99
5/21/2022 7:30:00 PM -99999.99 -179968 -99999.99 -99999.99 -99999.99 -99999.99
5/21/2022 7:45:00 PM -99999.99 -179968 -99999.99 -99999.99 -99999.99 -99999.99
5/21/2022 8:00:00 PM -99999.99 -179968 -99999.99 -99999.99 -99999.99 -99999.99
5/21/2022 8:15:00 PM -99999.99 -179968 -99999.99 -99999.99 -99999.99 -99999.99
5/21/2022 8:30:00 PM -99999.99 -179968 -99999.99 -99999.99 -99999.99 -99999.99
5/21/2022 8:45:00 PM -99999.99 -179968 -99999.99 -99999.99 -99999.99 -99999.99
5/21/2022 9:00:00 PM -99999.99 -179968 -99999.99 -99999.99 -99999.99 -99999.99
5/21/2022 9:15:00 PM -99999.99 -179968 -99999.99 -99999.99 -99999.99 -99999.99
5/21/2022 9:30:00 PM -99999.99 -179968 -99999.99 -99999.99 -99999.99 -99999.99
5/21/2022 9:45:00 PM -99999.99 -179968 -99999.99 -99999.99 -99999.99 -99999.99
5/21/2022 10:00:00 PM -99999.99 -179968 -99999.99 -99999.99 -99999.99 -99999.99
5/21/2022 10:15:00 PM -99999.99 -179968 -99999.99 -99999.99 -99999.99 -99999.99
5/21/2022 10:30:00 PM -99999.99 -179968 -99999.99 -99999.99 -99999.99 -99999.99
5/21/2022 10:45:00 PM -99999.99 -179968 -99999.99 -99999.99 -99999.99 -99999.99
5/21/2022 11:00:00 PM -99999.99 -179968 -99999.99 -99999.99 -99999.99 -99999.99
5/21/2022 11:15:00 PM -99999.99 -179968 -99999.99 -99999.99 -99999.99 -99999.99
5/21/2022 11:30:00 PM -99999.99 -179968 -99999.99 -99999.99 -99999.99 -99999.99
5/21/2022 11:45:00 PM -99999.99 -179968 -99999.99 -99999.99 -99999.99 -99999.99
5/22/2022 12:00:00 AM -99999.99 -179968 -99999.99 -99999.99 -99999.99 -99999.99
5/22/2022 12:15:00 AM -99999.99 -179968 -99999.99 -99999.99 -99999.99 -99999.99
5/22/2022 12:30:00 AM -99999.99 -179968 -99999.99 -99999.99 -99999.99 -99999.99
5/22/2022 12:45:00 AM -99999.99 -179968 -99999.99 -99999.99 -99999.99 -99999.99
5/22/2022 1:00:00 AM -99999.99 -179968 -99999.99 -99999.99 -99999.99 -99999.99
5/22/2022 1:15:00 AM -99999.99 -179968 -99999.99 -99999.99 -99999.99 -99999.99
5/22/2022 1:30:00 AM -99999.99 -179968 -99999.99 -99999.99 -99999.99 -99999.99
5/22/2022 1:45:00 AM -99999.99 -179968 -99999.99 -99999.99 -99999.99 -99999.99
5/22/2022 2:00:00 AM -99999.99 -179968 -99999.99 -99999.99 -99999.99 -99999.99
5/22/2022 2:15:00 AM -99999.99 -179968 -99999.99 -99999.99 -99999.99 -99999.99
5/22/2022 2:30:00 AM -99999.99 -179968 -99999.99 -99999.99 -99999.99 -99999.99
5/22/2022 2:45:00 AM -99999.99 -179968 -99999.99 -99999.99 -99999.99 -99999.99
5/22/2022 3:00:00 AM -99999.99 -179968 -99999.99 -99999.99 -99999.99 -99999.99
5/22/2022 3:15:00 AM -99999.99 -179968 -99999.99 -99999.99 -99999.99 -99999.99
5/22/2022 3:30:00 AM -99999.99 -179968 -99999.99 -99999.99 -99999.99 -99999.99
5/22/2022 3:45:00 AM -99999.99 -179968 -99999.99 -99999.99 -99999.99 -99999.99
5/22/2022 4:00:00 AM -99999.99 -179968 -99999.99 -99999.99 -99999.99 -99999.99
5/22/2022 4:15:00 AM -99999.99 -179968 -99999.99 -99999.99 -99999.99 -99999.99
5/22/2022 4:30:00 AM -99999.99 -179968 -99999.99 -99999.99 -99999.99 -99999.99
5/22/2022 4:45:00 AM -99999.99 -179968 -99999.99 -99999.99 -99999.99 -99999.99
5/22/2022 5:00:00 AM -99999.99 -179968 -99999.99 -99999.99 -99999.99 -99999.99
5/22/2022 5:15:00 AM -99999.99 -179968 -99999.99 -99999.99 -99999.99 -99999.99
5/22/2022 5:30:00 AM -99999.99 -179968 -99999.99 -99999.99 -99999.99 -99999.99
5/22/2022 5:45:00 AM -99999.99 -179968 -99999.99 -99999.99 -99999.99 -99999.99
5/22/2022 6:00:00 AM -99999.99 -179968 -99999.99 -99999.99 -99999.99 -99999.99
5/22/2022 6:15:00 AM -99999.99 -179968 -99999.99 -99999.99 -99999.99 -99999.99
5/22/2022 6:30:00 AM -99999.99 -179968 -99999.99 -99999.99 -99999.99 -99999.99
5/22/2022 6:45:00 AM -99999.99 -179968 -99999.99 -99999.99 -99999.99 -99999.99
5/22/2022 7:00:00 AM -99999.99 -179968 -99999.99 -99999.99 -99999.99 -99999.99
5/22/2022 7:15:00 AM -99999.99 -179968 -99999.99 -99999.99 -99999.99 -99999.99
5/22/2022 7:30:00 AM 17.49 63.482 0.082 8.73 3.46 9.06
5/22/2022 7:45:00 AM -99999.99 -179968 -99999.99 -99999.99 -99999.99 -99999.99
5/22/2022 8:00:00 AM -99999.99 -179968 -99999.99 -99999.99 -99999.99 -99999.99
5/22/2022 8:15:00 AM -99999.99 -179968 -99999.99 -99999.99 -99999.99 -99999.99
5/22/2022 8:30:00 AM -99999.99 -179968 -99999.99 -99999.99 -99999.99 -99999.99
5/22/2022 8:45:00 AM 17.5 63.5 0.081 9.06 3.41 9.21
5/22/2022 9:00:00 AM 17.6 63.68 0.082 8.51 3.27 9.23
5/22/2022 9:15:00 AM -99999.99 -179968 -99999.99 -99999.99 -99999.99 -99999.99
5/22/2022 9:30:00 AM -99999.99 -179968 -99999.99 -99999.99 -99999.99 -99999.99
5/22/2022 9:45:00 AM -99999.99 -179968 -99999.99 -99999.99 -99999.99 -99999.99
5/22/2022 10:00:00 AM -99999.99 -179968 -99999.99 -99999.99 -99999.99 -99999.99
5/22/2022 10:15:00 AM -99999.99 -179968 -99999.99 -99999.99 -99999.99 -99999.99
5/22/2022 10:30:00 AM -99999.99 -179968 -99999.99 -99999.99 -99999.99 -99999.99
5/22/2022 10:45:00 AM -99999.99 -179968 -99999.99 -99999.99 -99999.99 -99999.99
5/22/2022 11:00:00 AM -99999.99 -179968 -99999.99 -99999.99 -99999.99 -99999.99
5/22/2022 11:15:00 AM -99999.99 -179968 -99999.99 -99999.99 -99999.99 -99999.99
5/22/2022 11:30:00 AM -99999.99 -179968 -99999.99 -99999.99 -99999.99 -99999.99
5/22/2022 11:45:00 AM -99999.99 -179968 -99999.99 -99999.99 -99999.99 -99999.99
5/22/2022 12:00:00 PM -99999.99 -179968 -99999.99 -99999.99 -99999.99 -99999.99
5/22/2022 12:15:00 PM -99999.99 -179968 -99999.99 -99999.99 -99999.99 -99999.99
5/22/2022 12:30:00 PM -99999.99 -179968 -99999.99 -99999.99 -99999.99 -99999.99
5/22/2022 12:45:00 PM -99999.99 -179968 -99999.99 -99999.99 -99999.99 -99999.99
5/22/2022 1:00:00 PM -99999.99 -179968 -99999.99 -99999.99 -99999.99 -99999.99
5/22/2022 1:15:00 PM -99999.99 -179968 -99999.99 -99999.99 -99999.99 -99999.99
5/22/2022 1:30:00 PM -99999.99 -179968 -99999.99 -99999.99 -99999.99 -99999.99
5/22/2022 1:45:00 PM -99999.99 -179968 -99999.99 -99999.99 -99999.99 -99999.99
5/22/2022 2:00:00 PM -99999.99 -179968 -99999.99 -99999.99 -99999.99 -99999.99
5/22/2022 2:15:00 PM -99999.99 -179968 -99999.99 -99999.99 -99999.99 -99999.99
5/22/2022 2:30:00 PM -99999.99 -179968 -99999.99 -99999.99 -99999.99 -99999.99
5/22/2022 2:45:00 PM -99999.99 -179968 -99999.99 -99999.99 -99999.99 -99999.99
5/22/2022 3:00:00 PM -99999.99 -179968 -99999.99 -99999.99 -99999.99 -99999.99
5/22/2022 3:15:00 PM -99999.99 -179968 -99999.99 -99999.99 -99999.99 -99999.99
5/22/2022 3:30:00 PM -99999.99 -179968 -99999.99 -99999.99 -99999.99 -99999.99
5/22/2022 3:45:00 PM 20.81 69.458 0.08 10.38 2.92 8.75
5/22/2022 4:00:00 PM 20.73 69.314 0.08 9.75 2.88 8.68
5/22/2022 4:15:00 PM -99999.99 -179968 -99999.99 -99999.99 -99999.99 -99999.99
5/22/2022 4:30:00 PM -99999.99 -179968 -99999.99 -99999.99 -99999.99 -99999.99
5/22/2022 4:45:00 PM -99999.99 -179968 -99999.99 -99999.99 -99999.99 -99999.99
5/22/2022 5:00:00 PM -99999.99 -179968 -99999.99 -99999.99 -99999.99 -99999.99
5/22/2022 5:15:00 PM -99999.99 -179968 -99999.99 -99999.99 -99999.99 -99999.99
5/22/2022 5:30:00 PM -99999.99 -179968 -99999.99 -99999.99 -99999.99 -99999.99
5/22/2022 5:45:00 PM -99999.99 -179968 -99999.99 -99999.99 -99999.99 -99999.99
5/22/2022 6:00:00 PM -99999.99 -179968 -99999.99 -99999.99 -99999.99 -99999.99
5/22/2022 6:15:00 PM -99999.99 -179968 -99999.99 -99999.99 -99999.99 -99999.99
5/22/2022 6:30:00 PM -99999.99 -179968 -99999.99 -99999.99 -99999.99 -99999.99
5/22/2022 6:45:00 PM -99999.99 -179968 -99999.99 -99999.99 -99999.99 -99999.99
5/22/2022 7:00:00 PM -99999.99 -179968 -99999.99 -99999.99 -99999.99 -99999.99
5/22/2022 7:15:00 PM -99999.99 -179968 -99999.99 -99999.99 -99999.99 -99999.99
5/22/2022 7:30:00 PM -99999.99 -179968 -99999.99 -99999.99 -99999.99 -99999.99
5/22/2022 7:45:00 PM -99999.99 -179968 -99999.99 -99999.99 -99999.99 -99999.99
5/22/2022 8:00:00 PM -99999.99 -179968 -99999.99 -99999.99 -99999.99 -99999.99
5/22/2022 8:15:00 PM -99999.99 -179968 -99999.99 -99999.99 -99999.99 -99999.99
5/22/2022 8:30:00 PM -99999.99 -179968 -99999.99 -99999.99 -99999.99 -99999.99
5/22/2022 8:45:00 PM -99999.99 -179968 -99999.99 -99999.99 -99999.99 -99999.99
5/22/2022 9:00:00 PM -99999.99 -179968 -99999.99 -99999.99 -99999.99 -99999.99
5/22/2022 9:15:00 PM -99999.99 -179968 -99999.99 -99999.99 -99999.99 -99999.99
5/22/2022 9:30:00 PM -99999.99 -179968 -99999.99 -99999.99 -99999.99 -99999.99
5/22/2022 9:45:00 PM -99999.99 -179968 -99999.99 -99999.99 -99999.99 -99999.99
5/22/2022 10:00:00 PM -99999.99 -179968 -99999.99 -99999.99 -99999.99 -99999.99
5/22/2022 10:15:00 PM -99999.99 -179968 -99999.99 -99999.99 -99999.99 -99999.99
5/22/2022 10:30:00 PM -99999.99 -179968 -99999.99 -99999.99 -99999.99 -99999.99
5/22/2022 10:45:00 PM -99999.99 -179968 -99999.99 -99999.99 -99999.99 -99999.99
5/22/2022 11:00:00 PM -99999.99 -179968 -99999.99 -99999.99 -99999.99 -99999.99
5/22/2022 11:15:00 PM -99999.99 -179968 -99999.99 -99999.99 -99999.99 -99999.99
5/22/2022 11:30:00 PM -99999.99 -179968 -99999.99 -99999.99 -99999.99 -99999.99
5/22/2022 11:45:00 PM -99999.99 -179968 -99999.99 -99999.99 -99999.99 -99999.99
5/23/2022 12:00:00 AM -99999.99 -179968 -99999.99 -99999.99 -99999.99 -99999.99
5/23/2022 12:15:00 AM -99999.99 -179968 -99999.99 -99999.99 -99999.99 -99999.99
5/23/2022 12:30:00 AM -99999.99 -179968 -99999.99 -99999.99 -99999.99 -99999.99
5/23/2022 12:45:00 AM -99999.99 -179968 -99999.99 -99999.99 -99999.99 -99999.99
5/23/2022 1:00:00 AM -99999.99 -179968 -99999.99 -99999.99 -99999.99 -99999.99
5/23/2022 1:15:00 AM -99999.99 -179968 -99999.99 -99999.99 -99999.99 -99999.99
5/23/2022 1:30:00 AM -99999.99 -179968 -99999.99 -99999.99 -99999.99 -99999.99
5/23/2022 1:45:00 AM -99999.99 -179968 -99999.99 -99999.99 -99999.99 -99999.99
5/23/2022 2:00:00 AM -99999.99 -179968 -99999.99 -99999.99 -99999.99 -99999.99
5/23/2022 2:15:00 AM -99999.99 -179968 -99999.99 -99999.99 -99999.99 -99999.99
5/23/2022 2:30:00 AM -99999.99 -179968 -99999.99 -99999.99 -99999.99 -99999.99
5/23/2022 2:45:00 AM -99999.99 -179968 -99999.99 -99999.99 -99999.99 -99999.99
5/23/2022 3:00:00 AM -99999.99 -179968 -99999.99 -99999.99 -99999.99 -99999.99
5/23/2022 3:15:00 AM -99999.99 -179968 -99999.99 -99999.99 -99999.99 -99999.99
5/23/2022 3:30:00 AM -99999.99 -179968 -99999.99 -99999.99 -99999.99 -99999.99
5/23/2022 3:45:00 AM -99999.99 -179968 -99999.99 -99999.99 -99999.99 -99999.99
5/23/2022 4:00:00 AM -99999.99 -179968 -99999.99 -99999.99 -99999.99 -99999.99
5/23/2022 4:15:00 AM -99999.99 -179968 -99999.99 -99999.99 -99999.99 -99999.99
5/23/2022 4:30:00 AM -99999.99 -179968 -99999.99 -99999.99 -99999.99 -99999.99
5/23/2022 4:45:00 AM -99999.99 -179968 -99999.99 -99999.99 -99999.99 -99999.99
5/23/2022 5:00:00 AM -99999.99 -179968 -99999.99 -99999.99 -99999.99 -99999.99
5/23/2022 5:15:00 AM -99999.99 -179968 -99999.99 -99999.99 -99999.99 -99999.99
5/23/2022 5:30:00 AM -99999.99 -179968 -99999.99 -99999.99 -99999.99 -99999.99
5/23/2022 5:45:00 AM -99999.99 -179968 -99999.99 -99999.99 -99999.99 -99999.99
5/23/2022 6:00:00 AM -99999.99 -179968 -99999.99 -99999.99 -99999.99 -99999.99
5/23/2022 6:15:00 AM -99999.99 -179968 -99999.99 -99999.99 -99999.99 -99999.99
5/23/2022 6:30:00 AM -99999.99 -179968 -99999.99 -99999.99 -99999.99 -99999.99
5/23/2022 6:45:00 AM -99999.99 -179968 -99999.99 -99999.99 -99999.99 -99999.99
5/23/2022 7:00:00 AM -99999.99 -179968 -99999.99 -99999.99 -99999.99 -99999.99
5/23/2022 7:15:00 AM -99999.99 -179968 -99999.99 -99999.99 -99999.99 -99999.99
5/23/2022 7:30:00 AM -99999.99 -179968 -99999.99 -99999.99 -99999.99 -99999.99
5/23/2022 7:45:00 AM -99999.99 -179968 -99999.99 -99999.99 -99999.99 -99999.99
5/23/2022 8:00:00 AM -99999.99 -179968 -99999.99 -99999.99 -99999.99 -99999.99
5/23/2022 8:15:00 AM -99999.99 -179968 -99999.99 -99999.99 -99999.99 -99999.99
5/23/2022 8:30:00 AM -99999.99 -179968 -99999.99 -99999.99 -99999.99 -99999.99
5/23/2022 8:45:00 AM -99999.99 -179968 -99999.99 -99999.99 -99999.99 -99999.99
5/23/2022 9:00:00 AM -99999.99 -179968 -99999.99 -99999.99 -99999.99 -99999.99
5/23/2022 9:15:00 AM -99999.99 -179968 -99999.99 -99999.99 -99999.99 -99999.99
5/23/2022 9:30:00 AM -99999.99 -179968 -99999.99 -99999.99 -99999.99 -99999.99
5/23/2022 9:45:00 AM -99999.99 -179968 -99999.99 -99999.99 -99999.99 -99999.99
5/23/2022 10:00:00 AM -99999.99 -179968 -99999.99 -99999.99 -99999.99 -99999.99
5/23/2022 10:15:00 AM -99999.99 -179968 -99999.99 -99999.99 -99999.99 -99999.99
5/23/2022 10:30:00 AM -99999.99 -179968 -99999.99 -99999.99 -99999.99 -99999.99
5/23/2022 10:45:00 AM -99999.99 -179968 -99999.99 -99999.99 -99999.99 -99999.99
5/23/2022 11:00:00 AM -99999.99 -179968 -99999.99 -99999.99 -99999.99 -99999.99
5/23/2022 11:15:00 AM -99999.99 -179968 -99999.99 -99999.99 -99999.99 -99999.99
5/23/2022 11:30:00 AM -99999.99 -179968 -99999.99 -99999.99 -99999.99 -99999.99
5/23/2022 11:45:00 AM -99999.99 -179968 -99999.99 -99999.99 -99999.99 -99999.99
5/23/2022 12:00:00 PM -99999.99 -179968 -99999.99 -99999.99 -99999.99 -99999.99
5/23/2022 12:15:00 PM -99999.99 -179968 -99999.99 -99999.99 -99999.99 -99999.99
5/23/2022 12:30:00 PM -99999.99 -179968 -99999.99 -99999.99 -99999.99 -99999.99
5/23/2022 12:45:00 PM -99999.99 -179968 -99999.99 -99999.99 -99999.99 -99999.99
5/23/2022 1:00:00 PM -99999.99 -179968 -99999.99 -99999.99 -99999.99 -99999.99
5/23/2022 1:15:00 PM -99999.99 -179968 -99999.99 -99999.99 -99999.99 -99999.99
5/23/2022 1:30:00 PM -99999.99 -179968 -99999.99 -99999.99 -99999.99 -99999.99
5/23/2022 1:45:00 PM -99999.99 -179968 -99999.99 -99999.99 -99999.99 -99999.99
5/23/2022 2:00:00 PM -99999.99 -179968 -99999.99 -99999.99 -99999.99 -99999.99
5/23/2022 2:15:00 PM -99999.99 -179968 -99999.99 -99999.99 -99999.99 -99999.99
5/23/2022 2:30:00 PM -99999.99 -179968 -99999.99 -99999.99 -99999.99 -99999.99
5/23/2022 2:45:00 PM -99999.99 -179968 -99999.99 -99999.99 -99999.99 -99999.99
5/23/2022 3:00:00 PM -99999.99 -179968 -99999.99 -99999.99 -99999.99 -99999.99
5/23/2022 3:15:00 PM -99999.99 -179968 -99999.99 -99999.99 -99999.99 -99999.99
5/23/2022 3:30:00 PM -99999.99 -179968 -99999.99 -99999.99 -99999.99 -99999.99
5/23/2022 3:45:00 PM -99999.99 -179968 -99999.99 -99999.99 -99999.99 -99999.99
5/23/2022 4:00:00 PM -99999.99 -179968 -99999.99 -99999.99 -99999.99 -99999.99
5/23/2022 4:15:00 PM -99999.99 -179968 -99999.99 -99999.99 -99999.99 -99999.99
5/23/2022 4:30:00 PM -99999.99 -179968 -99999.99 -99999.99 -99999.99 -99999.99
5/23/2022 4:45:00 PM -99999.99 -179968 -99999.99 -99999.99 -99999.99 -99999.99
5/23/2022 5:00:00 PM -99999.99 -179968 -99999.99 -99999.99 -99999.99 -99999.99
5/23/2022 5:15:00 PM -99999.99 -179968 -99999.99 -99999.99 -99999.99 -99999.99
5/23/2022 5:30:00 PM -99999.99 -179968 -99999.99 -99999.99 -99999.99 -99999.99
5/23/2022 5:45:00 PM -99999.99 -179968 -99999.99 -99999.99 -99999.99 -99999.99
5/23/2022 6:00:00 PM -99999.99 -179968 -99999.99 -99999.99 -99999.99 -99999.99
5/23/2022 6:15:00 PM -99999.99 -179968 -99999.99 -99999.99 -99999.99 -99999.99
5/23/2022 6:30:00 PM -99999.99 -179968 -99999.99 -99999.99 -99999.99 -99999.99
5/23/2022 6:45:00 PM -99999.99 -179968 -99999.99 -99999.99 -99999.99 -99999.99
5/23/2022 7:00:00 PM -99999.99 -179968 -99999.99 -99999.99 -99999.99 -99999.99
5/23/2022 7:15:00 PM -99999.99 -179968 -99999.99 -99999.99 -99999.99 -99999.99
5/23/2022 7:30:00 PM -99999.99 -179968 -99999.99 -99999.99 -99999.99 -99999.99
5/23/2022 7:45:00 PM -99999.99 -179968 -99999.99 -99999.99 -99999.99 -99999.99
5/23/2022 8:00:00 PM -99999.99 -179968 -99999.99 -99999.99 -99999.99 -99999.99
5/23/2022 8:15:00 PM -99999.99 -179968 -99999.99 -99999.99 -99999.99 -99999.99
5/23/2022 8:30:00 PM -99999.99 -179968 -99999.99 -99999.99 -99999.99 -99999.99
5/23/2022 8:45:00 PM -99999.99 -179968 -99999.99 -99999.99 -99999.99 -99999.99
5/23/2022 9:00:00 PM -99999.99 -179968 -99999.99 -99999.99 -99999.99 -99999.99
5/23/2022 9:15:00 PM -99999.99 -179968 -99999.99 -99999.99 -99999.99 -99999.99
5/23/2022 9:30:00 PM -99999.99 -179968 -99999.99 -99999.99 -99999.99 -99999.99
5/23/2022 9:45:00 PM -99999.99 -179968 -99999.99 -99999.99 -99999.99 -99999.99
5/23/2022 10:00:00 PM -99999.99 -179968 -99999.99 -99999.99 -99999.99 -99999.99
5/23/2022 10:15:00 PM -99999.99 -179968 -99999.99 -99999.99 -99999.99 -99999.99
5/23/2022 10:30:00 PM -99999.99 -179968 -99999.99 -99999.99 -99999.99 -99999.99
5/23/2022 10:45:00 PM -99999.99 -179968 -99999.99 -99999.99 -99999.99 -99999.99
5/23/2022 11:00:00 PM -99999.99 -179968 -99999.99 -99999.99 -99999.99 -99999.99
5/23/2022 11:15:00 PM -99999.99 -179968 -99999.99 -99999.99 -99999.99 -99999.99
5/23/2022 11:30:00 PM -99999.99 -179968 -99999.99 -99999.99 -99999.99 -99999.99
5/23/2022 11:45:00 PM -99999.99 -179968 -99999.99 -99999.99 -99999.99 -99999.99
5/24/2022 12:00:00 AM -99999.99 -179968 -99999.99 -99999.99 -99999.99 -99999.99
5/24/2022 12:15:00 AM -99999.99 -179968 -99999.99 -99999.99 -99999.99 -99999.99
5/24/2022 12:30:00 AM -99999.99 -179968 -99999.99 -99999.99 -99999.99 -99999.99
5/24/2022 12:45:00 AM -99999.99 -179968 -99999.99 -99999.99 -99999.99 -99999.99
5/24/2022 1:00:00 AM -99999.99 -179968 -99999.99 -99999.99 -99999.99 -99999.99
5/24/2022 1:15:00 AM -99999.99 -179968 -99999.99 -99999.99 -99999.99 -99999.99
5/24/2022 1:30:00 AM -99999.99 -179968 -99999.99 -99999.99 -99999.99 -99999.99
5/24/2022 1:45:00 AM -99999.99 -179968 -99999.99 -99999.99 -99999.99 -99999.99
5/24/2022 2:00:00 AM -99999.99 -179968 -99999.99 -99999.99 -99999.99 -99999.99
5/24/2022 2:15:00 AM -99999.99 -179968 -99999.99 -99999.99 -99999.99 -99999.99
5/24/2022 2:30:00 AM -99999.99 -179968 -99999.99 -99999.99 -99999.99 -99999.99
5/24/2022 2:45:00 AM -99999.99 -179968 -99999.99 -99999.99 -99999.99 -99999.99
5/24/2022 3:00:00 AM -99999.99 -179968 -99999.99 -99999.99 -99999.99 -99999.99
5/24/2022 3:15:00 AM -99999.99 -179968 -99999.99 -99999.99 -99999.99 -99999.99
5/24/2022 3:30:00 AM -99999.99 -179968 -99999.99 -99999.99 -99999.99 -99999.99
5/24/2022 3:45:00 AM -99999.99 -179968 -99999.99 -99999.99 -99999.99 -99999.99
5/24/2022 4:00:00 AM -99999.99 -179968 -99999.99 -99999.99 -99999.99 -99999.99
5/24/2022 4:15:00 AM -99999.99 -179968 -99999.99 -99999.99 -99999.99 -99999.99
5/24/2022 4:30:00 AM -99999.99 -179968 -99999.99 -99999.99 -99999.99 -99999.99
5/24/2022 4:45:00 AM -99999.99 -179968 -99999.99 -99999.99 -99999.99 -99999.99
5/24/2022 5:00:00 AM -99999.99 -179968 -99999.99 -99999.99 -99999.99 -99999.99
5/24/2022 5:15:00 AM -99999.99 -179968 -99999.99 -99999.99 -99999.99 -99999.99
5/24/2022 5:30:00 AM -99999.99 -179968 -99999.99 -99999.99 -99999.99 -99999.99
5/24/2022 5:45:00 AM -99999.99 -179968 -99999.99 -99999.99 -99999.99 -99999.99
5/24/2022 6:00:00 AM -99999.99 -179968 -99999.99 -99999.99 -99999.99 -99999.99
5/24/2022 6:15:00 AM -99999.99 -179968 -99999.99 -99999.99 -99999.99 -99999.99
5/24/2022 6:30:00 AM -99999.99 -179968 -99999.99 -99999.99 -99999.99 -99999.99
5/24/2022 6:45:00 AM -99999.99 -179968 -99999.99 -99999.99 -99999.99 -99999.99
5/24/2022 7:00:00 AM -99999.99 -179968 -99999.99 -99999.99 -99999.99 -99999.99
5/24/2022 7:15:00 AM -99999.99 -179968 -99999.99 -99999.99 -99999.99 -99999.99
5/24/2022 7:30:00 AM -99999.99 -179968 -99999.99 -99999.99 -99999.99 -99999.99
5/24/2022 7:45:00 AM -99999.99 -179968 -99999.99 -99999.99 -99999.99 -99999.99
5/24/2022 8:00:00 AM -99999.99 -179968 -99999.99 -99999.99 -99999.99 -99999.99
5/24/2022 8:15:00 AM -99999.99 -179968 -99999.99 -99999.99 -99999.99 -99999.99
5/24/2022 8:30:00 AM -99999.99 -179968 -99999.99 -99999.99 -99999.99 -99999.99
5/24/2022 8:45:00 AM -99999.99 -179968 -99999.99 -99999.99 -99999.99 -99999.99
5/24/2022 9:00:00 AM -99999.99 -179968 -99999.99 -99999.99 -99999.99 -99999.99
5/24/2022 9:15:00 AM -99999.99 -179968 -99999.99 -99999.99 -99999.99 -99999.99
5/24/2022 9:30:00 AM -99999.99 -179968 -99999.99 -99999.99 -99999.99 -99999.99
5/24/2022 9:45:00 AM -99999.99 -179968 -99999.99 -99999.99 -99999.99 -99999.99
5/24/2022 10:00:00 AM -99999.99 -179968 -99999.99 -99999.99 -99999.99 -99999.99
5/24/2022 10:15:00 AM -99999.99 -179968 -99999.99 -99999.99 -99999.99 -99999.99
5/24/2022 10:30:00 AM -99999.99 -179968 -99999.99 -99999.99 -99999.99 -99999.99
5/24/2022 10:45:00 AM -99999.99 -179968 -99999.99 -99999.99 -99999.99 -99999.99
5/24/2022 11:00:00 AM -99999.99 -179968 -99999.99 -99999.99 -99999.99 -99999.99
5/24/2022 11:15:00 AM -99999.99 -179968 -99999.99 -99999.99 -99999.99 -99999.99
5/24/2022 11:30:00 AM -99999.99 -179968 -99999.99 -99999.99 -99999.99 -99999.99
5/24/2022 11:45:00 AM -99999.99 -179968 -99999.99 -99999.99 -99999.99 -99999.99
5/24/2022 12:00:00 PM -99999.99 -179968 -99999.99 -99999.99 -99999.99 -99999.99
5/24/2022 12:15:00 PM -99999.99 -179968 -99999.99 -99999.99 -99999.99 -99999.99
5/24/2022 12:30:00 PM -99999.99 -179968 -99999.99 -99999.99 -99999.99 -99999.99
5/24/2022 12:45:00 PM -99999.99 -179968 -99999.99 -99999.99 -99999.99 -99999.99
5/24/2022 1:00:00 PM -99999.99 -179968 -99999.99 -99999.99 -99999.99 -99999.99
5/24/2022 1:15:00 PM -99999.99 -179968 -99999.99 -99999.99 -99999.99 -99999.99
5/24/2022 1:30:00 PM -99999.99 -179968 -99999.99 -99999.99 -99999.99 -99999.99
5/24/2022 1:45:00 PM -99999.99 -179968 -99999.99 -99999.99 -99999.99 -99999.99
5/24/2022 2:00:00 PM -99999.99 -179968 -99999.99 -99999.99 -99999.99 -99999.99
5/24/2022 2:15:00 PM -99999.99 -179968 -99999.99 -99999.99 -99999.99 -99999.99
5/24/2022 2:30:00 PM -99999.99 -179968 -99999.99 -99999.99 -99999.99 -99999.99
5/24/2022 2:45:00 PM -99999.99 -179968 -99999.99 -99999.99 -99999.99 -99999.99
5/24/2022 3:00:00 PM -99999.99 -179968 -99999.99 -99999.99 -99999.99 -99999.99
5/24/2022 3:15:00 PM -99999.99 -179968 -99999.99 -99999.99 -99999.99 -99999.99
5/24/2022 3:30:00 PM -99999.99 -179968 -99999.99 -99999.99 -99999.99 -99999.99
5/24/2022 3:45:00 PM -99999.99 -179968 -99999.99 -99999.99 -99999.99 -99999.99
5/24/2022 4:00:00 PM -99999.99 -179968 -99999.99 -99999.99 -99999.99 -99999.99
5/24/2022 4:15:00 PM -99999.99 -179968 -99999.99 -99999.99 -99999.99 -99999.99
5/24/2022 4:30:00 PM -99999.99 -179968 -99999.99 -99999.99 -99999.99 -99999.99
5/24/2022 4:45:00 PM -99999.99 -179968 -99999.99 -99999.99 -99999.99 -99999.99
5/24/2022 5:00:00 PM -99999.99 -179968 -99999.99 -99999.99 -99999.99 -99999.99
5/24/2022 5:15:00 PM -99999.99 -179968 -99999.99 -99999.99 -99999.99 -99999.99
5/24/2022 5:30:00 PM -99999.99 -179968 -99999.99 -99999.99 -99999.99 -99999.99
5/24/2022 5:45:00 PM -99999.99 -179968 -99999.99 -99999.99 -99999.99 -99999.99
5/24/2022 6:00:00 PM -99999.99 -179968 -99999.99 -99999.99 -99999.99 -99999.99
5/24/2022 6:15:00 PM -99999.99 -179968 -99999.99 -99999.99 -99999.99 -99999.99
5/24/2022 6:30:00 PM -99999.99 -179968 -99999.99 -99999.99 -99999.99 -99999.99
5/24/2022 6:45:00 PM -99999.99 -179968 -99999.99 -99999.99 -99999.99 -99999.99
5/24/2022 7:00:00 PM -99999.99 -179968 -99999.99 -99999.99 -99999.99 -99999.99
5/24/2022 7:15:00 PM -99999.99 -179968 -99999.99 -99999.99 -99999.99 -99999.99
5/24/2022 7:30:00 PM -99999.99 -179968 -99999.99 -99999.99 -99999.99 -99999.99
5/24/2022 7:45:00 PM -99999.99 -179968 -99999.99 -99999.99 -99999.99 -99999.99
5/24/2022 8:00:00 PM -99999.99 -179968 -99999.99 -99999.99 -99999.99 -99999.99
5/24/2022 8:15:00 PM -99999.99 -179968 -99999.99 -99999.99 -99999.99 -99999.99
5/24/2022 8:30:00 PM -99999.99 -179968 -99999.99 -99999.99 -99999.99 -99999.99
5/24/2022 8:45:00 PM -99999.99 -179968 -99999.99 -99999.99 -99999.99 -99999.99
5/24/2022 9:00:00 PM -99999.99 -179968 -99999.99 -99999.99 -99999.99 -99999.99
5/24/2022 9:15:00 PM -99999.99 -179968 -99999.99 -99999.99 -99999.99 -99999.99
5/24/2022 9:30:00 PM -99999.99 -179968 -99999.99 -99999.99 -99999.99 -99999.99
5/24/2022 9:45:00 PM -99999.99 -179968 -99999.99 -99999.99 -99999.99 -99999.99
5/24/2022 10:00:00 PM -99999.99 -179968 -99999.99 -99999.99 -99999.99 -99999.99
5/24/2022 10:15:00 PM -99999.99 -179968 -99999.99 -99999.99 -99999.99 -99999.99
5/24/2022 10:30:00 PM -99999.99 -179968 -99999.99 -99999.99 -99999.99 -99999.99
5/24/2022 10:45:00 PM -99999.99 -179968 -99999.99 -99999.99 -99999.99 -99999.99
5/24/2022 11:00:00 PM -99999.99 -179968 -99999.99 -99999.99 -99999.99 -99999.99
5/24/2022 11:15:00 PM -99999.99 -179968 -99999.99 -99999.99 -99999.99 -99999.99
5/24/2022 11:30:00 PM -99999.99 -179968 -99999.99 -99999.99 -99999.99 -99999.99
5/24/2022 11:45:00 PM -99999.99 -179968 -99999.99 -99999.99 -99999.99 -99999.99
5/25/2022 12:00:00 AM -99999.99 -179968 -99999.99 -99999.99 -99999.99 -99999.99
5/25/2022 12:15:00 AM -99999.99 -179968 -99999.99 -99999.99 -99999.99 -99999.99
5/25/2022 12:30:00 AM -99999.99 -179968 -99999.99 -99999.99 -99999.99 -99999.99
5/25/2022 12:45:00 AM -99999.99 -179968 -99999.99 -99999.99 -99999.99 -99999.99
5/25/2022 1:00:00 AM -99999.99 -179968 -99999.99 -99999.99 -99999.99 -99999.99
5/25/2022 1:15:00 AM -99999.99 -179968 -99999.99 -99999.99 -99999.99 -99999.99
5/25/2022 1:30:00 AM -99999.99 -179968 -99999.99 -99999.99 -99999.99 -99999.99
5/25/2022 1:45:00 AM -99999.99 -179968 -99999.99 -99999.99 -99999.99 -99999.99
5/25/2022 2:00:00 AM -99999.99 -179968 -99999.99 -99999.99 -99999.99 -99999.99
5/25/2022 2:15:00 AM -99999.99 -179968 -99999.99 -99999.99 -99999.99 -99999.99
5/25/2022 2:30:00 AM -99999.99 -179968 -99999.99 -99999.99 -99999.99 -99999.99
5/25/2022 2:45:00 AM -99999.99 -179968 -99999.99 -99999.99 -99999.99 -99999.99
5/25/2022 3:00:00 AM -99999.99 -179968 -99999.99 -99999.99 -99999.99 -99999.99
5/25/2022 3:15:00 AM -99999.99 -179968 -99999.99 -99999.99 -99999.99 -99999.99
5/25/2022 3:30:00 AM -99999.99 -179968 -99999.99 -99999.99 -99999.99 -99999.99
5/25/2022 3:45:00 AM -99999.99 -179968 -99999.99 -99999.99 -99999.99 -99999.99
5/25/2022 4:00:00 AM -99999.99 -179968 -99999.99 -99999.99 -99999.99 -99999.99
5/25/2022 4:15:00 AM -99999.99 -179968 -99999.99 -99999.99 -99999.99 -99999.99
5/25/2022 4:30:00 AM -99999.99 -179968 -99999.99 -99999.99 -99999.99 -99999.99
5/25/2022 4:45:00 AM -99999.99 -179968 -99999.99 -99999.99 -99999.99 -99999.99
5/25/2022 5:00:00 AM -99999.99 -179968 -99999.99 -99999.99 -99999.99 -99999.99
5/25/2022 5:15:00 AM -99999.99 -179968 -99999.99 -99999.99 -99999.99 -99999.99
5/25/2022 5:30:00 AM -99999.99 -179968 -99999.99 -99999.99 -99999.99 -99999.99
5/25/2022 5:45:00 AM -99999.99 -179968 -99999.99 -99999.99 -99999.99 -99999.99
5/25/2022 6:00:00 AM -99999.99 -179968 -99999.99 -99999.99 -99999.99 -99999.99
5/25/2022 6:15:00 AM -99999.99 -179968 -99999.99 -99999.99 -99999.99 -99999.99
5/25/2022 6:30:00 AM -99999.99 -179968 -99999.99 -99999.99 -99999.99 -99999.99
5/25/2022 6:45:00 AM -99999.99 -179968 -99999.99 -99999.99 -99999.99 -99999.99
5/25/2022 7:00:00 AM -99999.99 -179968 -99999.99 -99999.99 -99999.99 -99999.99
5/25/2022 7:15:00 AM -99999.99 -179968 -99999.99 -99999.99 -99999.99 -99999.99
5/25/2022 7:30:00 AM -99999.99 -179968 -99999.99 -99999.99 -99999.99 -99999.99
5/25/2022 7:45:00 AM -99999.99 -179968 -99999.99 -99999.99 -99999.99 -99999.99
5/25/2022 8:00:00 AM -99999.99 -179968 -99999.99 -99999.99 -99999.99 -99999.99
5/25/2022 8:15:00 AM -99999.99 -179968 -99999.99 -99999.99 -99999.99 -99999.99
5/25/2022 8:30:00 AM -99999.99 -179968 -99999.99 -99999.99 -99999.99 -99999.99
5/25/2022 8:45:00 AM -99999.99 -179968 -99999.99 -99999.99 -99999.99 -99999.99
5/25/2022 9:00:00 AM -99999.99 -179968 -99999.99 -99999.99 -99999.99 -99999.99
5/25/2022 9:15:00 AM -99999.99 -179968 -99999.99 -99999.99 -99999.99 -99999.99
5/25/2022 9:30:00 AM -99999.99 -179968 -99999.99 -99999.99 -99999.99 -99999.99
5/25/2022 9:45:00 AM -99999.99 -179968 -99999.99 -99999.99 -99999.99 -99999.99
5/25/2022 10:00:00 AM -99999.99 -179968 -99999.99 -99999.99 -99999.99 -99999.99
5/25/2022 10:15:00 AM -99999.99 -179968 -99999.99 -99999.99 -99999.99 -99999.99
5/25/2022 10:30:00 AM -99999.99 -179968 -99999.99 -99999.99 -99999.99 -99999.99
5/25/2022 10:45:00 AM -99999.99 -179968 -99999.99 -99999.99 -99999.99 -99999.99
5/25/2022 11:00:00 AM -99999.99 -179968 -99999.99 -99999.99 -99999.99 -99999.99
5/25/2022 11:15:00 AM -99999.99 -179968 -99999.99 -99999.99 -99999.99 -99999.99
5/25/2022 11:30:00 AM -99999.99 -179968 -99999.99 -99999.99 -99999.99 -99999.99
5/25/2022 11:45:00 AM -99999.99 -179968 -99999.99 -99999.99 -99999.99 -99999.99
5/25/2022 12:00:00 PM -99999.99 -179968 -99999.99 -99999.99 -99999.99 -99999.99
5/25/2022 12:15:00 PM -99999.99 -179968 -99999.99 -99999.99 -99999.99 -99999.99
5/25/2022 12:30:00 PM -99999.99 -179968 -99999.99 -99999.99 -99999.99 -99999.99
5/25/2022 12:45:00 PM -99999.99 -179968 -99999.99 -99999.99 -99999.99 -99999.99
5/25/2022 1:00:00 PM -99999.99 -179968 -99999.99 -99999.99 -99999.99 -99999.99
5/25/2022 1:15:00 PM -99999.99 -179968 -99999.99 -99999.99 -99999.99 -99999.99
5/25/2022 1:30:00 PM -99999.99 -179968 -99999.99 -99999.99 -99999.99 -99999.99
5/25/2022 1:45:00 PM -99999.99 -179968 -99999.99 -99999.99 -99999.99 -99999.99
5/25/2022 2:00:00 PM -99999.99 -179968 -99999.99 -99999.99 -99999.99 -99999.99
5/25/2022 2:15:00 PM -99999.99 -179968 -99999.99 -99999.99 -99999.99 -99999.99
5/25/2022 2:30:00 PM -99999.99 -179968 -99999.99 -99999.99 -99999.99 -99999.99
5/25/2022 2:45:00 PM -99999.99 -179968 -99999.99 -99999.99 -99999.99 -99999.99
5/25/2022 3:00:00 PM -99999.99 -179968 -99999.99 -99999.99 -99999.99 -99999.99
5/25/2022 3:15:00 PM -99999.99 -179968 -99999.99 -99999.99 -99999.99 -99999.99
5/25/2022 3:30:00 PM -99999.99 -179968 -99999.99 -99999.99 -99999.99 -99999.99
5/25/2022 3:45:00 PM -99999.99 -179968 -99999.99 -99999.99 -99999.99 -99999.99
5/25/2022 4:00:00 PM -99999.99 -179968 -99999.99 -99999.99 -99999.99 -99999.99
5/25/2022 4:15:00 PM -99999.99 -179968 -99999.99 -99999.99 -99999.99 -99999.99
5/25/2022 4:30:00 PM -99999.99 -179968 -99999.99 -99999.99 -99999.99 -99999.99
5/25/2022 4:45:00 PM -99999.99 -179968 -99999.99 -99999.99 -99999.99 -99999.99
5/25/2022 5:00:00 PM -99999.99 -179968 -99999.99 -99999.99 -99999.99 -99999.99
5/25/2022 5:15:00 PM -99999.99 -179968 -99999.99 -99999.99 -99999.99 -99999.99
5/25/2022 5:30:00 PM -99999.99 -179968 -99999.99 -99999.99 -99999.99 -99999.99
5/25/2022 5:45:00 PM -99999.99 -179968 -99999.99 -99999.99 -99999.99 -99999.99
5/25/2022 6:00:00 PM -99999.99 -179968 -99999.99 -99999.99 -99999.99 -99999.99
5/25/2022 6:15:00 PM -99999.99 -179968 -99999.99 -99999.99 -99999.99 -99999.99
5/25/2022 6:30:00 PM -99999.99 -179968 -99999.99 -99999.99 -99999.99 -99999.99
5/25/2022 6:45:00 PM -99999.99 -179968 -99999.99 -99999.99 -99999.99 -99999.99
5/25/2022 7:00:00 PM -99999.99 -179968 -99999.99 -99999.99 -99999.99 -99999.99
5/25/2022 7:15:00 PM -99999.99 -179968 -99999.99 -99999.99 -99999.99 -99999.99
5/25/2022 7:30:00 PM -99999.99 -179968 -99999.99 -99999.99 -99999.99 -99999.99
5/25/2022 7:45:00 PM -99999.99 -179968 -99999.99 -99999.99 -99999.99 -99999.99
5/25/2022 8:00:00 PM -99999.99 -179968 -99999.99 -99999.99 -99999.99 -99999.99
5/25/2022 8:15:00 PM -99999.99 -179968 -99999.99 -99999.99 -99999.99 -99999.99
5/25/2022 8:30:00 PM -99999.99 -179968 -99999.99 -99999.99 -99999.99 -99999.99
5/25/2022 8:45:00 PM -99999.99 -179968 -99999.99 -99999.99 -99999.99 -99999.99
5/25/2022 9:00:00 PM -99999.99 -179968 -99999.99 -99999.99 -99999.99 -99999.99
5/25/2022 9:15:00 PM -99999.99 -179968 -99999.99 -99999.99 -99999.99 -99999.99
5/25/2022 9:30:00 PM -99999.99 -179968 -99999.99 -99999.99 -99999.99 -99999.99
5/25/2022 9:45:00 PM -99999.99 -179968 -99999.99 -99999.99 -99999.99 -99999.99
5/25/2022 10:00:00 PM -99999.99 -179968 -99999.99 -99999.99 -99999.99 -99999.99
5/25/2022 10:15:00 PM -99999.99 -179968 -99999.99 -99999.99 -99999.99 -99999.99
5/25/2022 10:30:00 PM -99999.99 -179968 -99999.99 -99999.99 -99999.99 -99999.99
5/25/2022 10:45:00 PM -99999.99 -179968 -99999.99 -99999.99 -99999.99 -99999.99
5/25/2022 11:00:00 PM -99999.99 -179968 -99999.99 -99999.99 -99999.99 -99999.99
5/25/2022 11:15:00 PM -99999.99 -179968 -99999.99 -99999.99 -99999.99 -99999.99
5/25/2022 11:30:00 PM -99999.99 -179968 -99999.99 -99999.99 -99999.99 -99999.99
5/25/2022 11:45:00 PM -99999.99 -179968 -99999.99 -99999.99 -99999.99 -99999.99
5/26/2022 12:00:00 AM -99999.99 -179968 -99999.99 -99999.99 -99999.99 -99999.99
5/26/2022 12:15:00 AM -99999.99 -179968 -99999.99 -99999.99 -99999.99 -99999.99
5/26/2022 12:30:00 AM -99999.99 -179968 -99999.99 -99999.99 -99999.99 -99999.99
5/26/2022 12:45:00 AM -99999.99 -179968 -99999.99 -99999.99 -99999.99 -99999.99
5/26/2022 1:00:00 AM -99999.99 -179968 -99999.99 -99999.99 -99999.99 -99999.99
5/26/2022 1:15:00 AM -99999.99 -179968 -99999.99 -99999.99 -99999.99 -99999.99
5/26/2022 1:30:00 AM -99999.99 -179968 -99999.99 -99999.99 -99999.99 -99999.99
5/26/2022 1:45:00 AM -99999.99 -179968 -99999.99 -99999.99 -99999.99 -99999.99
5/26/2022 2:00:00 AM -99999.99 -179968 -99999.99 -99999.99 -99999.99 -99999.99
5/26/2022 2:15:00 AM -99999.99 -179968 -99999.99 -99999.99 -99999.99 -99999.99
5/26/2022 2:30:00 AM -99999.99 -179968 -99999.99 -99999.99 -99999.99 -99999.99
5/26/2022 2:45:00 AM -99999.99 -179968 -99999.99 -99999.99 -99999.99 -99999.99
5/26/2022 3:00:00 AM -99999.99 -179968 -99999.99 -99999.99 -99999.99 -99999.99
5/26/2022 3:15:00 AM -99999.99 -179968 -99999.99 -99999.99 -99999.99 -99999.99
5/26/2022 3:30:00 AM -99999.99 -179968 -99999.99 -99999.99 -99999.99 -99999.99
5/26/2022 3:45:00 AM -99999.99 -179968 -99999.99 -99999.99 -99999.99 -99999.99
5/26/2022 4:00:00 AM -99999.99 -179968 -99999.99 -99999.99 -99999.99 -99999.99
5/26/2022 4:15:00 AM -99999.99 -179968 -99999.99 -99999.99 -99999.99 -99999.99
5/26/2022 4:30:00 AM -99999.99 -179968 -99999.99 -99999.99 -99999.99 -99999.99
5/26/2022 4:45:00 AM -99999.99 -179968 -99999.99 -99999.99 -99999.99 -99999.99
5/26/2022 5:00:00 AM -99999.99 -179968 -99999.99 -99999.99 -99999.99 -99999.99
5/26/2022 5:15:00 AM -99999.99 -179968 -99999.99 -99999.99 -99999.99 -99999.99
5/26/2022 5:30:00 AM -99999.99 -179968 -99999.99 -99999.99 -99999.99 -99999.99
5/26/2022 5:45:00 AM -99999.99 -179968 -99999.99 -99999.99 -99999.99 -99999.99
5/26/2022 6:00:00 AM -99999.99 -179968 -99999.99 -99999.99 -99999.99 -99999.99
5/26/2022 6:15:00 AM -99999.99 -179968 -99999.99 -99999.99 -99999.99 -99999.99
5/26/2022 6:30:00 AM -99999.99 -179968 -99999.99 -99999.99 -99999.99 -99999.99
5/26/2022 6:45:00 AM -99999.99 -179968 -99999.99 -99999.99 -99999.99 -99999.99
5/26/2022 7:00:00 AM -99999.99 -179968 -99999.99 -99999.99 -99999.99 -99999.99
5/26/2022 7:15:00 AM -99999.99 -179968 -99999.99 -99999.99 -99999.99 -99999.99
5/26/2022 7:30:00 AM -99999.99 -179968 -99999.99 -99999.99 -99999.99 -99999.99
5/26/2022 7:45:00 AM -99999.99 -179968 -99999.99 -99999.99 -99999.99 -99999.99
5/26/2022 8:00:00 AM -99999.99 -179968 -99999.99 -99999.99 -99999.99 -99999.99
5/26/2022 8:15:00 AM -99999.99 -179968 -99999.99 -99999.99 -99999.99 -99999.99
5/26/2022 8:30:00 AM -99999.99 -179968 -99999.99 -99999.99 -99999.99 -99999.99
5/26/2022 8:45:00 AM -99999.99 -179968 -99999.99 -99999.99 -99999.99 -99999.99
5/26/2022 9:00:00 AM -99999.99 -179968 -99999.99 -99999.99 -99999.99 -99999.99
5/26/2022 9:15:00 AM -99999.99 -179968 -99999.99 -99999.99 -99999.99 -99999.99
5/26/2022 9:30:00 AM -99999.99 -179968 -99999.99 -99999.99 -99999.99 -99999.99
5/26/2022 9:45:00 AM -99999.99 -179968 -99999.99 -99999.99 -99999.99 -99999.99
5/26/2022 10:00:00 AM -99999.99 -179968 -99999.99 -99999.99 -99999.99 -99999.99
5/26/2022 10:15:00 AM -99999.99 -179968 -99999.99 -99999.99 -99999.99 -99999.99
5/26/2022 10:30:00 AM -99999.99 -179968 -99999.99 -99999.99 -99999.99 -99999.99
5/26/2022 10:45:00 AM -99999.99 -179968 -99999.99 -99999.99 -99999.99 -99999.99
5/26/2022 11:00:00 AM -99999.99 -179968 -99999.99 -99999.99 -99999.99 -99999.99
5/26/2022 11:15:00 AM -99999.99 -179968 -99999.99 -99999.99 -99999.99 -99999.99
5/26/2022 11:30:00 AM -99999.99 -179968 -99999.99 -99999.99 -99999.99 -99999.99
5/26/2022 11:45:00 AM -99999.99 -179968 -99999.99 -99999.99 -99999.99 -99999.99
5/26/2022 12:00:00 PM -99999.99 -179968 -99999.99 -99999.99 -99999.99 -99999.99
5/26/2022 12:15:00 PM -99999.99 -179968 -99999.99 -99999.99 -99999.99 -99999.99
5/26/2022 12:30:00 PM -99999.99 -179968 -99999.99 -99999.99 -99999.99 -99999.99
5/26/2022 12:45:00 PM -99999.99 -179968 -99999.99 -99999.99 -99999.99 -99999.99
5/26/2022 1:00:00 PM -99999.99 -179968 -99999.99 -99999.99 -99999.99 -99999.99
5/26/2022 1:15:00 PM -99999.99 -179968 -99999.99 -99999.99 -99999.99 -99999.99
5/26/2022 1:30:00 PM -99999.99 -179968 -99999.99 -99999.99 -99999.99 -99999.99
5/26/2022 1:45:00 PM -99999.99 -179968 -99999.99 -99999.99 -99999.99 -99999.99
5/26/2022 2:00:00 PM -99999.99 -179968 -99999.99 -99999.99 -99999.99 -99999.99
5/26/2022 2:15:00 PM -99999.99 -179968 -99999.99 -99999.99 -99999.99 -99999.99
5/26/2022 2:30:00 PM -99999.99 -179968 -99999.99 -99999.99 -99999.99 -99999.99
5/26/2022 2:45:00 PM -99999.99 -179968 -99999.99 -99999.99 -99999.99 -99999.99
5/26/2022 3:00:00 PM -99999.99 -179968 -99999.99 -99999.99 -99999.99 -99999.99
5/26/2022 3:15:00 PM -99999.99 -179968 -99999.99 -99999.99 -99999.99 -99999.99
5/26/2022 3:30:00 PM -99999.99 -179968 -99999.99 -99999.99 -99999.99 -99999.99
5/26/2022 3:45:00 PM -99999.99 -179968 -99999.99 -99999.99 -99999.99 -99999.99
5/26/2022 4:00:00 PM -99999.99 -179968 -99999.99 -99999.99 -99999.99 -99999.99
5/26/2022 4:15:00 PM -99999.99 -179968 -99999.99 -99999.99 -99999.99 -99999.99
5/26/2022 4:30:00 PM -99999.99 -179968 -99999.99 -99999.99 -99999.99 -99999.99
5/26/2022 4:45:00 PM -99999.99 -179968 -99999.99 -99999.99 -99999.99 -99999.99
5/26/2022 5:00:00 PM -99999.99 -179968 -99999.99 -99999.99 -99999.99 -99999.99
5/26/2022 5:15:00 PM -99999.99 -179968 -99999.99 -99999.99 -99999.99 -99999.99
5/26/2022 5:30:00 PM -99999.99 -179968 -99999.99 -99999.99 -99999.99 -99999.99
5/26/2022 5:45:00 PM -99999.99 -179968 -99999.99 -99999.99 -99999.99 -99999.99
5/26/2022 6:00:00 PM -99999.99 -179968 -99999.99 -99999.99 -99999.99 -99999.99
5/26/2022 6:15:00 PM -99999.99 -179968 -99999.99 -99999.99 -99999.99 -99999.99
5/26/2022 6:30:00 PM -99999.99 -179968 -99999.99 -99999.99 -99999.99 -99999.99
5/26/2022 6:45:00 PM -99999.99 -179968 -99999.99 -99999.99 -99999.99 -99999.99
5/26/2022 7:00:00 PM -99999.99 -179968 -99999.99 -99999.99 -99999.99 -99999.99
5/26/2022 7:15:00 PM -99999.99 -179968 -99999.99 -99999.99 -99999.99 -99999.99
5/26/2022 7:30:00 PM -99999.99 -179968 -99999.99 -99999.99 -99999.99 -99999.99
5/26/2022 7:45:00 PM -99999.99 -179968 -99999.99 -99999.99 -99999.99 -99999.99
5/26/2022 8:00:00 PM -99999.99 -179968 -99999.99 -99999.99 -99999.99 -99999.99
5/26/2022 8:15:00 PM -99999.99 -179968 -99999.99 -99999.99 -99999.99 -99999.99
5/26/2022 8:30:00 PM -99999.99 -179968 -99999.99 -99999.99 -99999.99 -99999.99
5/26/2022 8:45:00 PM -99999.99 -179968 -99999.99 -99999.99 -99999.99 -99999.99
5/26/2022 9:00:00 PM -99999.99 -179968 -99999.99 -99999.99 -99999.99 -99999.99
5/26/2022 9:15:00 PM -99999.99 -179968 -99999.99 -99999.99 -99999.99 -99999.99
5/26/2022 9:30:00 PM -99999.99 -179968 -99999.99 -99999.99 -99999.99 -99999.99
5/26/2022 9:45:00 PM -99999.99 -179968 -99999.99 -99999.99 -99999.99 -99999.99
5/26/2022 10:00:00 PM -99999.99 -179968 -99999.99 -99999.99 -99999.99 -99999.99
5/26/2022 10:15:00 PM -99999.99 -179968 -99999.99 -99999.99 -99999.99 -99999.99
5/26/2022 10:30:00 PM -99999.99 -179968 -99999.99 -99999.99 -99999.99 -99999.99
5/26/2022 10:45:00 PM -99999.99 -179968 -99999.99 -99999.99 -99999.99 -99999.99
5/26/2022 11:00:00 PM -99999.99 -179968 -99999.99 -99999.99 -99999.99 -99999.99
5/26/2022 11:15:00 PM -99999.99 -179968 -99999.99 -99999.99 -99999.99 -99999.99
5/26/2022 11:30:00 PM -99999.99 -179968 -99999.99 -99999.99 -99999.99 -99999.99
5/26/2022 11:45:00 PM -99999.99 -179968 -99999.99 -99999.99 -99999.99 -99999.99
5/27/2022 12:00:00 AM -99999.99 -179968 -99999.99 -99999.99 -99999.99 -99999.99
5/27/2022 12:15:00 AM -99999.99 -179968 -99999.99 -99999.99 -99999.99 -99999.99
5/27/2022 12:30:00 AM -99999.99 -179968 -99999.99 -99999.99 -99999.99 -99999.99
5/27/2022 12:45:00 AM -99999.99 -179968 -99999.99 -99999.99 -99999.99 -99999.99
5/27/2022 1:00:00 AM -99999.99 -179968 -99999.99 -99999.99 -99999.99 -99999.99
5/27/2022 1:15:00 AM -99999.99 -179968 -99999.99 -99999.99 -99999.99 -99999.99
5/27/2022 1:30:00 AM -99999.99 -179968 -99999.99 -99999.99 -99999.99 -99999.99
5/27/2022 1:45:00 AM -99999.99 -179968 -99999.99 -99999.99 -99999.99 -99999.99
5/27/2022 2:00:00 AM -99999.99 -179968 -99999.99 -99999.99 -99999.99 -99999.99
5/27/2022 2:15:00 AM -99999.99 -179968 -99999.99 -99999.99 -99999.99 -99999.99
5/27/2022 2:30:00 AM -99999.99 -179968 -99999.99 -99999.99 -99999.99 -99999.99
5/27/2022 2:45:00 AM -99999.99 -179968 -99999.99 -99999.99 -99999.99 -99999.99
5/27/2022 3:00:00 AM -99999.99 -179968 -99999.99 -99999.99 -99999.99 -99999.99
5/27/2022 3:15:00 AM -99999.99 -179968 -99999.99 -99999.99 -99999.99 -99999.99
5/27/2022 3:30:00 AM -99999.99 -179968 -99999.99 -99999.99 -99999.99 -99999.99
5/27/2022 3:45:00 AM -99999.99 -179968 -99999.99 -99999.99 -99999.99 -99999.99
5/27/2022 4:00:00 AM -99999.99 -179968 -99999.99 -99999.99 -99999.99 -99999.99
5/27/2022 4:15:00 AM -99999.99 -179968 -99999.99 -99999.99 -99999.99 -99999.99
5/27/2022 4:30:00 AM -99999.99 -179968 -99999.99 -99999.99 -99999.99 -99999.99
5/27/2022 4:45:00 AM -99999.99 -179968 -99999.99 -99999.99 -99999.99 -99999.99
5/27/2022 5:00:00 AM -99999.99 -179968 -99999.99 -99999.99 -99999.99 -99999.99
5/27/2022 5:15:00 AM -99999.99 -179968 -99999.99 -99999.99 -99999.99 -99999.99
5/27/2022 5:30:00 AM -99999.99 -179968 -99999.99 -99999.99 -99999.99 -99999.99
5/27/2022 5:45:00 AM -99999.99 -179968 -99999.99 -99999.99 -99999.99 -99999.99
5/27/2022 6:00:00 AM -99999.99 -179968 -99999.99 -99999.99 -99999.99 -99999.99
5/27/2022 6:15:00 AM -99999.99 -179968 -99999.99 -99999.99 -99999.99 -99999.99
5/27/2022 6:30:00 AM -99999.99 -179968 -99999.99 -99999.99 -99999.99 -99999.99
5/27/2022 6:45:00 AM -99999.99 -179968 -99999.99 -99999.99 -99999.99 -99999.99
5/27/2022 7:00:00 AM -99999.99 -179968 -99999.99 -99999.99 -99999.99 -99999.99
5/27/2022 7:15:00 AM -99999.99 -179968 -99999.99 -99999.99 -99999.99 -99999.99
5/27/2022 7:30:00 AM -99999.99 -179968 -99999.99 -99999.99 -99999.99 -99999.99
5/27/2022 7:45:00 AM -99999.99 -179968 -99999.99 -99999.99 -99999.99 -99999.99
5/27/2022 8:00:00 AM -99999.99 -179968 -99999.99 -99999.99 -99999.99 -99999.99
5/27/2022 8:15:00 AM -99999.99 -179968 -99999.99 -99999.99 -99999.99 -99999.99
5/27/2022 8:30:00 AM -99999.99 -179968 -99999.99 -99999.99 -99999.99 -99999.99
5/27/2022 8:45:00 AM -99999.99 -179968 -99999.99 -99999.99 -99999.99 -99999.99
5/27/2022 9:00:00 AM -99999.99 -179968 -99999.99 -99999.99 -99999.99 -99999.99
5/27/2022 9:15:00 AM -99999.99 -179968 -99999.99 -99999.99 -99999.99 -99999.99
5/27/2022 9:30:00 AM -99999.99 -179968 -99999.99 -99999.99 -99999.99 -99999.99
5/27/2022 9:45:00 AM -99999.99 -179968 -99999.99 -99999.99 -99999.99 -99999.99
5/27/2022 10:00:00 AM -99999.99 -179968 -99999.99 -99999.99 -99999.99 -99999.99
5/27/2022 10:15:00 AM -99999.99 -179968 -99999.99 -99999.99 -99999.99 -99999.99
5/27/2022 10:30:00 AM -99999.99 -179968 -99999.99 -99999.99 -99999.99 -99999.99
5/27/2022 10:45:00 AM -99999.99 -179968 -99999.99 -99999.99 -99999.99 -99999.99
5/27/2022 11:00:00 AM -99999.99 -179968 -99999.99 -99999.99 -99999.99 -99999.99
5/27/2022 11:15:00 AM -99999.99 -179968 -99999.99 -99999.99 -99999.99 -99999.99
5/27/2022 11:30:00 AM -99999.99 -179968 -99999.99 -99999.99 -99999.99 -99999.99
5/27/2022 11:45:00 AM -99999.99 -179968 -99999.99 -99999.99 -99999.99 -99999.99
5/27/2022 12:00:00 PM -99999.99 -179968 -99999.99 -99999.99 -99999.99 -99999.99
5/27/2022 12:15:00 PM -99999.99 -179968 -99999.99 -99999.99 -99999.99 -99999.99
5/27/2022 12:30:00 PM -99999.99 -179968 -99999.99 -99999.99 -99999.99 -99999.99
5/27/2022 12:45:00 PM -99999.99 -179968 -99999.99 -99999.99 -99999.99 -99999.99
5/27/2022 1:00:00 PM -99999.99 -179968 -99999.99 -99999.99 -99999.99 -99999.99
5/27/2022 1:15:00 PM -99999.99 -179968 -99999.99 -99999.99 -99999.99 -99999.99
5/27/2022 1:30:00 PM -99999.99 -179968 -99999.99 -99999.99 -99999.99 -99999.99
5/27/2022 1:45:00 PM -99999.99 -179968 -99999.99 -99999.99 -99999.99 -99999.99
5/27/2022 2:00:00 PM -99999.99 -179968 -99999.99 -99999.99 -99999.99 -99999.99
5/27/2022 2:15:00 PM -99999.99 -179968 -99999.99 -99999.99 -99999.99 -99999.99
5/27/2022 2:30:00 PM -99999.99 -179968 -99999.99 -99999.99 -99999.99 -99999.99
5/27/2022 2:45:00 PM -99999.99 -179968 -99999.99 -99999.99 -99999.99 -99999.99
5/27/2022 3:00:00 PM -99999.99 -179968 -99999.99 -99999.99 -99999.99 -99999.99
5/27/2022 3:15:00 PM -99999.99 -179968 -99999.99 -99999.99 -99999.99 -99999.99
5/27/2022 3:30:00 PM -99999.99 -179968 -99999.99 -99999.99 -99999.99 -99999.99
5/27/2022 3:45:00 PM -99999.99 -179968 -99999.99 -99999.99 -99999.99 -99999.99
5/27/2022 4:00:00 PM -99999.99 -179968 -99999.99 -99999.99 -99999.99 -99999.99
5/27/2022 4:15:00 PM -99999.99 -179968 -99999.99 -99999.99 -99999.99 -99999.99
5/27/2022 4:30:00 PM -99999.99 -179968 -99999.99 -99999.99 -99999.99 -99999.99
5/27/2022 4:45:00 PM -99999.99 -179968 -99999.99 -99999.99 -99999.99 -99999.99
5/27/2022 5:00:00 PM -99999.99 -179968 -99999.99 -99999.99 -99999.99 -99999.99
5/27/2022 5:15:00 PM -99999.99 -179968 -99999.99 -99999.99 -99999.99 -99999.99
5/27/2022 5:30:00 PM -99999.99 -179968 -99999.99 -99999.99 -99999.99 -99999.99
5/27/2022 5:45:00 PM -99999.99 -179968 -99999.99 -99999.99 -99999.99 -99999.99
5/27/2022 6:00:00 PM -99999.99 -179968 -99999.99 -99999.99 -99999.99 -99999.99
5/27/2022 6:15:00 PM -99999.99 -179968 -99999.99 -99999.99 -99999.99 -99999.99
5/27/2022 6:30:00 PM -99999.99 -179968 -99999.99 -99999.99 -99999.99 -99999.99
5/27/2022 6:45:00 PM -99999.99 -179968 -99999.99 -99999.99 -99999.99 -99999.99
5/27/2022 7:00:00 PM -99999.99 -179968 -99999.99 -99999.99 -99999.99 -99999.99
5/27/2022 7:15:00 PM -99999.99 -179968 -99999.99 -99999.99 -99999.99 -99999.99
5/27/2022 7:30:00 PM -99999.99 -179968 -99999.99 -99999.99 -99999.99 -99999.99
5/27/2022 7:45:00 PM -99999.99 -179968 -99999.99 -99999.99 -99999.99 -99999.99
5/27/2022 8:00:00 PM -99999.99 -179968 -99999.99 -99999.99 -99999.99 -99999.99
5/27/2022 8:15:00 PM -99999.99 -179968 -99999.99 -99999.99 -99999.99 -99999.99
5/27/2022 8:30:00 PM -99999.99 -179968 -99999.99 -99999.99 -99999.99 -99999.99
5/27/2022 8:45:00 PM -99999.99 -179968 -99999.99 -99999.99 -99999.99 -99999.99
5/27/2022 9:00:00 PM -99999.99 -179968 -99999.99 -99999.99 -99999.99 -99999.99
5/27/2022 9:15:00 PM -99999.99 -179968 -99999.99 -99999.99 -99999.99 -99999.99
5/27/2022 9:30:00 PM -99999.99 -179968 -99999.99 -99999.99 -99999.99 -99999.99
5/27/2022 9:45:00 PM -99999.99 -179968 -99999.99 -99999.99 -99999.99 -99999.99
5/27/2022 10:00:00 PM -99999.99 -179968 -99999.99 -99999.99 -99999.99 -99999.99
5/27/2022 10:15:00 PM -99999.99 -179968 -99999.99 -99999.99 -99999.99 -99999.99
5/27/2022 10:30:00 PM -99999.99 -179968 -99999.99 -99999.99 -99999.99 -99999.99
5/27/2022 10:45:00 PM -99999.99 -179968 -99999.99 -99999.99 -99999.99 -99999.99
5/27/2022 11:00:00 PM -99999.99 -179968 -99999.99 -99999.99 -99999.99 -99999.99
5/27/2022 11:15:00 PM -99999.99 -179968 -99999.99 -99999.99 -99999.99 -99999.99
5/27/2022 11:30:00 PM -99999.99 -179968 -99999.99 -99999.99 -99999.99 -99999.99
5/27/2022 11:45:00 PM -99999.99 -179968 -99999.99 -99999.99 -99999.99 -99999.99
5/28/2022 12:00:00 AM -99999.99 -179968 -99999.99 -99999.99 -99999.99 -99999.99
5/28/2022 12:15:00 AM -99999.99 -179968 -99999.99 -99999.99 -99999.99 -99999.99
5/28/2022 12:30:00 AM -99999.99 -179968 -99999.99 -99999.99 -99999.99 -99999.99
5/28/2022 12:45:00 AM -99999.99 -179968 -99999.99 -99999.99 -99999.99 -99999.99
5/28/2022 1:00:00 AM -99999.99 -179968 -99999.99 -99999.99 -99999.99 -99999.99
5/28/2022 1:15:00 AM -99999.99 -179968 -99999.99 -99999.99 -99999.99 -99999.99
5/28/2022 1:30:00 AM -99999.99 -179968 -99999.99 -99999.99 -99999.99 -99999.99
5/28/2022 1:45:00 AM -99999.99 -179968 -99999.99 -99999.99 -99999.99 -99999.99
5/28/2022 2:00:00 AM -99999.99 -179968 -99999.99 -99999.99 -99999.99 -99999.99
5/28/2022 2:15:00 AM -99999.99 -179968 -99999.99 -99999.99 -99999.99 -99999.99
5/28/2022 2:30:00 AM -99999.99 -179968 -99999.99 -99999.99 -99999.99 -99999.99
5/28/2022 2:45:00 AM -99999.99 -179968 -99999.99 -99999.99 -99999.99 -99999.99
5/28/2022 3:00:00 AM -99999.99 -179968 -99999.99 -99999.99 -99999.99 -99999.99
5/28/2022 3:15:00 AM -99999.99 -179968 -99999.99 -99999.99 -99999.99 -99999.99
5/28/2022 3:30:00 AM -99999.99 -179968 -99999.99 -99999.99 -99999.99 -99999.99
5/28/2022 3:45:00 AM -99999.99 -179968 -99999.99 -99999.99 -99999.99 -99999.99
5/28/2022 4:00:00 AM -99999.99 -179968 -99999.99 -99999.99 -99999.99 -99999.99
5/28/2022 4:15:00 AM -99999.99 -179968 -99999.99 -99999.99 -99999.99 -99999.99
5/28/2022 4:30:00 AM -99999.99 -179968 -99999.99 -99999.99 -99999.99 -99999.99
5/28/2022 4:45:00 AM -99999.99 -179968 -99999.99 -99999.99 -99999.99 -99999.99
5/28/2022 5:00:00 AM -99999.99 -179968 -99999.99 -99999.99 -99999.99 -99999.99
5/28/2022 5:15:00 AM -99999.99 -179968 -99999.99 -99999.99 -99999.99 -99999.99
5/28/2022 5:30:00 AM -99999.99 -179968 -99999.99 -99999.99 -99999.99 -99999.99
5/28/2022 5:45:00 AM -99999.99 -179968 -99999.99 -99999.99 -99999.99 -99999.99
5/28/2022 6:00:00 AM -99999.99 -179968 -99999.99 -99999.99 -99999.99 -99999.99
5/28/2022 6:15:00 AM -99999.99 -179968 -99999.99 -99999.99 -99999.99 -99999.99
5/28/2022 6:30:00 AM -99999.99 -179968 -99999.99 -99999.99 -99999.99 -99999.99
5/28/2022 6:45:00 AM -99999.99 -179968 -99999.99 -99999.99 -99999.99 -99999.99
5/28/2022 7:00:00 AM -99999.99 -179968 -99999.99 -99999.99 -99999.99 -99999.99
5/28/2022 7:15:00 AM -99999.99 -179968 -99999.99 -99999.99 -99999.99 -99999.99
5/28/2022 7:30:00 AM -99999.99 -179968 -99999.99 -99999.99 -99999.99 -99999.99
5/28/2022 7:45:00 AM -99999.99 -179968 -99999.99 -99999.99 -99999.99 -99999.99
5/28/2022 8:00:00 AM -99999.99 -179968 -99999.99 -99999.99 -99999.99 -99999.99
5/28/2022 8:15:00 AM -99999.99 -179968 -99999.99 -99999.99 -99999.99 -99999.99
5/28/2022 8:30:00 AM -99999.99 -179968 -99999.99 -99999.99 -99999.99 -99999.99
5/28/2022 8:45:00 AM -99999.99 -179968 -99999.99 -99999.99 -99999.99 -99999.99
5/28/2022 9:00:00 AM -99999.99 -179968 -99999.99 -99999.99 -99999.99 -99999.99
5/28/2022 9:15:00 AM -99999.99 -179968 -99999.99 -99999.99 -99999.99 -99999.99
5/28/2022 9:30:00 AM -99999.99 -179968 -99999.99 -99999.99 -99999.99 -99999.99
5/28/2022 9:45:00 AM -99999.99 -179968 -99999.99 -99999.99 -99999.99 -99999.99
5/28/2022 10:00:00 AM -99999.99 -179968 -99999.99 -99999.99 -99999.99 -99999.99
5/28/2022 10:15:00 AM -99999.99 -179968 -99999.99 -99999.99 -99999.99 -99999.99
5/28/2022 10:30:00 AM -99999.99 -179968 -99999.99 -99999.99 -99999.99 -99999.99
5/28/2022 10:45:00 AM -99999.99 -179968 -99999.99 -99999.99 -99999.99 -99999.99
5/28/2022 11:00:00 AM -99999.99 -179968 -99999.99 -99999.99 -99999.99 -99999.99
5/28/2022 11:15:00 AM -99999.99 -179968 -99999.99 -99999.99 -99999.99 -99999.99
5/28/2022 11:30:00 AM -99999.99 -179968 -99999.99 -99999.99 -99999.99 -99999.99
5/28/2022 11:45:00 AM -99999.99 -179968 -99999.99 -99999.99 -99999.99 -99999.99
5/28/2022 12:00:00 PM -99999.99 -179968 -99999.99 -99999.99 -99999.99 -99999.99
5/28/2022 12:15:00 PM -99999.99 -179968 -99999.99 -99999.99 -99999.99 -99999.99
5/28/2022 12:30:00 PM -99999.99 -179968 -99999.99 -99999.99 -99999.99 -99999.99
5/28/2022 12:45:00 PM -99999.99 -179968 -99999.99 -99999.99 -99999.99 -99999.99
5/28/2022 1:00:00 PM -99999.99 -179968 -99999.99 -99999.99 -99999.99 -99999.99
5/28/2022 1:15:00 PM -99999.99 -179968 -99999.99 -99999.99 -99999.99 -99999.99
5/28/2022 1:30:00 PM -99999.99 -179968 -99999.99 -99999.99 -99999.99 -99999.99
5/28/2022 1:45:00 PM -99999.99 -179968 -99999.99 -99999.99 -99999.99 -99999.99
5/28/2022 2:00:00 PM -99999.99 -179968 -99999.99 -99999.99 -99999.99 -99999.99
5/28/2022 2:15:00 PM 17.73 63.914 0.085 10.33 6.17 9.36
5/28/2022 2:30:00 PM 17.83 64.094 0.085 10.09 5.91 9.37
5/28/2022 2:45:00 PM -99999.99 -179968 -99999.99 -99999.99 -99999.99 -99999.99
5/28/2022 3:00:00 PM -99999.99 -179968 -99999.99 -99999.99 -99999.99 -99999.99
5/28/2022 3:15:00 PM -99999.99 -179968 -99999.99 -99999.99 -99999.99 -99999.99
5/28/2022 3:30:00 PM -99999.99 -179968 -99999.99 -99999.99 -99999.99 -99999.99
5/28/2022 3:45:00 PM -99999.99 -179968 -99999.99 -99999.99 -99999.99 -99999.99
5/28/2022 4:00:00 PM -99999.99 -179968 -99999.99 -99999.99 -99999.99 -99999.99
5/28/2022 4:15:00 PM -99999.99 -179968 -99999.99 -99999.99 -99999.99 -99999.99
5/28/2022 4:30:00 PM -99999.99 -179968 -99999.99 -99999.99 -99999.99 -99999.99
5/28/2022 4:45:00 PM -99999.99 -179968 -99999.99 -99999.99 -99999.99 -99999.99
5/28/2022 5:00:00 PM -99999.99 -179968 -99999.99 -99999.99 -99999.99 -99999.99
5/28/2022 5:15:00 PM -99999.99 -179968 -99999.99 -99999.99 -99999.99 -99999.99
5/28/2022 5:30:00 PM -99999.99 -179968 -99999.99 -99999.99 -99999.99 -99999.99
5/28/2022 5:45:00 PM -99999.99 -179968 -99999.99 -99999.99 -99999.99 -99999.99
5/28/2022 6:00:00 PM -99999.99 -179968 -99999.99 -99999.99 -99999.99 -99999.99
5/28/2022 6:15:00 PM -99999.99 -179968 -99999.99 -99999.99 -99999.99 -99999.99
5/28/2022 6:30:00 PM -99999.99 -179968 -99999.99 -99999.99 -99999.99 -99999.99
5/28/2022 6:45:00 PM -99999.99 -179968 -99999.99 -99999.99 -99999.99 -99999.99
5/28/2022 7:00:00 PM -99999.99 -179968 -99999.99 -99999.99 -99999.99 -99999.99
5/28/2022 7:15:00 PM -99999.99 -179968 -99999.99 -99999.99 -99999.99 -99999.99
5/28/2022 7:30:00 PM -99999.99 -179968 -99999.99 -99999.99 -99999.99 -99999.99
5/28/2022 7:45:00 PM -99999.99 -179968 -99999.99 -99999.99 -99999.99 -99999.99
5/28/2022 8:00:00 PM -99999.99 -179968 -99999.99 -99999.99 -99999.99 -99999.99
5/28/2022 8:15:00 PM -99999.99 -179968 -99999.99 -99999.99 -99999.99 -99999.99
5/28/2022 8:30:00 PM -99999.99 -179968 -99999.99 -99999.99 -99999.99 -99999.99
5/28/2022 8:45:00 PM -99999.99 -179968 -99999.99 -99999.99 -99999.99 -99999.99
5/28/2022 9:00:00 PM -99999.99 -179968 -99999.99 -99999.99 -99999.99 -99999.99
5/28/2022 9:15:00 PM -99999.99 -179968 -99999.99 -99999.99 -99999.99 -99999.99
5/28/2022 9:30:00 PM -99999.99 -179968 -99999.99 -99999.99 -99999.99 -99999.99
5/28/2022 9:45:00 PM -99999.99 -179968 -99999.99 -99999.99 -99999.99 -99999.99
5/28/2022 10:00:00 PM -99999.99 -179968 -99999.99 -99999.99 -99999.99 -99999.99
5/28/2022 10:15:00 PM -99999.99 -179968 -99999.99 -99999.99 -99999.99 -99999.99
5/28/2022 10:30:00 PM -99999.99 -179968 -99999.99 -99999.99 -99999.99 -99999.99
5/28/2022 10:45:00 PM -99999.99 -179968 -99999.99 -99999.99 -99999.99 -99999.99
5/28/2022 11:00:00 PM -99999.99 -179968 -99999.99 -99999.99 -99999.99 -99999.99
5/28/2022 11:15:00 PM -99999.99 -179968 -99999.99 -99999.99 -99999.99 -99999.99
5/28/2022 11:30:00 PM -99999.99 -179968 -99999.99 -99999.99 -99999.99 -99999.99
5/28/2022 11:45:00 PM -99999.99 -179968 -99999.99 -99999.99 -99999.99 -99999.99
5/29/2022 12:00:00 AM -99999.99 -179968 -99999.99 -99999.99 -99999.99 -99999.99
5/29/2022 12:15:00 AM -99999.99 -179968 -99999.99 -99999.99 -99999.99 -99999.99
5/29/2022 12:30:00 AM -99999.99 -179968 -99999.99 -99999.99 -99999.99 -99999.99
5/29/2022 12:45:00 AM -99999.99 -179968 -99999.99 -99999.99 -99999.99 -99999.99
5/29/2022 1:00:00 AM -99999.99 -179968 -99999.99 -99999.99 -99999.99 -99999.99
5/29/2022 1:15:00 AM -99999.99 -179968 -99999.99 -99999.99 -99999.99 -99999.99
5/29/2022 1:30:00 AM -99999.99 -179968 -99999.99 -99999.99 -99999.99 -99999.99
5/29/2022 1:45:00 AM -99999.99 -179968 -99999.99 -99999.99 -99999.99 -99999.99
5/29/2022 2:00:00 AM -99999.99 -179968 -99999.99 -99999.99 -99999.99 -99999.99
5/29/2022 2:15:00 AM -99999.99 -179968 -99999.99 -99999.99 -99999.99 -99999.99
5/29/2022 2:30:00 AM -99999.99 -179968 -99999.99 -99999.99 -99999.99 -99999.99
5/29/2022 2:45:00 AM -99999.99 -179968 -99999.99 -99999.99 -99999.99 -99999.99
5/29/2022 3:00:00 AM -99999.99 -179968 -99999.99 -99999.99 -99999.99 -99999.99
5/29/2022 3:15:00 AM -99999.99 -179968 -99999.99 -99999.99 -99999.99 -99999.99
5/29/2022 3:30:00 AM -99999.99 -179968 -99999.99 -99999.99 -99999.99 -99999.99
5/29/2022 3:45:00 AM -99999.99 -179968 -99999.99 -99999.99 -99999.99 -99999.99
5/29/2022 4:00:00 AM -99999.99 -179968 -99999.99 -99999.99 -99999.99 -99999.99
5/29/2022 4:15:00 AM -99999.99 -179968 -99999.99 -99999.99 -99999.99 -99999.99
5/29/2022 4:30:00 AM -99999.99 -179968 -99999.99 -99999.99 -99999.99 -99999.99
5/29/2022 4:45:00 AM -99999.99 -179968 -99999.99 -99999.99 -99999.99 -99999.99
5/29/2022 5:00:00 AM -99999.99 -179968 -99999.99 -99999.99 -99999.99 -99999.99
5/29/2022 5:15:00 AM -99999.99 -179968 -99999.99 -99999.99 -99999.99 -99999.99
5/29/2022 5:30:00 AM -99999.99 -179968 -99999.99 -99999.99 -99999.99 -99999.99
5/29/2022 5:45:00 AM -99999.99 -179968 -99999.99 -99999.99 -99999.99 -99999.99
5/29/2022 6:00:00 AM -99999.99 -179968 -99999.99 -99999.99 -99999.99 -99999.99
5/29/2022 6:15:00 AM -99999.99 -179968 -99999.99 -99999.99 -99999.99 -99999.99
5/29/2022 6:30:00 AM -99999.99 -179968 -99999.99 -99999.99 -99999.99 -99999.99
5/29/2022 6:45:00 AM -99999.99 -179968 -99999.99 -99999.99 -99999.99 -99999.99
5/29/2022 7:00:00 AM -99999.99 -179968 -99999.99 -99999.99 -99999.99 -99999.99
5/29/2022 7:15:00 AM -99999.99 -179968 -99999.99 -99999.99 -99999.99 -99999.99
5/29/2022 7:30:00 AM -99999.99 -179968 -99999.99 -99999.99 -99999.99 -99999.99
5/29/2022 7:45:00 AM -99999.99 -179968 -99999.99 -99999.99 -99999.99 -99999.99
5/29/2022 8:00:00 AM -99999.99 -179968 -99999.99 -99999.99 -99999.99 -99999.99
5/29/2022 8:15:00 AM -99999.99 -179968 -99999.99 -99999.99 -99999.99 -99999.99
5/29/2022 8:30:00 AM -99999.99 -179968 -99999.99 -99999.99 -99999.99 -99999.99
5/29/2022 8:45:00 AM -99999.99 -179968 -99999.99 -99999.99 -99999.99 -99999.99
5/29/2022 9:00:00 AM -99999.99 -179968 -99999.99 -99999.99 -99999.99 -99999.99
5/29/2022 9:15:00 AM -99999.99 -179968 -99999.99 -99999.99 -99999.99 -99999.99
5/29/2022 9:30:00 AM -99999.99 -179968 -99999.99 -99999.99 -99999.99 -99999.99
5/29/2022 9:45:00 AM -99999.99 -179968 -99999.99 -99999.99 -99999.99 -99999.99
5/29/2022 10:00:00 AM -99999.99 -179968 -99999.99 -99999.99 -99999.99 -99999.99
5/29/2022 10:15:00 AM -99999.99 -179968 -99999.99 -99999.99 -99999.99 -99999.99
5/29/2022 10:30:00 AM -99999.99 -179968 -99999.99 -99999.99 -99999.99 -99999.99
5/29/2022 10:45:00 AM -99999.99 -179968 -99999.99 -99999.99 -99999.99 -99999.99
5/29/2022 11:00:00 AM -99999.99 -179968 -99999.99 -99999.99 -99999.99 -99999.99
5/29/2022 11:15:00 AM -99999.99 -179968 -99999.99 -99999.99 -99999.99 -99999.99
5/29/2022 11:30:00 AM -99999.99 -179968 -99999.99 -99999.99 -99999.99 -99999.99
5/29/2022 11:45:00 AM -99999.99 -179968 -99999.99 -99999.99 -99999.99 -99999.99
5/29/2022 12:00:00 PM -99999.99 -179968 -99999.99 -99999.99 -99999.99 -99999.99
5/29/2022 12:15:00 PM -99999.99 -179968 -99999.99 -99999.99 -99999.99 -99999.99
5/29/2022 12:30:00 PM -99999.99 -179968 -99999.99 -99999.99 -99999.99 -99999.99
5/29/2022 12:45:00 PM -99999.99 -179968 -99999.99 -99999.99 -99999.99 -99999.99
5/29/2022 1:00:00 PM -99999.99 -179968 -99999.99 -99999.99 -99999.99 -99999.99
5/29/2022 1:15:00 PM -99999.99 -179968 -99999.99 -99999.99 -99999.99 -99999.99
5/29/2022 1:30:00 PM -99999.99 -179968 -99999.99 -99999.99 -99999.99 -99999.99
5/29/2022 1:45:00 PM -99999.99 -179968 -99999.99 -99999.99 -99999.99 -99999.99
5/29/2022 2:00:00 PM -99999.99 -179968 -99999.99 -99999.99 -99999.99 -99999.99
5/29/2022 2:15:00 PM -99999.99 -179968 -99999.99 -99999.99 -99999.99 -99999.99
5/29/2022 2:30:00 PM -99999.99 -179968 -99999.99 -99999.99 -99999.99 -99999.99
5/29/2022 2:45:00 PM -99999.99 -179968 -99999.99 -99999.99 -99999.99 -99999.99
5/29/2022 3:00:00 PM -99999.99 -179968 -99999.99 -99999.99 -99999.99 -99999.99
5/29/2022 3:15:00 PM -99999.99 -179968 -99999.99 -99999.99 -99999.99 -99999.99
5/29/2022 3:30:00 PM -99999.99 -179968 -99999.99 -99999.99 -99999.99 -99999.99
5/29/2022 3:45:00 PM -99999.99 -179968 -99999.99 -99999.99 -99999.99 -99999.99
5/29/2022 4:00:00 PM -99999.99 -179968 -99999.99 -99999.99 -99999.99 -99999.99
5/29/2022 4:15:00 PM -99999.99 -179968 -99999.99 -99999.99 -99999.99 -99999.99
5/29/2022 4:30:00 PM -99999.99 -179968 -99999.99 -99999.99 -99999.99 -99999.99
5/29/2022 4:45:00 PM -99999.99 -179968 -99999.99 -99999.99 -99999.99 -99999.99
5/29/2022 5:00:00 PM -99999.99 -179968 -99999.99 -99999.99 -99999.99 -99999.99
5/29/2022 5:15:00 PM -99999.99 -179968 -99999.99 -99999.99 -99999.99 -99999.99
5/29/2022 5:30:00 PM -99999.99 -179968 -99999.99 -99999.99 -99999.99 -99999.99
5/29/2022 5:45:00 PM -99999.99 -179968 -99999.99 -99999.99 -99999.99 -99999.99
5/29/2022 6:00:00 PM -99999.99 -179968 -99999.99 -99999.99 -99999.99 -99999.99
5/29/2022 6:15:00 PM -99999.99 -179968 -99999.99 -99999.99 -99999.99 -99999.99
5/29/2022 6:30:00 PM -99999.99 -179968 -99999.99 -99999.99 -99999.99 -99999.99
5/29/2022 6:45:00 PM -99999.99 -179968 -99999.99 -99999.99 -99999.99 -99999.99
5/29/2022 7:00:00 PM -99999.99 -179968 -99999.99 -99999.99 -99999.99 -99999.99
5/29/2022 7:15:00 PM -99999.99 -179968 -99999.99 -99999.99 -99999.99 -99999.99
5/29/2022 7:30:00 PM -99999.99 -179968 -99999.99 -99999.99 -99999.99 -99999.99
5/29/2022 7:45:00 PM -99999.99 -179968 -99999.99 -99999.99 -99999.99 -99999.99
5/29/2022 8:00:00 PM -99999.99 -179968 -99999.99 -99999.99 -99999.99 -99999.99
5/29/2022 8:15:00 PM -99999.99 -179968 -99999.99 -99999.99 -99999.99 -99999.99
5/29/2022 8:30:00 PM -99999.99 -179968 -99999.99 -99999.99 -99999.99 -99999.99
5/29/2022 8:45:00 PM -99999.99 -179968 -99999.99 -99999.99 -99999.99 -99999.99
5/29/2022 9:00:00 PM -99999.99 -179968 -99999.99 -99999.99 -99999.99 -99999.99
5/29/2022 9:15:00 PM -99999.99 -179968 -99999.99 -99999.99 -99999.99 -99999.99
5/29/2022 9:30:00 PM -99999.99 -179968 -99999.99 -99999.99 -99999.99 -99999.99
5/29/2022 9:45:00 PM -99999.99 -179968 -99999.99 -99999.99 -99999.99 -99999.99
5/29/2022 10:00:00 PM -99999.99 -179968 -99999.99 -99999.99 -99999.99 -99999.99
5/29/2022 10:15:00 PM -99999.99 -179968 -99999.99 -99999.99 -99999.99 -99999.99
5/29/2022 10:30:00 PM -99999.99 -179968 -99999.99 -99999.99 -99999.99 -99999.99
5/29/2022 10:45:00 PM -99999.99 -179968 -99999.99 -99999.99 -99999.99 -99999.99
5/29/2022 11:00:00 PM -99999.99 -179968 -99999.99 -99999.99 -99999.99 -99999.99
5/29/2022 11:15:00 PM -99999.99 -179968 -99999.99 -99999.99 -99999.99 -99999.99
5/29/2022 11:30:00 PM -99999.99 -179968 -99999.99 -99999.99 -99999.99 -99999.99
5/29/2022 11:45:00 PM -99999.99 -179968 -99999.99 -99999.99 -99999.99 -99999.99
5/30/2022 12:00:00 AM -99999.99 -179968 -99999.99 -99999.99 -99999.99 -99999.99
5/30/2022 12:15:00 AM -99999.99 -179968 -99999.99 -99999.99 -99999.99 -99999.99
5/30/2022 12:30:00 AM -99999.99 -179968 -99999.99 -99999.99 -99999.99 -99999.99
5/30/2022 12:45:00 AM -99999.99 -179968 -99999.99 -99999.99 -99999.99 -99999.99
5/30/2022 1:00:00 AM -99999.99 -179968 -99999.99 -99999.99 -99999.99 -99999.99
5/30/2022 1:15:00 AM -99999.99 -179968 -99999.99 -99999.99 -99999.99 -99999.99
5/30/2022 1:30:00 AM -99999.99 -179968 -99999.99 -99999.99 -99999.99 -99999.99
5/30/2022 1:45:00 AM -99999.99 -179968 -99999.99 -99999.99 -99999.99 -99999.99
5/30/2022 2:00:00 AM -99999.99 -179968 -99999.99 -99999.99 -99999.99 -99999.99
5/30/2022 2:15:00 AM -99999.99 -179968 -99999.99 -99999.99 -99999.99 -99999.99
5/30/2022 2:30:00 AM -99999.99 -179968 -99999.99 -99999.99 -99999.99 -99999.99
5/30/2022 2:45:00 AM -99999.99 -179968 -99999.99 -99999.99 -99999.99 -99999.99
5/30/2022 3:00:00 AM -99999.99 -179968 -99999.99 -99999.99 -99999.99 -99999.99
5/30/2022 3:15:00 AM -99999.99 -179968 -99999.99 -99999.99 -99999.99 -99999.99
5/30/2022 3:30:00 AM -99999.99 -179968 -99999.99 -99999.99 -99999.99 -99999.99
5/30/2022 3:45:00 AM -99999.99 -179968 -99999.99 -99999.99 -99999.99 -99999.99
5/30/2022 4:00:00 AM -99999.99 -179968 -99999.99 -99999.99 -99999.99 -99999.99
5/30/2022 4:15:00 AM -99999.99 -179968 -99999.99 -99999.99 -99999.99 -99999.99
5/30/2022 4:30:00 AM -99999.99 -179968 -99999.99 -99999.99 -99999.99 -99999.99
5/30/2022 4:45:00 AM -99999.99 -179968 -99999.99 -99999.99 -99999.99 -99999.99
5/30/2022 5:00:00 AM -99999.99 -179968 -99999.99 -99999.99 -99999.99 -99999.99
5/30/2022 5:15:00 AM -99999.99 -179968 -99999.99 -99999.99 -99999.99 -99999.99
5/30/2022 5:30:00 AM -99999.99 -179968 -99999.99 -99999.99 -99999.99 -99999.99
5/30/2022 5:45:00 AM -99999.99 -179968 -99999.99 -99999.99 -99999.99 -99999.99
5/30/2022 6:00:00 AM -99999.99 -179968 -99999.99 -99999.99 -99999.99 -99999.99
5/30/2022 6:15:00 AM -99999.99 -179968 -99999.99 -99999.99 -99999.99 -99999.99
5/30/2022 6:30:00 AM -99999.99 -179968 -99999.99 -99999.99 -99999.99 -99999.99
5/30/2022 6:45:00 AM -99999.99 -179968 -99999.99 -99999.99 -99999.99 -99999.99
5/30/2022 7:00:00 AM -99999.99 -179968 -99999.99 -99999.99 -99999.99 -99999.99
5/30/2022 7:15:00 AM -99999.99 -179968 -99999.99 -99999.99 -99999.99 -99999.99
5/30/2022 7:30:00 AM -99999.99 -179968 -99999.99 -99999.99 -99999.99 -99999.99
5/30/2022 7:45:00 AM -99999.99 -179968 -99999.99 -99999.99 -99999.99 -99999.99
5/30/2022 8:00:00 AM -99999.99 -179968 -99999.99 -99999.99 -99999.99 -99999.99
5/30/2022 8:15:00 AM -99999.99 -179968 -99999.99 -99999.99 -99999.99 -99999.99
5/30/2022 8:30:00 AM -99999.99 -179968 -99999.99 -99999.99 -99999.99 -99999.99
5/30/2022 8:45:00 AM 17.06 62.708 0.095 10.62 2.76 9.37
5/30/2022 9:00:00 AM -99999.99 -179968 -99999.99 -99999.99 -99999.99 -99999.99
5/30/2022 9:15:00 AM -99999.99 -179968 -99999.99 -99999.99 -99999.99 -99999.99
5/30/2022 9:30:00 AM -99999.99 -179968 -99999.99 -99999.99 -99999.99 -99999.99
5/30/2022 9:45:00 AM -99999.99 -179968 -99999.99 -99999.99 -99999.99 -99999.99
5/30/2022 10:00:00 AM -99999.99 -179968 -99999.99 -99999.99 -99999.99 -99999.99
5/30/2022 10:15:00 AM -99999.99 -179968 -99999.99 -99999.99 -99999.99 -99999.99
5/30/2022 10:30:00 AM -99999.99 -179968 -99999.99 -99999.99 -99999.99 -99999.99
5/30/2022 10:45:00 AM -99999.99 -179968 -99999.99 -99999.99 -99999.99 -99999.99
5/30/2022 11:00:00 AM -99999.99 -179968 -99999.99 -99999.99 -99999.99 -99999.99
5/30/2022 11:15:00 AM -99999.99 -179968 -99999.99 -99999.99 -99999.99 -99999.99
5/30/2022 11:30:00 AM -99999.99 -179968 -99999.99 -99999.99 -99999.99 -99999.99
5/30/2022 11:45:00 AM -99999.99 -179968 -99999.99 -99999.99 -99999.99 -99999.99
5/30/2022 12:00:00 PM -99999.99 -179968 -99999.99 -99999.99 -99999.99 -99999.99
5/30/2022 12:15:00 PM 19.68 67.424 0.095 10.07 2.56 9.02
5/30/2022 12:30:00 PM 20.05 68.09 0.095 10.08 2.44 8.98
5/30/2022 12:45:00 PM 20.42 68.756 0.095 10.1 2.47 8.94
5/30/2022 1:00:00 PM 20.75 69.35 0.095 9.89 2.49 8.86
5/30/2022 1:15:00 PM -99999.99 -179968 -99999.99 -99999.99 -99999.99 -99999.99
5/30/2022 1:30:00 PM -99999.99 -179968 -99999.99 -99999.99 -99999.99 -99999.99
5/30/2022 1:45:00 PM -99999.99 -179968 -99999.99 -99999.99 -99999.99 -99999.99
5/30/2022 2:00:00 PM -99999.99 -179968 -99999.99 -99999.99 -99999.99 -99999.99
5/30/2022 2:15:00 PM -99999.99 -179968 -99999.99 -99999.99 -99999.99 -99999.99
5/30/2022 2:30:00 PM -99999.99 -179968 -99999.99 -99999.99 -99999.99 -99999.99
5/30/2022 2:45:00 PM -99999.99 -179968 -99999.99 -99999.99 -99999.99 -99999.99
5/30/2022 3:00:00 PM -99999.99 -179968 -99999.99 -99999.99 -99999.99 -99999.99
5/30/2022 3:15:00 PM -99999.99 -179968 -99999.99 -99999.99 -99999.99 -99999.99
5/30/2022 3:30:00 PM -99999.99 -179968 -99999.99 -99999.99 -99999.99 -99999.99
5/30/2022 3:45:00 PM -99999.99 -179968 -99999.99 -99999.99 -99999.99 -99999.99
5/30/2022 4:00:00 PM -99999.99 -179968 -99999.99 -99999.99 -99999.99 -99999.99
5/30/2022 4:15:00 PM -99999.99 -179968 -99999.99 -99999.99 -99999.99 -99999.99
5/30/2022 4:30:00 PM -99999.99 -179968 -99999.99 -99999.99 -99999.99 -99999.99
5/30/2022 4:45:00 PM -99999.99 -179968 -99999.99 -99999.99 -99999.99 -99999.99
5/30/2022 5:00:00 PM -99999.99 -179968 -99999.99 -99999.99 -99999.99 -99999.99
5/30/2022 5:15:00 PM -99999.99 -179968 -99999.99 -99999.99 -99999.99 -99999.99
5/30/2022 5:30:00 PM -99999.99 -179968 -99999.99 -99999.99 -99999.99 -99999.99
5/30/2022 5:45:00 PM -99999.99 -179968 -99999.99 -99999.99 -99999.99 -99999.99
5/30/2022 6:00:00 PM -99999.99 -179968 -99999.99 -99999.99 -99999.99 -99999.99
5/30/2022 6:15:00 PM -99999.99 -179968 -99999.99 -99999.99 -99999.99 -99999.99
5/30/2022 6:30:00 PM -99999.99 -179968 -99999.99 -99999.99 -99999.99 -99999.99
5/30/2022 6:45:00 PM -99999.99 -179968 -99999.99 -99999.99 -99999.99 -99999.99
5/30/2022 7:00:00 PM -99999.99 -179968 -99999.99 -99999.99 -99999.99 -99999.99
5/30/2022 7:15:00 PM -99999.99 -179968 -99999.99 -99999.99 -99999.99 -99999.99
5/30/2022 7:30:00 PM -99999.99 -179968 -99999.99 -99999.99 -99999.99 -99999.99
5/30/2022 7:45:00 PM -99999.99 -179968 -99999.99 -99999.99 -99999.99 -99999.99
5/30/2022 8:00:00 PM -99999.99 -179968 -99999.99 -99999.99 -99999.99 -99999.99
5/30/2022 8:15:00 PM -99999.99 -179968 -99999.99 -99999.99 -99999.99 -99999.99
5/30/2022 8:30:00 PM -99999.99 -179968 -99999.99 -99999.99 -99999.99 -99999.99
5/30/2022 8:45:00 PM -99999.99 -179968 -99999.99 -99999.99 -99999.99 -99999.99
5/30/2022 9:00:00 PM -99999.99 -179968 -99999.99 -99999.99 -99999.99 -99999.99
5/30/2022 9:15:00 PM -99999.99 -179968 -99999.99 -99999.99 -99999.99 -99999.99
5/30/2022 9:30:00 PM -99999.99 -179968 -99999.99 -99999.99 -99999.99 -99999.99
5/30/2022 9:45:00 PM -99999.99 -179968 -99999.99 -99999.99 -99999.99 -99999.99
5/30/2022 10:00:00 PM -99999.99 -179968 -99999.99 -99999.99 -99999.99 -99999.99
5/30/2022 10:15:00 PM -99999.99 -179968 -99999.99 -99999.99 -99999.99 -99999.99
5/30/2022 10:30:00 PM -99999.99 -179968 -99999.99 -99999.99 -99999.99 -99999.99
5/30/2022 10:45:00 PM -99999.99 -179968 -99999.99 -99999.99 -99999.99 -99999.99
5/30/2022 11:00:00 PM -99999.99 -179968 -99999.99 -99999.99 -99999.99 -99999.99
5/30/2022 11:15:00 PM -99999.99 -179968 -99999.99 -99999.99 -99999.99 -99999.99
5/30/2022 11:30:00 PM -99999.99 -179968 -99999.99 -99999.99 -99999.99 -99999.99
5/30/2022 11:45:00 PM -99999.99 -179968 -99999.99 -99999.99 -99999.99 -99999.99
5/31/2022 12:00:00 AM -99999.99 -179968 -99999.99 -99999.99 -99999.99 -99999.99
5/31/2022 12:15:00 AM -99999.99 -179968 -99999.99 -99999.99 -99999.99 -99999.99
5/31/2022 12:30:00 AM -99999.99 -179968 -99999.99 -99999.99 -99999.99 -99999.99
5/31/2022 12:45:00 AM -99999.99 -179968 -99999.99 -99999.99 -99999.99 -99999.99
5/31/2022 1:00:00 AM -99999.99 -179968 -99999.99 -99999.99 -99999.99 -99999.99
5/31/2022 1:15:00 AM -99999.99 -179968 -99999.99 -99999.99 -99999.99 -99999.99
5/31/2022 1:30:00 AM -99999.99 -179968 -99999.99 -99999.99 -99999.99 -99999.99
5/31/2022 1:45:00 AM -99999.99 -179968 -99999.99 -99999.99 -99999.99 -99999.99
5/31/2022 2:00:00 AM -99999.99 -179968 -99999.99 -99999.99 -99999.99 -99999.99
5/31/2022 2:15:00 AM -99999.99 -179968 -99999.99 -99999.99 -99999.99 -99999.99
5/31/2022 2:30:00 AM -99999.99 -179968 -99999.99 -99999.99 -99999.99 -99999.99
5/31/2022 2:45:00 AM -99999.99 -179968 -99999.99 -99999.99 -99999.99 -99999.99
5/31/2022 3:00:00 AM -99999.99 -179968 -99999.99 -99999.99 -99999.99 -99999.99
5/31/2022 3:15:00 AM -99999.99 -179968 -99999.99 -99999.99 -99999.99 -99999.99
5/31/2022 3:30:00 AM -99999.99 -179968 -99999.99 -99999.99 -99999.99 -99999.99
5/31/2022 3:45:00 AM -99999.99 -179968 -99999.99 -99999.99 -99999.99 -99999.99
5/31/2022 4:00:00 AM -99999.99 -179968 -99999.99 -99999.99 -99999.99 -99999.99
5/31/2022 4:15:00 AM -99999.99 -179968 -99999.99 -99999.99 -99999.99 -99999.99
5/31/2022 4:30:00 AM -99999.99 -179968 -99999.99 -99999.99 -99999.99 -99999.99
5/31/2022 4:45:00 AM -99999.99 -179968 -99999.99 -99999.99 -99999.99 -99999.99
5/31/2022 5:00:00 AM -99999.99 -179968 -99999.99 -99999.99 -99999.99 -99999.99
5/31/2022 5:15:00 AM -99999.99 -179968 -99999.99 -99999.99 -99999.99 -99999.99
5/31/2022 5:30:00 AM -99999.99 -179968 -99999.99 -99999.99 -99999.99 -99999.99
5/31/2022 5:45:00 AM -99999.99 -179968 -99999.99 -99999.99 -99999.99 -99999.99
5/31/2022 6:00:00 AM -99999.99 -179968 -99999.99 -99999.99 -99999.99 -99999.99
5/31/2022 6:15:00 AM -99999.99 -179968 -99999.99 -99999.99 -99999.99 -99999.99
5/31/2022 6:30:00 AM -99999.99 -179968 -99999.99 -99999.99 -99999.99 -99999.99
5/31/2022 6:45:00 AM -99999.99 -179968 -99999.99 -99999.99 -99999.99 -99999.99
5/31/2022 7:00:00 AM -99999.99 -179968 -99999.99 -99999.99 -99999.99 -99999.99
5/31/2022 7:15:00 AM -99999.99 -179968 -99999.99 -99999.99 -99999.99 -99999.99
5/31/2022 7:30:00 AM -99999.99 -179968 -99999.99 -99999.99 -99999.99 -99999.99
5/31/2022 7:45:00 AM -99999.99 -179968 -99999.99 -99999.99 -99999.99 -99999.99
5/31/2022 8:00:00 AM -99999.99 -179968 -99999.99 -99999.99 -99999.99 -99999.99
5/31/2022 8:15:00 AM -99999.99 -179968 -99999.99 -99999.99 -99999.99 -99999.99
5/31/2022 8:30:00 AM -99999.99 -179968 -99999.99 -99999.99 -99999.99 -99999.99
5/31/2022 8:45:00 AM 19.09 66.362 0.096 11.66 3.67 8.93
5/31/2022 9:00:00 AM 19.15 66.47 0.096 10.49 3.65 8.92
5/31/2022 9:15:00 AM -99999.99 -179968 -99999.99 -99999.99 -99999.99 -99999.99
5/31/2022 9:30:00 AM -99999.99 -179968 -99999.99 -99999.99 -99999.99 -99999.99
5/31/2022 9:45:00 AM -99999.99 -179968 -99999.99 -99999.99 -99999.99 -99999.99
5/31/2022 10:00:00 AM -99999.99 -179968 -99999.99 -99999.99 -99999.99 -99999.99
5/31/2022 10:15:00 AM -99999.99 -179968 -99999.99 -99999.99 -99999.99 -99999.99
5/31/2022 10:30:00 AM -99999.99 -179968 -99999.99 -99999.99 -99999.99 -99999.99
5/31/2022 10:45:00 AM -99999.99 -179968 -99999.99 -99999.99 -99999.99 -99999.99
5/31/2022 11:00:00 AM -99999.99 -179968 -99999.99 -99999.99 -99999.99 -99999.99
5/31/2022 11:15:00 AM -99999.99 -179968 -99999.99 -99999.99 -99999.99 -99999.99
5/31/2022 11:30:00 AM -99999.99 -179968 -99999.99 -99999.99 -99999.99 -99999.99
5/31/2022 11:45:00 AM -99999.99 -179968 -99999.99 -99999.99 -99999.99 -99999.99
5/31/2022 12:00:00 PM -99999.99 -179968 -99999.99 -99999.99 -99999.99 -99999.99
5/31/2022 12:15:00 PM -99999.99 -179968 -99999.99 -99999.99 -99999.99 -99999.99
5/31/2022 12:30:00 PM -99999.99 -179968 -99999.99 -99999.99 -99999.99 -99999.99
5/31/2022 12:45:00 PM -99999.99 -179968 -99999.99 -99999.99 -99999.99 -99999.99
5/31/2022 1:00:00 PM -99999.99 -179968 -99999.99 -99999.99 -99999.99 -99999.99
5/31/2022 1:15:00 PM -99999.99 -179968 -99999.99 -99999.99 -99999.99 -99999.99
5/31/2022 1:30:00 PM -99999.99 -179968 -99999.99 -99999.99 -99999.99 -99999.99
5/31/2022 1:45:00 PM -99999.99 -179968 -99999.99 -99999.99 -99999.99 -99999.99
5/31/2022 2:00:00 PM -99999.99 -179968 -99999.99 -99999.99 -99999.99 -99999.99
5/31/2022 2:15:00 PM -99999.99 -179968 -99999.99 -99999.99 -99999.99 -99999.99
5/31/2022 2:30:00 PM -99999.99 -179968 -99999.99 -99999.99 -99999.99 -99999.99
5/31/2022 2:45:00 PM -99999.99 -179968 -99999.99 -99999.99 -99999.99 -99999.99
5/31/2022 3:00:00 PM -99999.99 -179968 -99999.99 -99999.99 -99999.99 -99999.99
5/31/2022 3:15:00 PM -99999.99 -179968 -99999.99 -99999.99 -99999.99 -99999.99
5/31/2022 3:30:00 PM -99999.99 -179968 -99999.99 -99999.99 -99999.99 -99999.99
5/31/2022 3:45:00 PM -99999.99 -179968 -99999.99 -99999.99 -99999.99 -99999.99
5/31/2022 4:00:00 PM -99999.99 -179968 -99999.99 -99999.99 -99999.99 -99999.99
5/31/2022 4:15:00 PM -99999.99 -179968 -99999.99 -99999.99 -99999.99 -99999.99
5/31/2022 4:30:00 PM -99999.99 -179968 -99999.99 -99999.99 -99999.99 -99999.99
5/31/2022 4:45:00 PM -99999.99 -179968 -99999.99 -99999.99 -99999.99 -99999.99
5/31/2022 5:00:00 PM -99999.99 -179968 -99999.99 -99999.99 -99999.99 -99999.99
5/31/2022 5:15:00 PM -99999.99 -179968 -99999.99 -99999.99 -99999.99 -99999.99
5/31/2022 5:30:00 PM -99999.99 -179968 -99999.99 -99999.99 -99999.99 -99999.99
5/31/2022 5:45:00 PM -99999.99 -179968 -99999.99 -99999.99 -99999.99 -99999.99
5/31/2022 6:00:00 PM -99999.99 -179968 -99999.99 -99999.99 -99999.99 -99999.99
5/31/2022 6:15:00 PM -99999.99 -179968 -99999.99 -99999.99 -99999.99 -99999.99
5/31/2022 6:30:00 PM -99999.99 -179968 -99999.99 -99999.99 -99999.99 -99999.99
5/31/2022 6:45:00 PM -99999.99 -179968 -99999.99 -99999.99 -99999.99 -99999.99
5/31/2022 7:00:00 PM -99999.99 -179968 -99999.99 -99999.99 -99999.99 -99999.99
5/31/2022 7:15:00 PM -99999.99 -179968 -99999.99 -99999.99 -99999.99 -99999.99
5/31/2022 7:30:00 PM -99999.99 -179968 -99999.99 -99999.99 -99999.99 -99999.99
5/31/2022 7:45:00 PM -99999.99 -179968 -99999.99 -99999.99 -99999.99 -99999.99
5/31/2022 8:00:00 PM -99999.99 -179968 -99999.99 -99999.99 -99999.99 -99999.99
5/31/2022 8:15:00 PM -99999.99 -179968 -99999.99 -99999.99 -99999.99 -99999.99
5/31/2022 8:30:00 PM -99999.99 -179968 -99999.99 -99999.99 -99999.99 -99999.99
5/31/2022 8:45:00 PM -99999.99 -179968 -99999.99 -99999.99 -99999.99 -99999.99
5/31/2022 9:00:00 PM -99999.99 -179968 -99999.99 -99999.99 -99999.99 -99999.99
5/31/2022 9:15:00 PM -99999.99 -179968 -99999.99 -99999.99 -99999.99 -99999.99
5/31/2022 9:30:00 PM -99999.99 -179968 -99999.99 -99999.99 -99999.99 -99999.99
5/31/2022 9:45:00 PM -99999.99 -179968 -99999.99 -99999.99 -99999.99 -99999.99
5/31/2022 10:00:00 PM -99999.99 -179968 -99999.99 -99999.99 -99999.99 -99999.99
5/31/2022 10:15:00 PM -99999.99 -179968 -99999.99 -99999.99 -99999.99 -99999.99
5/31/2022 10:30:00 PM -99999.99 -179968 -99999.99 -99999.99 -99999.99 -99999.99
5/31/2022 10:45:00 PM -99999.99 -179968 -99999.99 -99999.99 -99999.99 -99999.99
5/31/2022 11:00:00 PM -99999.99 -179968 -99999.99 -99999.99 -99999.99 -99999.99
5/31/2022 11:15:00 PM -99999.99 -179968 -99999.99 -99999.99 -99999.99 -99999.99
5/31/2022 11:30:00 PM -99999.99 -179968 -99999.99 -99999.99 -99999.99 -99999.99
5/31/2022 11:45:00 PM -99999.99 -179968 -99999.99 -99999.99 -99999.99 -99999.99
6/1/2022 12:00:00 AM -99999.99 -179968 -99999.99 -99999.99 -99999.99 -99999.99
6/1/2022 12:15:00 AM -99999.99 -179968 -99999.99 -99999.99 -99999.99 -99999.99
6/1/2022 12:30:00 AM -99999.99 -179968 -99999.99 -99999.99 -99999.99 -99999.99
6/1/2022 12:45:00 AM -99999.99 -179968 -99999.99 -99999.99 -99999.99 -99999.99
6/1/2022 1:00:00 AM -99999.99 -179968 -99999.99 -99999.99 -99999.99 -99999.99
6/1/2022 1:15:00 AM -99999.99 -179968 -99999.99 -99999.99 -99999.99 -99999.99
6/1/2022 1:30:00 AM -99999.99 -179968 -99999.99 -99999.99 -99999.99 -99999.99
6/1/2022 1:45:00 AM -99999.99 -179968 -99999.99 -99999.99 -99999.99 -99999.99
6/1/2022 2:00:00 AM -99999.99 -179968 -99999.99 -99999.99 -99999.99 -99999.99
6/1/2022 2:15:00 AM -99999.99 -179968 -99999.99 -99999.99 -99999.99 -99999.99
6/1/2022 2:30:00 AM -99999.99 -179968 -99999.99 -99999.99 -99999.99 -99999.99
6/1/2022 2:45:00 AM -99999.99 -179968 -99999.99 -99999.99 -99999.99 -99999.99
6/1/2022 3:00:00 AM -99999.99 -179968 -99999.99 -99999.99 -99999.99 -99999.99
6/1/2022 3:15:00 AM -99999.99 -179968 -99999.99 -99999.99 -99999.99 -99999.99
6/1/2022 3:30:00 AM -99999.99 -179968 -99999.99 -99999.99 -99999.99 -99999.99
6/1/2022 3:45:00 AM -99999.99 -179968 -99999.99 -99999.99 -99999.99 -99999.99
6/1/2022 4:00:00 AM -99999.99 -179968 -99999.99 -99999.99 -99999.99 -99999.99
6/1/2022 4:15:00 AM -99999.99 -179968 -99999.99 -99999.99 -99999.99 -99999.99
6/1/2022 4:30:00 AM -99999.99 -179968 -99999.99 -99999.99 -99999.99 -99999.99
6/1/2022 4:45:00 AM -99999.99 -179968 -99999.99 -99999.99 -99999.99 -99999.99
6/1/2022 5:00:00 AM -99999.99 -179968 -99999.99 -99999.99 -99999.99 -99999.99
6/1/2022 5:15:00 AM -99999.99 -179968 -99999.99 -99999.99 -99999.99 -99999.99
6/1/2022 5:30:00 AM -99999.99 -179968 -99999.99 -99999.99 -99999.99 -99999.99
6/1/2022 5:45:00 AM -99999.99 -179968 -99999.99 -99999.99 -99999.99 -99999.99
6/1/2022 6:00:00 AM -99999.99 -179968 -99999.99 -99999.99 -99999.99 -99999.99
6/1/2022 6:15:00 AM -99999.99 -179968 -99999.99 -99999.99 -99999.99 -99999.99
6/1/2022 6:30:00 AM -99999.99 -179968 -99999.99 -99999.99 -99999.99 -99999.99
6/1/2022 6:45:00 AM -99999.99 -179968 -99999.99 -99999.99 -99999.99 -99999.99
6/1/2022 7:00:00 AM -99999.99 -179968 -99999.99 -99999.99 -99999.99 -99999.99
6/1/2022 7:15:00 AM -99999.99 -179968 -99999.99 -99999.99 -99999.99 -99999.99
6/1/2022 7:30:00 AM -99999.99 -179968 -99999.99 -99999.99 -99999.99 -99999.99
6/1/2022 7:45:00 AM -99999.99 -179968 -99999.99 -99999.99 -99999.99 -99999.99
6/1/2022 8:00:00 AM -99999.99 -179968 -99999.99 -99999.99 -99999.99 -99999.99
6/1/2022 8:15:00 AM -99999.99 -179968 -99999.99 -99999.99 -99999.99 -99999.99
6/1/2022 8:30:00 AM -99999.99 -179968 -99999.99 -99999.99 -99999.99 -99999.99
6/1/2022 8:45:00 AM -99999.99 -179968 -99999.99 -99999.99 -99999.99 -99999.99
6/1/2022 9:00:00 AM -99999.99 -179968 -99999.99 -99999.99 -99999.99 -99999.99
6/1/2022 9:15:00 AM -99999.99 -179968 -99999.99 -99999.99 -99999.99 -99999.99
6/1/2022 9:30:00 AM -99999.99 -179968 -99999.99 -99999.99 -99999.99 -99999.99
6/1/2022 9:45:00 AM -99999.99 -179968 -99999.99 -99999.99 -99999.99 -99999.99
6/1/2022 10:00:00 AM -99999.99 -179968 -99999.99 -99999.99 -99999.99 -99999.99
6/1/2022 10:15:00 AM -99999.99 -179968 -99999.99 -99999.99 -99999.99 -99999.99
6/1/2022 10:30:00 AM -99999.99 -179968 -99999.99 -99999.99 -99999.99 -99999.99
6/1/2022 10:45:00 AM -99999.99 -179968 -99999.99 -99999.99 -99999.99 -99999.99
6/1/2022 11:00:00 AM -99999.99 -179968 -99999.99 -99999.99 -99999.99 -99999.99
6/1/2022 11:15:00 AM -99999.99 -179968 -99999.99 -99999.99 -99999.99 -99999.99
6/1/2022 11:30:00 AM -99999.99 -179968 -99999.99 -99999.99 -99999.99 -99999.99
6/1/2022 11:45:00 AM -99999.99 -179968 -99999.99 -99999.99 -99999.99 -99999.99
6/1/2022 12:00:00 PM -99999.99 -179968 -99999.99 -99999.99 -99999.99 -99999.99
6/1/2022 12:15:00 PM -99999.99 -179968 -99999.99 -99999.99 -99999.99 -99999.99
6/1/2022 12:30:00 PM -99999.99 -179968 -99999.99 -99999.99 -99999.99 -99999.99
6/1/2022 12:45:00 PM -99999.99 -179968 -99999.99 -99999.99 -99999.99 -99999.99
6/1/2022 1:00:00 PM -99999.99 -179968 -99999.99 -99999.99 -99999.99 -99999.99
6/1/2022 1:15:00 PM -99999.99 -179968 -99999.99 -99999.99 -99999.99 -99999.99
6/1/2022 1:30:00 PM -99999.99 -179968 -99999.99 -99999.99 -99999.99 -99999.99
6/1/2022 1:45:00 PM -99999.99 -179968 -99999.99 -99999.99 -99999.99 -99999.99
6/1/2022 2:00:00 PM -99999.99 -179968 -99999.99 -99999.99 -99999.99 -99999.99
6/1/2022 2:15:00 PM -99999.99 -179968 -99999.99 -99999.99 -99999.99 -99999.99
6/1/2022 2:30:00 PM -99999.99 -179968 -99999.99 -99999.99 -99999.99 -99999.99
6/1/2022 2:45:00 PM -99999.99 -179968 -99999.99 -99999.99 -99999.99 -99999.99
6/1/2022 3:00:00 PM -99999.99 -179968 -99999.99 -99999.99 -99999.99 -99999.99
6/1/2022 3:15:00 PM -99999.99 -179968 -99999.99 -99999.99 -99999.99 -99999.99
6/1/2022 3:30:00 PM -99999.99 -179968 -99999.99 -99999.99 -99999.99 -99999.99
6/1/2022 3:45:00 PM -99999.99 -179968 -99999.99 -99999.99 -99999.99 -99999.99
6/1/2022 4:00:00 PM -99999.99 -179968 -99999.99 -99999.99 -99999.99 -99999.99
6/1/2022 4:15:00 PM -99999.99 -179968 -99999.99 -99999.99 -99999.99 -99999.99
6/1/2022 4:30:00 PM -99999.99 -179968 -99999.99 -99999.99 -99999.99 -99999.99
6/1/2022 4:45:00 PM -99999.99 -179968 -99999.99 -99999.99 -99999.99 -99999.99
6/1/2022 5:00:00 PM -99999.99 -179968 -99999.99 -99999.99 -99999.99 -99999.99
6/1/2022 5:15:00 PM -99999.99 -179968 -99999.99 -99999.99 -99999.99 -99999.99
6/1/2022 5:30:00 PM -99999.99 -179968 -99999.99 -99999.99 -99999.99 -99999.99
6/1/2022 5:45:00 PM -99999.99 -179968 -99999.99 -99999.99 -99999.99 -99999.99
6/1/2022 6:00:00 PM -99999.99 -179968 -99999.99 -99999.99 -99999.99 -99999.99
6/1/2022 6:15:00 PM -99999.99 -179968 -99999.99 -99999.99 -99999.99 -99999.99
6/1/2022 6:30:00 PM -99999.99 -179968 -99999.99 -99999.99 -99999.99 -99999.99
6/1/2022 6:45:00 PM -99999.99 -179968 -99999.99 -99999.99 -99999.99 -99999.99
6/1/2022 7:00:00 PM -99999.99 -179968 -99999.99 -99999.99 -99999.99 -99999.99
6/1/2022 7:15:00 PM -99999.99 -179968 -99999.99 -99999.99 -99999.99 -99999.99
6/1/2022 7:30:00 PM -99999.99 -179968 -99999.99 -99999.99 -99999.99 -99999.99
6/1/2022 7:45:00 PM -99999.99 -179968 -99999.99 -99999.99 -99999.99 -99999.99
6/1/2022 8:00:00 PM -99999.99 -179968 -99999.99 -99999.99 -99999.99 -99999.99
6/1/2022 8:15:00 PM -99999.99 -179968 -99999.99 -99999.99 -99999.99 -99999.99
6/1/2022 8:30:00 PM -99999.99 -179968 -99999.99 -99999.99 -99999.99 -99999.99
6/1/2022 8:45:00 PM -99999.99 -179968 -99999.99 -99999.99 -99999.99 -99999.99
6/1/2022 9:00:00 PM -99999.99 -179968 -99999.99 -99999.99 -99999.99 -99999.99
6/1/2022 9:15:00 PM -99999.99 -179968 -99999.99 -99999.99 -99999.99 -99999.99
6/1/2022 9:30:00 PM -99999.99 -179968 -99999.99 -99999.99 -99999.99 -99999.99
6/1/2022 9:45:00 PM -99999.99 -179968 -99999.99 -99999.99 -99999.99 -99999.99
6/1/2022 10:00:00 PM -99999.99 -179968 -99999.99 -99999.99 -99999.99 -99999.99
6/1/2022 10:15:00 PM -99999.99 -179968 -99999.99 -99999.99 -99999.99 -99999.99
6/1/2022 10:30:00 PM -99999.99 -179968 -99999.99 -99999.99 -99999.99 -99999.99
6/1/2022 10:45:00 PM -99999.99 -179968 -99999.99 -99999.99 -99999.99 -99999.99
6/1/2022 11:00:00 PM -99999.99 -179968 -99999.99 -99999.99 -99999.99 -99999.99
6/1/2022 11:15:00 PM -99999.99 -179968 -99999.99 -99999.99 -99999.99 -99999.99
6/1/2022 11:30:00 PM -99999.99 -179968 -99999.99 -99999.99 -99999.99 -99999.99
6/1/2022 11:45:00 PM -99999.99 -179968 -99999.99 -99999.99 -99999.99 -99999.99
6/2/2022 12:00:00 AM -99999.99 -179968 -99999.99 -99999.99 -99999.99 -99999.99
6/2/2022 12:15:00 AM -99999.99 -179968 -99999.99 -99999.99 -99999.99 -99999.99
6/2/2022 12:30:00 AM -99999.99 -179968 -99999.99 -99999.99 -99999.99 -99999.99
6/2/2022 12:45:00 AM -99999.99 -179968 -99999.99 -99999.99 -99999.99 -99999.99
6/2/2022 1:00:00 AM -99999.99 -179968 -99999.99 -99999.99 -99999.99 -99999.99
6/2/2022 1:15:00 AM -99999.99 -179968 -99999.99 -99999.99 -99999.99 -99999.99
6/2/2022 1:30:00 AM -99999.99 -179968 -99999.99 -99999.99 -99999.99 -99999.99
6/2/2022 1:45:00 AM -99999.99 -179968 -99999.99 -99999.99 -99999.99 -99999.99
6/2/2022 2:00:00 AM -99999.99 -179968 -99999.99 -99999.99 -99999.99 -99999.99
6/2/2022 2:15:00 AM -99999.99 -179968 -99999.99 -99999.99 -99999.99 -99999.99
6/2/2022 2:30:00 AM -99999.99 -179968 -99999.99 -99999.99 -99999.99 -99999.99
6/2/2022 2:45:00 AM -99999.99 -179968 -99999.99 -99999.99 -99999.99 -99999.99
6/2/2022 3:00:00 AM -99999.99 -179968 -99999.99 -99999.99 -99999.99 -99999.99
6/2/2022 3:15:00 AM -99999.99 -179968 -99999.99 -99999.99 -99999.99 -99999.99
6/2/2022 3:30:00 AM -99999.99 -179968 -99999.99 -99999.99 -99999.99 -99999.99
6/2/2022 3:45:00 AM -99999.99 -179968 -99999.99 -99999.99 -99999.99 -99999.99
6/2/2022 4:00:00 AM -99999.99 -179968 -99999.99 -99999.99 -99999.99 -99999.99
6/2/2022 4:15:00 AM -99999.99 -179968 -99999.99 -99999.99 -99999.99 -99999.99
6/2/2022 4:30:00 AM -99999.99 -179968 -99999.99 -99999.99 -99999.99 -99999.99
6/2/2022 4:45:00 AM -99999.99 -179968 -99999.99 -99999.99 -99999.99 -99999.99
6/2/2022 5:00:00 AM -99999.99 -179968 -99999.99 -99999.99 -99999.99 -99999.99
6/2/2022 5:15:00 AM -99999.99 -179968 -99999.99 -99999.99 -99999.99 -99999.99
6/2/2022 5:30:00 AM -99999.99 -179968 -99999.99 -99999.99 -99999.99 -99999.99
6/2/2022 5:45:00 AM -99999.99 -179968 -99999.99 -99999.99 -99999.99 -99999.99
6/2/2022 6:00:00 AM -99999.99 -179968 -99999.99 -99999.99 -99999.99 -99999.99
6/2/2022 6:15:00 AM -99999.99 -179968 -99999.99 -99999.99 -99999.99 -99999.99
6/2/2022 6:30:00 AM -99999.99 -179968 -99999.99 -99999.99 -99999.99 -99999.99
6/2/2022 6:45:00 AM -99999.99 -179968 -99999.99 -99999.99 -99999.99 -99999.99
6/2/2022 7:00:00 AM -99999.99 -179968 -99999.99 -99999.99 -99999.99 -99999.99
6/2/2022 7:15:00 AM -99999.99 -179968 -99999.99 -99999.99 -99999.99 -99999.99
6/2/2022 7:30:00 AM -99999.99 -179968 -99999.99 -99999.99 -99999.99 -99999.99
6/2/2022 7:45:00 AM -99999.99 -179968 -99999.99 -99999.99 -99999.99 -99999.99
6/2/2022 8:00:00 AM -99999.99 -179968 -99999.99 -99999.99 -99999.99 -99999.99
6/2/2022 8:15:00 AM -99999.99 -179968 -99999.99 -99999.99 -99999.99 -99999.99
6/2/2022 8:30:00 AM -99999.99 -179968 -99999.99 -99999.99 -99999.99 -99999.99
6/2/2022 8:45:00 AM -99999.99 -179968 -99999.99 -99999.99 -99999.99 -99999.99
6/2/2022 9:00:00 AM -99999.99 -179968 -99999.99 -99999.99 -99999.99 -99999.99
6/2/2022 9:15:00 AM -99999.99 -179968 -99999.99 -99999.99 -99999.99 -99999.99
6/2/2022 9:30:00 AM -99999.99 -179968 -99999.99 -99999.99 -99999.99 -99999.99
6/2/2022 9:45:00 AM -99999.99 -179968 -99999.99 -99999.99 -99999.99 -99999.99
6/2/2022 10:00:00 AM -99999.99 -179968 -99999.99 -99999.99 -99999.99 -99999.99
6/2/2022 10:15:00 AM -99999.99 -179968 -99999.99 -99999.99 -99999.99 -99999.99
6/2/2022 10:30:00 AM -99999.99 -179968 -99999.99 -99999.99 -99999.99 -99999.99
6/2/2022 10:45:00 AM -99999.99 -179968 -99999.99 -99999.99 -99999.99 -99999.99
6/2/2022 11:00:00 AM -99999.99 -179968 -99999.99 -99999.99 -99999.99 -99999.99
6/2/2022 11:15:00 AM -99999.99 -179968 -99999.99 -99999.99 -99999.99 -99999.99
6/2/2022 11:30:00 AM -99999.99 -179968 -99999.99 -99999.99 -99999.99 -99999.99
6/2/2022 11:45:00 AM -99999.99 -179968 -99999.99 -99999.99 -99999.99 -99999.99
6/2/2022 12:00:00 PM -99999.99 -179968 -99999.99 -99999.99 -99999.99 -99999.99
6/2/2022 12:15:00 PM -99999.99 -179968 -99999.99 -99999.99 -99999.99 -99999.99
6/2/2022 12:30:00 PM -99999.99 -179968 -99999.99 -99999.99 -99999.99 -99999.99
6/2/2022 12:45:00 PM -99999.99 -179968 -99999.99 -99999.99 -99999.99 -99999.99
6/2/2022 1:00:00 PM -99999.99 -179968 -99999.99 -99999.99 -99999.99 -99999.99
6/2/2022 1:15:00 PM -99999.99 -179968 -99999.99 -99999.99 -99999.99 -99999.99
6/2/2022 1:30:00 PM -99999.99 -179968 -99999.99 -99999.99 -99999.99 -99999.99
6/2/2022 1:45:00 PM -99999.99 -179968 -99999.99 -99999.99 -99999.99 -99999.99
6/2/2022 2:00:00 PM -99999.99 -179968 -99999.99 -99999.99 -99999.99 -99999.99
6/2/2022 2:15:00 PM -99999.99 -179968 -99999.99 -99999.99 -99999.99 -99999.99
6/2/2022 2:30:00 PM -99999.99 -179968 -99999.99 -99999.99 -99999.99 -99999.99
6/2/2022 2:45:00 PM -99999.99 -179968 -99999.99 -99999.99 -99999.99 -99999.99
6/2/2022 3:00:00 PM -99999.99 -179968 -99999.99 -99999.99 -99999.99 -99999.99
6/2/2022 3:15:00 PM -99999.99 -179968 -99999.99 -99999.99 -99999.99 -99999.99
6/2/2022 3:30:00 PM -99999.99 -179968 -99999.99 -99999.99 -99999.99 -99999.99
6/2/2022 3:45:00 PM -99999.99 -179968 -99999.99 -99999.99 -99999.99 -99999.99
6/2/2022 4:00:00 PM -99999.99 -179968 -99999.99 -99999.99 -99999.99 -99999.99
6/2/2022 4:15:00 PM -99999.99 -179968 -99999.99 -99999.99 -99999.99 -99999.99
6/2/2022 4:30:00 PM -99999.99 -179968 -99999.99 -99999.99 -99999.99 -99999.99
6/2/2022 4:45:00 PM -99999.99 -179968 -99999.99 -99999.99 -99999.99 -99999.99
6/2/2022 5:00:00 PM -99999.99 -179968 -99999.99 -99999.99 -99999.99 -99999.99
6/2/2022 5:15:00 PM -99999.99 -179968 -99999.99 -99999.99 -99999.99 -99999.99
6/2/2022 5:30:00 PM -99999.99 -179968 -99999.99 -99999.99 -99999.99 -99999.99
6/2/2022 5:45:00 PM -99999.99 -179968 -99999.99 -99999.99 -99999.99 -99999.99
6/2/2022 6:00:00 PM -99999.99 -179968 -99999.99 -99999.99 -99999.99 -99999.99
6/2/2022 6:15:00 PM -99999.99 -179968 -99999.99 -99999.99 -99999.99 -99999.99
6/2/2022 6:30:00 PM -99999.99 -179968 -99999.99 -99999.99 -99999.99 -99999.99
6/2/2022 6:45:00 PM -99999.99 -179968 -99999.99 -99999.99 -99999.99 -99999.99
6/2/2022 7:00:00 PM -99999.99 -179968 -99999.99 -99999.99 -99999.99 -99999.99
6/2/2022 7:15:00 PM -99999.99 -179968 -99999.99 -99999.99 -99999.99 -99999.99
6/2/2022 7:30:00 PM -99999.99 -179968 -99999.99 -99999.99 -99999.99 -99999.99
6/2/2022 7:45:00 PM -99999.99 -179968 -99999.99 -99999.99 -99999.99 -99999.99
6/2/2022 8:00:00 PM -99999.99 -179968 -99999.99 -99999.99 -99999.99 -99999.99
6/2/2022 8:15:00 PM -99999.99 -179968 -99999.99 -99999.99 -99999.99 -99999.99
6/2/2022 8:30:00 PM -99999.99 -179968 -99999.99 -99999.99 -99999.99 -99999.99
6/2/2022 8:45:00 PM -99999.99 -179968 -99999.99 -99999.99 -99999.99 -99999.99
6/2/2022 9:00:00 PM -99999.99 -179968 -99999.99 -99999.99 -99999.99 -99999.99
6/2/2022 9:15:00 PM -99999.99 -179968 -99999.99 -99999.99 -99999.99 -99999.99
6/2/2022 9:30:00 PM -99999.99 -179968 -99999.99 -99999.99 -99999.99 -99999.99
6/2/2022 9:45:00 PM -99999.99 -179968 -99999.99 -99999.99 -99999.99 -99999.99
6/2/2022 10:00:00 PM -99999.99 -179968 -99999.99 -99999.99 -99999.99 -99999.99
6/2/2022 10:15:00 PM -99999.99 -179968 -99999.99 -99999.99 -99999.99 -99999.99
6/2/2022 10:30:00 PM -99999.99 -179968 -99999.99 -99999.99 -99999.99 -99999.99
6/2/2022 10:45:00 PM -99999.99 -179968 -99999.99 -99999.99 -99999.99 -99999.99
6/2/2022 11:00:00 PM -99999.99 -179968 -99999.99 -99999.99 -99999.99 -99999.99
6/2/2022 11:15:00 PM -99999.99 -179968 -99999.99 -99999.99 -99999.99 -99999.99
6/2/2022 11:30:00 PM -99999.99 -179968 -99999.99 -99999.99 -99999.99 -99999.99
6/2/2022 11:45:00 PM -99999.99 -179968 -99999.99 -99999.99 -99999.99 -99999.99
6/3/2022 12:00:00 AM -99999.99 -179968 -99999.99 -99999.99 -99999.99 -99999.99
6/3/2022 12:15:00 AM -99999.99 -179968 -99999.99 -99999.99 -99999.99 -99999.99
6/3/2022 12:30:00 AM -99999.99 -179968 -99999.99 -99999.99 -99999.99 -99999.99
6/3/2022 12:45:00 AM -99999.99 -179968 -99999.99 -99999.99 -99999.99 -99999.99
6/3/2022 1:00:00 AM -99999.99 -179968 -99999.99 -99999.99 -99999.99 -99999.99
6/3/2022 1:15:00 AM -99999.99 -179968 -99999.99 -99999.99 -99999.99 -99999.99
6/3/2022 1:30:00 AM -99999.99 -179968 -99999.99 -99999.99 -99999.99 -99999.99
6/3/2022 1:45:00 AM -99999.99 -179968 -99999.99 -99999.99 -99999.99 -99999.99
6/3/2022 2:00:00 AM -99999.99 -179968 -99999.99 -99999.99 -99999.99 -99999.99
6/3/2022 2:15:00 AM -99999.99 -179968 -99999.99 -99999.99 -99999.99 -99999.99
6/3/2022 2:30:00 AM -99999.99 -179968 -99999.99 -99999.99 -99999.99 -99999.99
6/3/2022 2:45:00 AM -99999.99 -179968 -99999.99 -99999.99 -99999.99 -99999.99
6/3/2022 3:00:00 AM -99999.99 -179968 -99999.99 -99999.99 -99999.99 -99999.99
6/3/2022 3:15:00 AM -99999.99 -179968 -99999.99 -99999.99 -99999.99 -99999.99
6/3/2022 3:30:00 AM -99999.99 -179968 -99999.99 -99999.99 -99999.99 -99999.99
6/3/2022 3:45:00 AM -99999.99 -179968 -99999.99 -99999.99 -99999.99 -99999.99
6/3/2022 4:00:00 AM -99999.99 -179968 -99999.99 -99999.99 -99999.99 -99999.99
6/3/2022 4:15:00 AM -99999.99 -179968 -99999.99 -99999.99 -99999.99 -99999.99
6/3/2022 4:30:00 AM -99999.99 -179968 -99999.99 -99999.99 -99999.99 -99999.99
6/3/2022 4:45:00 AM -99999.99 -179968 -99999.99 -99999.99 -99999.99 -99999.99
6/3/2022 5:00:00 AM -99999.99 -179968 -99999.99 -99999.99 -99999.99 -99999.99
6/3/2022 5:15:00 AM -99999.99 -179968 -99999.99 -99999.99 -99999.99 -99999.99
6/3/2022 5:30:00 AM -99999.99 -179968 -99999.99 -99999.99 -99999.99 -99999.99
6/3/2022 5:45:00 AM -99999.99 -179968 -99999.99 -99999.99 -99999.99 -99999.99
6/3/2022 6:00:00 AM -99999.99 -179968 -99999.99 -99999.99 -99999.99 -99999.99
6/3/2022 6:15:00 AM -99999.99 -179968 -99999.99 -99999.99 -99999.99 -99999.99
6/3/2022 6:30:00 AM -99999.99 -179968 -99999.99 -99999.99 -99999.99 -99999.99
6/3/2022 6:45:00 AM -99999.99 -179968 -99999.99 -99999.99 -99999.99 -99999.99
6/3/2022 7:00:00 AM -99999.99 -179968 -99999.99 -99999.99 -99999.99 -99999.99
6/3/2022 7:15:00 AM -99999.99 -179968 -99999.99 -99999.99 -99999.99 -99999.99
6/3/2022 7:30:00 AM -99999.99 -179968 -99999.99 -99999.99 -99999.99 -99999.99
6/3/2022 7:45:00 AM -99999.99 -179968 -99999.99 -99999.99 -99999.99 -99999.99
6/3/2022 8:00:00 AM 16.8 62.24 0.097 13.15 2.98 9.36
6/3/2022 8:15:00 AM 16.83 62.294 0.097 12.95 3.13 9.35
6/3/2022 8:30:00 AM 16.88 62.384 0.097 12.59 3.15 9.35
6/3/2022 8:45:00 AM 16.97 62.546 0.097 11.51 2.95 9.35
6/3/2022 9:00:00 AM 17.05 62.69 0.097 11.7 3.06 9.33
6/3/2022 9:15:00 AM 17.17 62.906 0.097 12.15 3.45 9.3
6/3/2022 9:30:00 AM 17.31 63.158 0.097 11.86 3.16 9.25
6/3/2022 9:45:00 AM 17.43 63.374 0.097 11.81 3.24 9.26
6/3/2022 10:00:00 AM 17.59 63.662 0.097 11.59 3.16 9.28
6/3/2022 10:15:00 AM 17.75 63.95 0.097 12.31 3.09 9.23
6/3/2022 10:30:00 AM 17.94 64.292 0.097 12.77 3.38 9.2
6/3/2022 10:45:00 AM 18.12 64.616 0.097 12.8 2.99 9.12
6/3/2022 11:00:00 AM 18.36 65.048 0.097 12.6 3.1 9.13
6/3/2022 11:15:00 AM 18.6 65.48 0.097 12.38 3.27 9.11
6/3/2022 11:30:00 AM 18.84 65.912 0.097 12.23 2.99 9.04
6/3/2022 11:45:00 AM 19.12 66.416 0.098 11.91 3.32 9.02
6/3/2022 12:00:00 PM 19.32 66.776 0.097 12.12 3.33 8.97
6/3/2022 12:15:00 PM 19.54 67.172 0.097 12.31 3.28 8.9
6/3/2022 12:30:00 PM 19.64 67.352 0.097 12.62 2.97 8.86
6/3/2022 12:45:00 PM 19.76 67.568 0.097 12.83 3.04 8.81
6/3/2022 1:00:00 PM 20 68 0.097 12.55 3.18 8.8
6/3/2022 1:15:00 PM 19.98 67.964 0.097 12.56 3.27 8.78
6/3/2022 1:30:00 PM 20.29 68.522 0.097 12.72 3.18 8.75
6/3/2022 1:45:00 PM 20.36 68.648 0.097 12.43 3.08 8.65
6/3/2022 2:00:00 PM 20.71 69.278 0.097 12.59 3.3 8.67
6/3/2022 2:15:00 PM 20.85 69.53 0.097 13.39 3.34 8.57
6/3/2022 2:30:00 PM 21.01 69.818 0.097 13.36 3.42 8.58
6/3/2022 2:45:00 PM 20.98 69.764 0.097 13.29 3.47 8.62
6/3/2022 3:00:00 PM 21.13 70.034 0.097 13.33 3.37 8.53
6/3/2022 3:15:00 PM 21.57 70.826 0.097 13.42 3.31 8.52
6/3/2022 3:30:00 PM 21.86 71.348 0.097 12.85 3.28 8.46
6/3/2022 3:45:00 PM 22.08 71.744 0.097 13.68 3.45 8.43
6/3/2022 4:00:00 PM 22.27 72.086 0.097 13.89 3.63 8.32
6/3/2022 4:15:00 PM 22.39 72.302 0.097 13.67 3.74 8.38
6/3/2022 4:30:00 PM 22.41 72.338 0.098 14.08 3.85 8.35
6/3/2022 4:45:00 PM 22.43 72.374 0.097 13.88 3.92 8.36
6/3/2022 5:00:00 PM 22.44 72.392 0.097 13.71 3.76 8.22
6/3/2022 5:15:00 PM 22.45 72.41 0.098 13.53 4.07 8.32
6/3/2022 5:30:00 PM 22.46 72.42799 0.098 13.4 3.96 8.34
6/3/2022 5:45:00 PM 22.45 72.41 0.098 13.41 4.02 8.34
6/3/2022 6:00:00 PM 22.4 72.32 0.098 13.73 4.7 8.15
6/3/2022 6:15:00 PM 22.32 72.176 0.098 13.4 4.24 8.34
6/3/2022 6:30:00 PM 22.2 71.96 0.099 13.56 4.33 8.36
6/3/2022 6:45:00 PM 22.11 71.798 0.099 13.6 4.28 8.39
6/3/2022 7:00:00 PM 22.02 71.636 0.099 13.42 5.45 8.4
6/3/2022 7:15:00 PM 21.93 71.474 0.099 13.42 4.62 8.41
6/3/2022 7:30:00 PM 21.8 71.24 0.099 13.37 4.56 8.43
6/3/2022 7:45:00 PM 21.63 70.934 0.099 13.26 4.5 8.45
6/3/2022 8:00:00 PM 21.47 70.646 0.099 14.83 4.68 8.47
6/3/2022 8:15:00 PM 21.32 70.376 0.099 14.55 4.77 8.48
6/3/2022 8:30:00 PM 21.15 70.07 0.1 14.27 4.78 8.51
6/3/2022 8:45:00 PM 20.98 69.764 0.1 14.15 4.79 8.55
6/3/2022 9:00:00 PM 20.8 69.44 0.1 13.8 5.03 8.58
6/3/2022 9:15:00 PM 20.61 69.098 0.1 13.56 5.09 8.61
6/3/2022 9:30:00 PM 20.42 68.756 0.1 12.98 5.44 8.63
6/3/2022 9:45:00 PM 20.23 68.414 0.1 12.92 5.55 8.65
6/3/2022 10:00:00 PM 20.04 68.07201 0.101 12.71 5.78 8.69
6/3/2022 10:15:00 PM 19.85 67.73 0.101 12.48 5.69 8.67
6/3/2022 10:30:00 PM 19.66 67.388 0.101 12.13 6.18 8.71
6/3/2022 10:45:00 PM 19.48 67.064 0.101 12.12 6.28 8.72
6/3/2022 11:00:00 PM 19.31 66.758 0.101 12.35 6.51 8.76
6/3/2022 11:15:00 PM 19.14 66.452 0.101 11.87 6.56 8.83
6/3/2022 11:30:00 PM 18.98 66.164 0.101 11.64 6.76 8.81
6/3/2022 11:45:00 PM 18.82 65.876 0.102 11.57 6.89 8.84
6/4/2022 12:00:00 AM 18.67 65.606 0.102 11.46 6.86 8.83
6/4/2022 12:15:00 AM 18.54 65.372 0.102 11.41 6.79 8.89
6/4/2022 12:30:00 AM 18.39 65.102 0.102 11.39 6.63 8.84
6/4/2022 12:45:00 AM 18.26 64.868 0.102 11.28 6.72 8.94
6/4/2022 1:00:00 AM 18.12 64.616 0.102 11.25 6.74 8.95
6/4/2022 1:15:00 AM 18 64.4 0.102 11.19 6.94 8.98
6/4/2022 1:30:00 AM 17.88 64.184 0.102 11.12 6.9 9.01
6/4/2022 1:45:00 AM 17.77 63.986 0.103 11.07 7.14 9.05
6/4/2022 2:00:00 AM 17.64 63.752 0.102 11.12 7.11 9.01
6/4/2022 2:15:00 AM 17.52 63.536 0.102 11.1 6.87 9.03
6/4/2022 2:30:00 AM 17.4 63.32 0.102 11.15 6.86 9.08
6/4/2022 2:45:00 AM 17.27 63.086 0.103 11.28 6.92 9.05
6/4/2022 3:00:00 AM 17.15 62.87 0.103 11.15 6.87 9.15
6/4/2022 3:15:00 AM 17.03 62.654 0.103 11.04 6.97 9.21
6/4/2022 3:30:00 AM 16.91 62.438 0.104 10.99 6.94 9.16
6/4/2022 3:45:00 AM 16.79 62.222 0.104 10.94 6.69 9.19
6/4/2022 4:00:00 AM 16.67 62.006 0.104 10.92 5.86 9.22
6/4/2022 4:15:00 AM 16.55 61.79 0.104 10.94 6.28 9.26
6/4/2022 4:30:00 AM 16.46 61.628 0.104 10.97 5.92 9.29
6/4/2022 4:45:00 AM 16.35 61.43 0.104 10.94 6.26 9.27
6/4/2022 5:00:00 AM 16.25 61.25 0.105 10.95 6.12 9.33
6/4/2022 5:15:00 AM 16.13 61.034 0.105 10.9 6.38 9.33
6/4/2022 5:30:00 AM 16.05 60.89 0.105 10.93 6.35 9.39
6/4/2022 5:45:00 AM 15.95 60.71 0.105 10.92 6.28 9.4
6/4/2022 6:00:00 AM 15.89 60.602 0.104 10.94 6.43 9.42
6/4/2022 6:15:00 AM 15.79 60.422 0.105 10.99 6.5 9.4
6/4/2022 6:30:00 AM 15.73 60.314 0.105 11.01 17.85 9.48
6/4/2022 6:45:00 AM 15.67 60.206 0.105 10.9 6.3 9.5
6/4/2022 7:00:00 AM 15.6 60.08 0.104 10.95 6.58 9.5
6/4/2022 7:15:00 AM 15.48 59.864 0.105 11.03 10.22 9.53
6/4/2022 7:30:00 AM 15.46 59.828 0.105 10.94 28.01 9.55
6/4/2022 7:45:00 AM 15.45 59.81 0.105 10.93 7.9 9.56
6/4/2022 8:00:00 AM 15.42 59.756 0.104 11.04 11.57 9.52
6/4/2022 8:15:00 AM 15.55 59.99 0.104 11.02 7.45 9.53
6/4/2022 8:30:00 AM 15.59 60.062 0.103 10.98 9.91 9.53
6/4/2022 8:45:00 AM 15.92 60.656 0.103 10.9 10.7 9.49
6/4/2022 9:00:00 AM 15.86 60.548 0.099 10.89 35.15 9.48
6/4/2022 9:15:00 AM 16.06 60.908 0.1 10.81 39.23 9.47
6/4/2022 9:30:00 AM 16.26 61.268 0.1 10.74 40.91 9.51
6/4/2022 9:45:00 AM 16.41 61.538 0.101 10.82 20.8 9.48
6/4/2022 10:00:00 AM 16.54 61.772 0.097 10.86 229.21 9.52
6/4/2022 10:15:00 AM 16.77 62.186 0.094 10.85 126.06 9.63
6/4/2022 10:30:00 AM 16.91 62.438 0.087 10.96 97.73 9.5
6/4/2022 10:45:00 AM 17.06 62.708 0.081 10.93 6591.3 9.42
6/4/2022 11:00:00 AM 17.29 63.122 0.069 10.77 485.49 9.43
6/4/2022 11:15:00 AM 17.52 63.536 0.081 10.8 431.88 9.36
6/4/2022 11:30:00 AM 17.74 63.932 0.066 10.93 2704.63 9.23
6/4/2022 11:45:00 AM 17.91 64.238 0.078 10.73 1057.82 9.11
6/4/2022 12:00:00 PM 18.27 64.886 0.067 10.65 1036.65 9.18
6/4/2022 12:15:00 PM 18.54 65.372 0.066 10.5 2113.56 9.11
6/4/2022 12:30:00 PM 18.43 65.174 0.019 10.52 1996.7 9.08
6/4/2022 12:45:00 PM 18.94 66.092 0.043 10.59 4439.66 8.95
6/4/2022 1:00:00 PM 19.3 66.74 0.031 10.46 6325.72 8.82
6/4/2022 1:15:00 PM 19.46 67.028 0.036 10.51 6247.75 8.84
6/4/2022 1:30:00 PM 19.66 67.388 0.022 10.52 9983.45 8.78
6/4/2022 1:45:00 PM 19.54 67.172 0.02 10.55 4427.54 8.8
6/4/2022 2:00:00 PM 20.06 68.108 0.018 10.43 10204.66 8.63
6/4/2022 2:15:00 PM 20.28 68.504 0.008 10.36 6718.61 8.67
6/4/2022 2:30:00 PM 20.38 68.684 0.009 10.54 9091.86 8.53
6/4/2022 2:45:00 PM 20.79 69.422 0.006 10.26 4525.76 8.56
6/4/2022 3:00:00 PM 20.61 69.098 0.007 10.48 938.6 8.57
6/4/2022 3:15:00 PM 20.9 69.62 0.008 10.43 63.44 8.53
6/4/2022 3:30:00 PM 21.3 70.34 0.012 10.3 14.29 8.48
6/4/2022 3:45:00 PM 21.21 70.17799 0.005 10.46 20.58 8.5
6/4/2022 4:00:00 PM 20.95 69.71 0.018 10.27 13.02 8.49
6/4/2022 4:15:00 PM 20.79 69.422 0.02 10.37 12.37 8.49
6/4/2022 4:30:00 PM 21.02 69.836 0.001 10.42 5.38 8.52
6/4/2022 4:45:00 PM 21.43 70.574 0.002 10.37 4.8 8.38
6/4/2022 5:00:00 PM 21.16 70.088 0 10.39 5.34 8.47
6/4/2022 5:15:00 PM 20.67 69.206 0 10.18 4.81 8.54
6/4/2022 5:30:00 PM 21.11 69.998 0 10.14 4.29 8.5
6/4/2022 5:45:00 PM 20.6 69.08 0 10.61 4.45 8.61
6/4/2022 6:00:00 PM 20.9 69.62 0 10.51 4.72 8.57
6/4/2022 6:15:00 PM 20.88 69.584 0 10.49 4.45 8.53
6/4/2022 6:30:00 PM 20.82 69.476 0 10.5 5.41 8.53
6/4/2022 6:45:00 PM 20.52 68.936 0 10.63 4.21 8.64
6/4/2022 7:00:00 PM 20.32 68.576 0 10.63 24.06 8.67
6/4/2022 7:15:00 PM 19.75 67.55 0 10.67 4.02 8.76
6/4/2022 7:30:00 PM 19.74 67.532 0 10.76 3.69 8.73
6/4/2022 7:45:00 PM 19.61 67.298 0 10.8 3.89 8.75
6/4/2022 8:00:00 PM 19.34 66.812 0 10.8 3.94 8.78
6/4/2022 8:15:00 PM 18.89 66.002 0 10.76 4.21 8.86
6/4/2022 8:30:00 PM 18.84 65.912 0 10.9 3.67 8.89
6/4/2022 8:45:00 PM 18.82 65.876 0 10.98 3.72 8.86
6/4/2022 9:00:00 PM 18.31 64.958 0 10.95 3.65 9
6/4/2022 9:15:00 PM 18.12 64.616 0 10.82 74.69 8.89
6/4/2022 9:30:00 PM 17.91 64.238 0 10.93 3.84 9.04
6/4/2022 9:45:00 PM 17.06 62.708 0 11.14 3.89 9.25
6/4/2022 10:00:00 PM 17.5 63.5 0 11.14 3.69 9.12
6/4/2022 10:15:00 PM 17.19 62.942 0 11.09 3.63 9.17
6/4/2022 10:30:00 PM 17 62.6 0 11.22 3.79 9.22
6/4/2022 10:45:00 PM 16.91 62.438 0 11.36 3.7 9.23
6/4/2022 11:00:00 PM 16.61 61.898 0 11.51 3.82 9.31
6/4/2022 11:15:00 PM 16.61 61.898 0 11.48 3.47 9.3
6/4/2022 11:30:00 PM 16.61 61.898 0 11.47 3.32 9.28
6/4/2022 11:45:00 PM 15.8 60.44 0 11.72 3.34 9.5
6/5/2022 12:00:00 AM 15.98 60.764 0 11.8 3.82 9.43
6/5/2022 12:15:00 AM 15.66 60.188 0 11.81 5.5 9.5
6/5/2022 12:30:00 AM 15.61 60.098 0 11.69 5 9.49
6/5/2022 12:45:00 AM 14.73 58.514 0 11.94 9.21 9.67
6/5/2022 1:00:00 AM 14.1 57.38 0 12.08 7.11 9.85
6/5/2022 1:15:00 AM 14.83 58.694 0 11.94 9.06 9.67
6/5/2022 1:30:00 AM 14.72 58.496 0 11.83 7.85 9.67
6/5/2022 1:45:00 AM 13.8 56.84 0 11.89 8.56 9.93
6/5/2022 2:00:00 AM 13.78 56.804 0 12.03 7.19 9.89
6/5/2022 2:15:00 AM 13.73 56.714 0 12.03 8.15 9.9
6/5/2022 2:30:00 AM 12.83 55.094 0 12.06 9.3 10.15
6/5/2022 2:45:00 AM 13 55.4 0 12.07 5.44 10.06
6/5/2022 3:00:00 AM 13.51 56.318 0 12 5.6 9.95
6/5/2022 3:15:00 AM 13.57 56.426 0 11.91 6.8 9.92
6/5/2022 3:30:00 AM 13.17 55.706 0 12.12 7.74 10.04
6/5/2022 3:45:00 AM 12.84 55.112 0 12.34 6.02 10.13
6/5/2022 4:00:00 AM 12.96 55.328 0 12.16 4.71 10.1
6/5/2022 4:15:00 AM 12.8 55.04 0 12.07 5.75 10.14
6/5/2022 4:30:00 AM 12.65 54.77 0 12.07 6.75 10.17
6/5/2022 4:45:00 AM 12.18 53.924 0 12.15 8.81 10.26
6/5/2022 5:00:00 AM 12.33 54.194 0 12.17 9.22 10.3
6/5/2022 5:15:00 AM 11.52 52.736 0 12.27 9.35 10.44
6/5/2022 5:30:00 AM 11.49 52.682 0 12.35 9.54 10.5
6/5/2022 5:45:00 AM 12.32 54.176 0 12.16 9.06 10.23
6/5/2022 6:00:00 AM 11.48 52.664 0 12.17 9.45 10.49
6/5/2022 6:15:00 AM 11.58 52.844 0 12.45 8.79 10.42
6/5/2022 6:30:00 AM 11.36 52.448 0 12.21 9.66 10.53
6/5/2022 6:45:00 AM 11.24 52.232 0 12.25 9.13 10.59
6/5/2022 7:00:00 AM 11.77 53.186 0 12.21 8.7 10.42
6/5/2022 7:15:00 AM 11.92 53.456 0 12.1 5.33 10.39
6/5/2022 7:30:00 AM 11.96 53.528 0 12.09 7.14 10.36
6/5/2022 7:45:00 AM 11.84 53.312 0 12.12 7.98 10.37
6/5/2022 8:00:00 AM 11.84 53.312 0 12.12 8.53 10.42
6/5/2022 8:15:00 AM 12.33 54.194 0 12.15 8.34 10.27
6/5/2022 8:30:00 AM 12.77 54.986 0 12.25 8.76 10.24
6/5/2022 8:45:00 AM 14.51 58.118 0 12.14 8.43 9.65
6/5/2022 9:00:00 AM 14.05 57.29 0 12.14 8.39 9.91
6/5/2022 9:15:00 AM 14.24 57.632 0 12.07 7.67 9.95
6/5/2022 9:30:00 AM 14.1 57.38 0 12.35 7.83 9.98
6/5/2022 9:45:00 AM 14.28 57.704 0 12.27 7.98 9.96
6/5/2022 10:00:00 AM 14.12 57.416 0 12.18 8.14 10.01
6/5/2022 10:15:00 AM 14.83 58.694 0 12.45 7.95 9.86
6/5/2022 10:30:00 AM 15.02 59.036 0 12.81 8.15 9.86
6/5/2022 10:45:00 AM 15.31 59.558 0 12.83 8.01 9.78
6/5/2022 11:00:00 AM 14.85 58.73 0 13.18 7.97 9.82
6/5/2022 11:15:00 AM 15.6 60.08 0 12.87 7.93 9.74
6/5/2022 11:30:00 AM 15.76 60.368 0 12.45 8.07 9.61
6/5/2022 11:45:00 AM 16.45 61.61 0 12.71 8.35 9.61
6/5/2022 12:00:00 PM 16.84 62.312 0 12.59 8.62 9.55
6/5/2022 12:15:00 PM 16.57 61.826 0 13 8.11 9.55
6/5/2022 12:30:00 PM 16.3 61.34 0 13.57 8.01 9.55
6/5/2022 12:45:00 PM 16.88 62.384 0 13.03 8.28 9.45
6/5/2022 1:00:00 PM 17.45 63.41 0 12.46 7.46 9.33
6/5/2022 1:15:00 PM 17.21 62.978 0 12.73 8.39 9.42
6/5/2022 1:30:00 PM 17.87 64.166 0 12.57 8.61 9.23
6/5/2022 1:45:00 PM 18.26 64.868 0 12.78 8.19 9.12
6/5/2022 2:00:00 PM 17.86 64.148 0 12.86 8.69 9.25
6/5/2022 2:15:00 PM 17.81 64.058 0 13.1 8.22 9.24
6/5/2022 2:30:00 PM 18.64 65.552 0 12.18 7.81 9.04
6/5/2022 2:45:00 PM 18.38 65.084 0 12.3 8.01 9.08
6/5/2022 3:00:00 PM 18.49 65.282 0 12.24 7.58 9.02
6/5/2022 3:15:00 PM 18.6 65.48 0 12.32 7.09 8.95
6/5/2022 3:30:00 PM 18.49 65.282 0 12.39 3.89 8.97
6/5/2022 3:45:00 PM 19.48 67.064 0 12.03 3.58 8.8
6/5/2022 4:00:00 PM 19.96 67.92799 0 11.9 3.76 8.74
6/5/2022 4:15:00 PM 20.03 68.054 0 11.91 3.8 8.77
6/5/2022 4:30:00 PM 19.78 67.604 0 12.07 3.96 8.8
6/5/2022 4:45:00 PM 20.02 68.036 0 11.91 3.58 8.75
6/5/2022 5:00:00 PM 19.31 66.758 0 12.25 3.64 8.92
6/5/2022 5:15:00 PM 19.99 67.982 0 11.99 4.42 8.78
6/5/2022 5:30:00 PM 20.04 68.07201 0 11.97 4.45 8.76
6/5/2022 5:45:00 PM 18.87 65.966 0 12.2 4.45 8.89
6/5/2022 6:00:00 PM 19.75 67.55 0 12.1 3.5 8.8
6/5/2022 6:15:00 PM 19.95 67.91 0 11.95 3.49 8.74
6/5/2022 6:30:00 PM 19.72 67.496 0 12.01 3.49 8.81
6/5/2022 6:45:00 PM 19.76 67.568 0 12 3.42 8.79
6/5/2022 7:00:00 PM 19.98 67.964 0 11.97 3.29 8.73
6/5/2022 7:15:00 PM 19.94 67.892 0 12 3.22 8.73
6/5/2022 7:30:00 PM 19.62 67.316 0 12.13 3.81 8.75
6/5/2022 7:45:00 PM 19.44 66.992 0 12.18 5.35 8.84
6/5/2022 8:00:00 PM 19.16 66.488 0 12.25 4.01 8.87
6/5/2022 8:15:00 PM 18.98 66.164 0 12.36 3.8 8.91
6/5/2022 8:30:00 PM 18.72 65.696 0 12.42 3.73 8.96
6/5/2022 8:45:00 PM 18.42 65.156 0 12.53 7.04 9
6/5/2022 9:00:00 PM 18.3 64.94 0 12.46 6.32 9.02
6/5/2022 9:15:00 PM 17.61 63.698 0 12.69 6.24 9.19
6/5/2022 9:30:00 PM 17.59 63.662 0 12.61 7.17 9.16
6/5/2022 9:45:00 PM 17.23 63.014 0 12.45 6.17 9.24
6/5/2022 10:00:00 PM 17.29 63.122 0 12.53 5.99 9.22
6/5/2022 10:15:00 PM 16.74 62.132 0 12.48 3.27 9.35
6/5/2022 10:30:00 PM 16.53 61.754 0 12.54 6.33 9.37
6/5/2022 10:45:00 PM 16.25 61.25 0 12.49 4.76 9.41
6/5/2022 11:00:00 PM 15.72 60.296 0 12.48 4.7 9.57
6/5/2022 11:15:00 PM 15.67 60.206 0 12.45 4.31 9.53
6/5/2022 11:30:00 PM 15.43 59.774 0 12.47 4.76 9.58
6/5/2022 11:45:00 PM 15.28 59.504 0 12.48 4.27 9.61
6/6/2022 12:00:00 AM 15.11 59.198 0 12.5 4.55 9.66
6/6/2022 12:15:00 AM 14.48 58.064 0 12.66 5.33 9.82
6/6/2022 12:30:00 AM 15.02 59.036 0 12.46 4.17 9.65
6/6/2022 12:45:00 AM 14.89 58.802 0 12.49 4.26 9.67
6/6/2022 1:00:00 AM 14.19 57.542 0 12.68 4.83 9.81
6/6/2022 1:15:00 AM 14.4 57.92 0 12.7 4.62 9.8
6/6/2022 1:30:00 AM 14.35 57.83 0 12.47 4.43 9.8
6/6/2022 1:45:00 AM 13.61 56.498 0 12.49 4.59 9.95
6/6/2022 2:00:00 AM 13.51 56.318 0 12.64 4.85 10.03
6/6/2022 2:15:00 AM 13.96 57.128 0 12.32 3.24 9.87
6/6/2022 2:30:00 AM 13.41 56.138 0 12.46 3.53 9.99
6/6/2022 2:45:00 AM 13.22 55.796 0 12.55 4.41 10.05
6/6/2022 3:00:00 AM 13 55.4 0 12.58 4.55 10.11
6/6/2022 3:15:00 AM 13.52 56.336 0 12.4 4.53 9.97
6/6/2022 3:30:00 AM 13.54 56.372 0 12.42 4.89 9.94
6/6/2022 3:45:00 AM 13.39 56.102 0 12.54 5.5 9.95
6/6/2022 4:00:00 AM 12.84 55.112 0 12.88 6.07 10.12
6/6/2022 4:15:00 AM 12.47 54.446 0 12.88 7.24 10.24
6/6/2022 4:30:00 AM 12.8 55.04 0 12.77 7.63 10.13
6/6/2022 4:45:00 AM 13.13 55.634 0 12.84 7.38 10.03
6/6/2022 5:00:00 AM 12.93 55.274 0 12.66 7.3 10.09
6/6/2022 5:15:00 AM 12.45 54.41 0 12.65 7.57 10.24
6/6/2022 5:30:00 AM 12.2 53.96 0 13.01 7.42 10.29
6/6/2022 5:45:00 AM 12.15 53.87 0 12.9 7.53 10.32
6/6/2022 6:00:00 AM 11.82 53.276 0 12.84 7.54 10.39
6/6/2022 6:15:00 AM 11.73 53.114 0 12.98 7.57 10.43
6/6/2022 6:30:00 AM 11.81 53.258 0 12.97 7.75 10.44
6/6/2022 6:45:00 AM 11.82 53.276 0 12.92 7.88 10.43
6/6/2022 7:00:00 AM 12.32 54.176 0 12.88 7.5 10.29
6/6/2022 7:15:00 AM 12.05 53.69 0 13 7.34 10.36
6/6/2022 7:30:00 AM 12.1 53.78 0 12.84 7.48 10.35
6/6/2022 7:45:00 AM 12.55 54.59 0 12.75 7.69 10.26
6/6/2022 8:00:00 AM 12.57 54.626 0 12.71 8.09 10.23
6/6/2022 8:15:00 AM 13.35 56.03 0 12.68 8.13 10.03
6/6/2022 8:30:00 AM 13.8 56.84 0 12.68 8.33 9.96
6/6/2022 8:45:00 AM 15.24 59.432 0 12.66 8.32 9.54
6/6/2022 9:00:00 AM 15.45 59.81 0 12.52 8.35 9.6
6/6/2022 9:15:00 AM 15.43 59.774 0 12.44 8.14 9.66
6/6/2022 9:30:00 AM 15.65 60.17 0 12.5 8.13 9.64
6/6/2022 9:45:00 AM 16.01 60.818 0 12.44 7.91 9.61
6/6/2022 10:00:00 AM 16.08 60.944 0 12.32 8.01 9.57
6/6/2022 10:15:00 AM 16.85 62.33 0 12.24 7.76 9.4
6/6/2022 10:30:00 AM 17.38 63.284 0 12.55 7.91 9.35
6/6/2022 10:45:00 AM 17.59 63.662 0 12.62 7.92 9.28
6/6/2022 11:00:00 AM 18.2 64.76 0 12.39 7.79 9.25
6/6/2022 11:15:00 AM 18.57 65.426 0 13.02 7.54 9.1
6/6/2022 11:30:00 AM 19.34 66.812 0 13.23 7.61 9.03
6/6/2022 11:45:00 AM 20.07 68.126 0 12.73 7.55 8.99
6/6/2022 12:00:00 PM 19.84 67.712 0 15.37 7.39 8.66
6/6/2022 12:15:00 PM 20.35 68.63 0 14.21 7.34 8.88
6/6/2022 12:30:00 PM 20 68 0 16.73 7.34 8.85
6/6/2022 12:45:00 PM 20.14 68.252 0 13.71 7.39 8.78
6/6/2022 1:00:00 PM 20.3 68.54 0 16.95 7.3 8.76
6/6/2022 1:15:00 PM 19.67 67.406 0 17.45 7.42 8.75
6/6/2022 1:30:00 PM 20.5 68.9 0 17.42 7.39 8.57
6/6/2022 1:45:00 PM 20.16 68.288 0 17.44 7.26 8.75
6/6/2022 2:00:00 PM 20.91 69.638 0 15.96 7.23 8.67
6/6/2022 2:15:00 PM 21.06 69.908 0 16.99 7.91 8.61
6/6/2022 2:30:00 PM 21.29 70.32201 0 16.91 7.23 8.58
6/6/2022 2:45:00 PM 21.54 70.772 0 17.39 7.47 8.55
6/6/2022 3:00:00 PM 21.33 70.394 0 16.21 7.42 8.58
6/6/2022 3:15:00 PM 21.79 71.222 0 15.41 7.22 8.53
6/6/2022 3:30:00 PM 21.62 70.916 0 15.86 7.07 8.55
6/6/2022 3:45:00 PM 20.45 68.81 0 17.43 7.37 8.74
6/6/2022 4:00:00 PM 21.29 70.32201 0 16.19 7.17 8.54
6/6/2022 4:15:00 PM 21.13 70.034 0 17.4 7.11 8.61
6/6/2022 4:30:00 PM 21.54 70.772 0 16.1 7.25 8.55
6/6/2022 4:45:00 PM 22.21 71.978 0 14.47 7.43 8.41
6/6/2022 5:00:00 PM 21.84 71.312 0 16.3 7.28 8.43
6/6/2022 5:15:00 PM 22.14 71.852 0 14.01 7.15 8.4
6/6/2022 5:30:00 PM 22.06 71.708 0 16.14 7.07 8.4
6/6/2022 5:45:00 PM 21.85 71.33 0 12.93 7.17 8.44
6/6/2022 6:00:00 PM 21.9 71.42 0 13.11 7.11 8.37
6/6/2022 6:15:00 PM 21.69 71.042 0 12.9 7.3 8.43
6/6/2022 6:30:00 PM 20.97 69.746 0 15.01 7.18 8.6
6/6/2022 6:45:00 PM 21.71 71.078 0 13.32 7.21 8.44
6/6/2022 7:00:00 PM 21.68 71.024 0 13.48 7.08 8.42
6/6/2022 7:15:00 PM 21.65 70.97 0 13.29 7.22 8.45
6/6/2022 7:30:00 PM 21.54 70.772 0 12.1 7.13 8.44
6/6/2022 7:45:00 PM 21.42 70.556 0 12.1 7.34 8.45
6/6/2022 8:00:00 PM 21.2 70.16 0 12.15 7.75 8.5
6/6/2022 8:15:00 PM 21 69.8 0 12.16 7.31 8.52
6/6/2022 8:30:00 PM 20.7 69.26 0 12.31 7.47 8.59
6/6/2022 8:45:00 PM 20.4 68.72 0 12.32 7.23 8.64
6/6/2022 9:00:00 PM 20.14 68.252 0 12.33 7.16 8.65
6/6/2022 9:15:00 PM 20 68 0 12.34 7.82 8.7
6/6/2022 9:30:00 PM 19.97 67.946 0 12.36 7.48 8.69
6/6/2022 9:45:00 PM 19.82 67.676 0 12.6 7.3 8.7
6/6/2022 10:00:00 PM 19.41 66.938 0 12.58 7.26 8.81
6/6/2022 10:15:00 PM 19.34 66.812 0 12.49 7.17 8.8
6/6/2022 10:30:00 PM 19.18 66.524 0 12.33 7.45 8.83
6/6/2022 10:45:00 PM 19.12 66.416 0 12.14 7.31 8.83
6/6/2022 11:00:00 PM 19.09 66.362 0 12.16 7.24 8.82
6/6/2022 11:15:00 PM 18.54 65.372 0 12.23 7.18 8.96
6/6/2022 11:30:00 PM 18.47 65.246 0 12.22 7.19 8.96
6/6/2022 11:45:00 PM 18.65 65.57 0 12.24 7.82 8.93
6/7/2022 12:00:00 AM 18.43 65.174 0 12.26 7.88 8.99
6/7/2022 12:15:00 AM 18.39 65.102 0 12.3 7.55 8.98
6/7/2022 12:30:00 AM 18.37 65.066 0 12.41 7.35 8.98
6/7/2022 12:45:00 AM 18.17 64.706 0 12.58 7.83 9.02
6/7/2022 1:00:00 AM 18.14 64.652 0 12.22 7.84 9.03
6/7/2022 1:15:00 AM 18.03 64.454 0 12.27 7.86 9.06
6/7/2022 1:30:00 AM 18.14 64.652 0 12.22 8.68 9.02
6/7/2022 1:45:00 AM 18.05 64.49 0 12.31 8.77 9.04
6/7/2022 2:00:00 AM 17.97 64.346 0 12.32 8.22 9.06
6/7/2022 2:15:00 AM 17.56 63.608 0 12.38 7.24 9.15
6/7/2022 2:30:00 AM 17.73 63.914 0 12.3 7.9 9.11
6/7/2022 2:45:00 AM 17.7 63.86 0 12.46 7.72 9.11
6/7/2022 3:00:00 AM 17.52 63.536 0 12.5 7.85 9.16
6/7/2022 3:15:00 AM 17.58 63.644 0 12.4 7.95 9.14
6/7/2022 3:30:00 AM 17.52 63.536 0 12.46 8.81 9.15
6/7/2022 3:45:00 AM 17.48 63.464 0 12.34 8.93 9.15
6/7/2022 4:00:00 AM 17.43 63.374 0 12.29 8.59 9.14
6/7/2022 4:15:00 AM 17.21 62.978 0 12.29 9.76 9.21
6/7/2022 4:30:00 AM 17.11 62.798 0 12.33 7.91 9.23
6/7/2022 4:45:00 AM 17.07 62.726 0 12.26 3.59 9.23
6/7/2022 5:00:00 AM 17.2 62.96 0 12.37 7.79 9.2
6/7/2022 5:15:00 AM 17.07 62.726 0 12.68 6.89 9.23
6/7/2022 5:30:00 AM 17.01 62.618 0 12.65 7.12 9.24
6/7/2022 5:45:00 AM 16.94 62.492 0 12.53 6.33 9.26
6/7/2022 6:00:00 AM 16.92 62.456 0 12.47 6.1 9.26
6/7/2022 6:15:00 AM 16.81 62.258 0 12.5 4.89 9.29
6/7/2022 6:30:00 AM 16.95 62.51 0 12.45 3.52 9.25
6/7/2022 6:45:00 AM 16.99 62.582 0 12.33 3.52 9.25
6/7/2022 7:00:00 AM 16.94 62.492 0 12.39 3.5 9.25
6/7/2022 7:15:00 AM 17.03 62.654 0 12.36 3.59 9.26
6/7/2022 7:30:00 AM 17.11 62.798 0 12.39 3.54 9.24
6/7/2022 7:45:00 AM 17.08 62.744 0 12.3 3.5 9.24
6/7/2022 8:00:00 AM 17.15 62.87 0 12.36 3.46 9.24
6/7/2022 8:15:00 AM 17.24 63.032 0 12.29 3.49 9.22
6/7/2022 8:30:00 AM 17.23 63.014 0 12.25 3.48 9.23
6/7/2022 8:45:00 AM 17.3 63.14 0 12.27 3.52 9.22
6/7/2022 9:00:00 AM 17.12 62.816 0 12.16 3.44 9.25
6/7/2022 9:15:00 AM 16.91 62.438 0 12.1 3.42 9.27
6/7/2022 9:30:00 AM 16.8 62.24 0 12.15 3.28 9.32
6/7/2022 9:45:00 AM 16.9 62.42 0 12.09 3.33 9.29
6/7/2022 10:00:00 AM 16.92 62.456 0 12.01 3.32 9.28
6/7/2022 10:15:00 AM 17.07 62.726 0 12.17 3.47 9.26
6/7/2022 10:30:00 AM 17.14 62.852 0 12.14 3.34 9.22
6/7/2022 10:45:00 AM 17.02 62.636 0 12.13 3.39 9.26
6/7/2022 11:00:00 AM 17.09 62.762 0 11.91 3.33 9.26
6/7/2022 11:15:00 AM 17.13 62.834 0 11.84 3.31 9.24
6/7/2022 11:30:00 AM 17 62.6 0 11.93 3.22 9.27
6/7/2022 11:45:00 AM 17.12 62.816 0 11.71 3.16 9.24
6/7/2022 12:00:00 PM 17.15 62.87 0 11.76 3.15 9.22
6/7/2022 12:15:00 PM 17.2 62.96 0 11.79 3.02 9.2
6/7/2022 12:30:00 PM 17.41 63.338 0 11.82 2.92 9.18
6/7/2022 12:45:00 PM 17.34 63.212 0 11.74 2.98 9.2
6/7/2022 1:00:00 PM 17.26 63.068 0 11.79 2.95 9.22
6/7/2022 1:15:00 PM 17.55 63.59 0 11.87 2.79 9.15
6/7/2022 1:30:00 PM 17.62 63.716 0 12.03 3.02 9.14
6/7/2022 1:45:00 PM 17.62 63.716 0 11.98 3.1 9.15
6/7/2022 2:00:00 PM 17.73 63.914 0 11.95 3.2 9.12
6/7/2022 2:15:00 PM 17.73 63.914 0 11.87 3.34 9.12
6/7/2022 2:30:00 PM 17.81 64.058 0 11.88 3.23 9.12
6/7/2022 2:45:00 PM 17.91 64.238 0 11.89 3.11 9.09
6/7/2022 3:00:00 PM 17.99 64.382 0 11.9 3.04 9.06
6/7/2022 3:15:00 PM 18.01 64.418 0 11.94 3.05 9.07
6/7/2022 3:30:00 PM 18.01 64.418 0 11.84 2.96 9.08
6/7/2022 3:45:00 PM 17.99 64.382 0 11.82 3.5 9.08
6/7/2022 4:00:00 PM 18.06 64.508 0 11.9 3.2 9.08
6/7/2022 4:15:00 PM 18.04 64.472 0 11.98 3.53 9.05
6/7/2022 4:30:00 PM 18.02 64.436 0 11.91 3.65 9.02
6/7/2022 4:45:00 PM 18.11 64.598 0.003 11.86 4.06 9.03
6/7/2022 5:00:00 PM 18.14 64.652 0.007 11.66 3.57 9.05
6/7/2022 5:15:00 PM 18.14 64.652 0.011 11.67 15 8.96
6/7/2022 5:30:00 PM 18.12 64.616 0.003 11.68 1067.54 9.05
6/7/2022 5:45:00 PM 18.09 64.562 0.003 11.73 3760.66 9
6/7/2022 6:00:00 PM 18.07 64.526 0.007 11.79 5331.22 9.01
6/7/2022 6:15:00 PM 18.04 64.472 0.01 11.82 9249.68 9.05
6/7/2022 6:30:00 PM 18.03 64.454 0.013 11.73 7039.49 9.07
6/7/2022 6:45:00 PM 18.03 64.454 0.005 11.7 9203.26 9.07
6/7/2022 7:00:00 PM 18.01 64.418 0.015 11.76 11239.38 9.08
6/7/2022 7:15:00 PM 17.99 64.382 0.052 11.76 7314.95 9.08
6/7/2022 7:30:00 PM 17.97 64.346 0.081 11.66 2937.02 9.08
6/7/2022 7:45:00 PM 17.97 64.346 0.097 11.68 965.54 9.09
6/7/2022 8:00:00 PM 17.95 64.31 0.098 11.64 128.06 9.09
6/7/2022 8:15:00 PM 17.93 64.274 0.103 11.68 19.09 9.1
6/7/2022 8:30:00 PM 17.9 64.22 0.103 11.66 76.28 9.1
6/7/2022 8:45:00 PM 17.86 64.148 0.103 11.7 27.39 9.11
6/7/2022 9:00:00 PM 17.83 64.094 0.103 11.67 20.92 9.11
6/7/2022 9:15:00 PM 17.8 64.04 0.103 11.69 13.42 9.12
6/7/2022 9:30:00 PM 17.77 63.986 0.103 11.72 683.64 9.12
6/7/2022 9:45:00 PM 17.75 63.95 0.103 11.74 8.52 9.13
6/7/2022 10:00:00 PM 17.72 63.896 0.103 11.79 9.92 9.14
6/7/2022 10:15:00 PM 17.69 63.842 0.103 11.82 20.27 9.15
6/7/2022 10:30:00 PM 17.64 63.752 0.102 11.84 20.11 9.15
6/7/2022 10:45:00 PM 17.62 63.716 0.102 11.99 12 9.15
6/7/2022 11:00:00 PM 17.58 63.644 0.102 11.97 9.37 9.17
6/7/2022 11:15:00 PM 17.56 63.608 0.102 11.98 7.69 9.17
6/7/2022 11:30:00 PM 17.53 63.554 0.101 11.92 6.73 9.18
6/7/2022 11:45:00 PM 17.52 63.536 0.102 11.89 5.96 9.19
6/8/2022 12:00:00 AM 17.5 63.5 0.101 11.88 5.26 9.2
6/8/2022 12:15:00 AM 17.46 63.428 0.101 11.92 5.05 9.2
6/8/2022 12:30:00 AM 17.41 63.338 0.101 12.05 4.47 9.21
6/8/2022 12:45:00 AM 17.36 63.248 0.101 12.43 4.28 9.22
6/8/2022 1:00:00 AM 17.3 63.14 0.1 12.55 4.32 9.23
6/8/2022 1:15:00 AM 17.24 63.032 0.1 12.84 4.33 9.23
6/8/2022 1:30:00 AM 17.17 62.906 0.1 12.66 4.62 9.2
6/8/2022 1:45:00 AM 17.08 62.744 0.1 12.52 4.27 9.06
6/8/2022 2:00:00 AM 17 62.6 0.1 12.54 4.19 8.89
6/8/2022 2:15:00 AM 16.92 62.456 0.1 12.52 4.25 8.79
6/8/2022 2:30:00 AM 16.84 62.312 0.1 12.58 4.53 8.79
6/8/2022 2:45:00 AM 16.78 62.204 0.099 12.73 8.19 8.85
6/8/2022 3:00:00 AM 16.73 62.114 0.099 12.83 4.26 8.85
6/8/2022 3:15:00 AM 16.67 62.006 0.099 12.97 4.55 8.86
6/8/2022 3:30:00 AM 16.62 61.916 0.099 13 4.48 8.88
6/8/2022 3:45:00 AM 16.57 61.826 0.099 12.92 4.48 8.9
6/8/2022 4:00:00 AM 16.51 61.718 0.099 12.79 3.94 8.92
6/8/2022 4:15:00 AM 16.44 61.592 0.099 12.76 4.13 8.94
6/8/2022 4:30:00 AM 16.39 61.502 0.098 12.78 4.18 8.96
6/8/2022 4:45:00 AM 16.34 61.412 0.099 12.76 4.04 8.97
6/8/2022 5:00:00 AM 16.29 61.322 0.098 12.7 4.28 8.98
6/8/2022 5:15:00 AM 16.25 61.25 0.099 12.79 4.09 9
6/8/2022 5:30:00 AM 16.2 61.16 0.098 12.84 4 9.01
6/8/2022 5:45:00 AM 16.16 61.088 0.098 12.84 4.1 9.02
6/8/2022 6:00:00 AM 16.12 61.016 0.098 13.3 3.9 9.05
6/8/2022 6:15:00 AM 16.07 60.926 0.098 13.19 3.95 9.08
6/8/2022 6:30:00 AM 16.04 60.872 0.098 13.37 3.97 9.12
6/8/2022 6:45:00 AM 16.02 60.836 0.098 13.25 3.96 9.18
6/8/2022 7:00:00 AM 16 60.8 0.098 13.18 3.76 9.23
6/8/2022 7:15:00 AM 15.99 60.782 0.098 13.29 3.58 9.26
6/8/2022 7:30:00 AM 15.97 60.746 0.097 13.48 3.52 9.32
6/8/2022 7:45:00 AM 15.99 60.782 0.097 13.56 3.4 9.38
6/8/2022 8:00:00 AM 16 60.8 0.097 13.48 3.4 9.44
6/8/2022 8:15:00 AM 16.06 60.908 0.097 13.42 3.39 9.49
6/8/2022 8:30:00 AM 16.15 61.07 0.097 13.27 3.43 9.52
6/8/2022 8:45:00 AM 16.3 61.34 0.097 13.15 3.25 9.55
6/8/2022 9:00:00 AM 16.4 61.52 0.097 13.11 3.19 9.57
6/8/2022 9:15:00 AM 16.35 61.43 0.097 13.06 3.17 9.56
6/8/2022 9:30:00 AM 16.4 61.52 0.096 13.06 3.23 9.57
6/8/2022 9:45:00 AM 16.5 61.7 0.096 12.96 3.13 9.59
6/8/2022 10:00:00 AM 16.62 61.916 0.096 12.95 3 9.6
6/8/2022 10:15:00 AM 16.72 62.096 0.096 13.09 2.97 9.59
6/8/2022 10:30:00 AM 16.95 62.51 0.096 12.95 3.25 9.59
6/8/2022 10:45:00 AM 16.94 62.492 0.095 12.93 3.11 9.58
6/8/2022 11:00:00 AM 17.05 62.69 0.095 12.9 3.06 9.58
6/8/2022 11:15:00 AM 17.37 63.266 0.095 12.95 3.12 9.56
6/8/2022 11:30:00 AM 17.39 63.302 0.095 12.84 3.01 9.54
6/8/2022 11:45:00 AM 17.58 63.644 0.095 12.8 3.07 9.53
6/8/2022 12:00:00 PM 17.83 64.094 0.095 12.73 2.89 9.5
6/8/2022 12:15:00 PM 18.27 64.886 0.095 12.63 2.93 9.46
6/8/2022 12:30:00 PM 18.47 65.246 0.095 12.6 2.97 9.42
6/8/2022 12:45:00 PM 18.58 65.444 0.095 12.66 2.94 9.37
6/8/2022 1:00:00 PM 18.95 66.11 0.095 12.81 2.85 9.35
6/8/2022 1:15:00 PM 19.19 66.542 0.094 12.89 2.91 9.32
6/8/2022 1:30:00 PM 19.31 66.758 0.095 12.83 2.97 9.26
6/8/2022 1:45:00 PM 19.2 66.56 0.094 12.94 3.01 9.23
6/8/2022 2:00:00 PM 19.59 67.262 0.094 12.86 3.1 9.2
6/8/2022 2:15:00 PM 20.1 68.18 0.094 12.83 2.99 9.15
6/8/2022 2:30:00 PM 20.5 68.9 0.094 12.75 2.88 9.08
6/8/2022 2:45:00 PM 20.79 69.422 0.094 12.65 2.93 9.02
6/8/2022 3:00:00 PM 21.05 69.89 0.095 12.67 2.93 8.95
6/8/2022 3:15:00 PM 21.31 70.358 0.094 12.74 2.72 8.9
6/8/2022 3:30:00 PM 21.57 70.826 0.095 12.67 2.95 8.84
6/8/2022 3:45:00 PM 21.74 71.132 0.094 12.45 2.78 8.79
6/8/2022 4:00:00 PM 21.81 71.258 0.095 12.55 2.93 8.74
6/8/2022 4:15:00 PM 21.96 71.528 0.094 12.46 2.94 8.7
6/8/2022 4:30:00 PM 22.09 71.762 0.095 12.38 2.97 8.64
6/8/2022 4:45:00 PM 22.18 71.924 0.095 12.47 2.92 8.59
6/8/2022 5:00:00 PM 22.22 71.996 0.095 12.49 3.04 8.53
6/8/2022 5:15:00 PM 22.23 72.014 0.095 12.62 2.95 8.49
6/8/2022 5:30:00 PM 22.22 71.996 0.095 12.46 2.9 8.43
6/8/2022 5:45:00 PM 22.25 72.05 0.095 12.39 2.88 8.41
6/8/2022 6:00:00 PM 22.28 72.104 0.095 12.42 2.99 8.38
6/8/2022 6:15:00 PM 22.26 72.068 0.095 12.33 2.96 8.36
6/8/2022 6:30:00 PM 22.23 72.014 0.096 12.68 3.12 8.36
6/8/2022 6:45:00 PM 22.14 71.852 0.096 13.22 2.96 8.37
6/8/2022 7:00:00 PM 22.05 71.69 0.096 13.12 3.17 8.38
6/8/2022 7:15:00 PM 21.93 71.474 0.096 13.42 2.96 8.4
6/8/2022 7:30:00 PM 21.83 71.294 0.096 13.34 3.11 8.42
6/8/2022 7:45:00 PM 21.73 71.114 0.096 12.89 3.12 8.43
6/8/2022 8:00:00 PM 21.6 70.88 0.097 12.6 3.2 8.44
6/8/2022 8:15:00 PM 21.48 70.664 0.097 12.5 3.01 8.46
6/8/2022 8:30:00 PM 21.35 70.43 0.097 12.49 3.13 8.48
6/8/2022 8:45:00 PM 21.21 70.17799 0.097 12.44 3.19 8.5
6/8/2022 9:00:00 PM 21.08 69.944 0.098 12.46 3.33 8.52
6/8/2022 9:15:00 PM 20.94 69.692 0.098 12.53 3.43 8.54
6/8/2022 9:30:00 PM 20.81 69.458 0.098 12.52 3.44 8.57
6/8/2022 9:45:00 PM 20.69 69.242 0.098 12.63 3.58 8.54
6/8/2022 10:00:00 PM 20.58 69.044 0.099 13.24 3.56 8.6
6/8/2022 10:15:00 PM 20.47 68.846 0.098 14.29 3.63 8.6
6/8/2022 10:30:00 PM 20.38 68.684 0.099 14.5 3.53 8.59
6/8/2022 10:45:00 PM 20.28 68.504 0.099 14.33 3.68 8.6
6/8/2022 11:00:00 PM 20.19 68.342 0.099 14.23 3.75 8.64
6/8/2022 11:15:00 PM 20.1 68.18 0.099 14.13 3.65 8.67
6/8/2022 11:30:00 PM 20 68 0.1 13.89 3.66 8.68
6/8/2022 11:45:00 PM 19.92 67.856 0.1 13.67 3.68 8.67
6/9/2022 12:00:00 AM 19.8 67.64 0.099 13.31 3.67 8.69
6/9/2022 12:15:00 AM 19.69 67.442 0.099 13.22 3.99 8.73
6/9/2022 12:30:00 AM 19.57 67.226 0.098 13.18 4.32 8.76
6/9/2022 12:45:00 AM 19.49 67.082 0.098 13.27 4.85 8.77
6/9/2022 1:00:00 AM 19.37 66.866 0.097 13.11 5.17 8.57
6/9/2022 1:15:00 AM 19.24 66.632 0.096 13.22 4.94 8.2
6/9/2022 1:30:00 AM 19.14 66.452 0.095 13.12 4.93 8.19
6/9/2022 1:45:00 AM 19.06 66.308 0.094 13.2 6.16 8.16
6/9/2022 2:00:00 AM 18.98 66.164 0.094 13.27 7.3 8.16
6/9/2022 2:15:00 AM 18.91 66.038 0.094 13.39 7.71 8.18
6/9/2022 2:30:00 AM 18.84 65.912 0.093 13.57 7.6 8.19
6/9/2022 2:45:00 AM 18.78 65.804 0.093 13.63 6.76 8.2
6/9/2022 3:00:00 AM 18.73 65.714 0.092 13.39 5.92 8.23
6/9/2022 3:15:00 AM 18.66 65.588 0.092 13.19 5.54 8.25
6/9/2022 3:30:00 AM 18.6 65.48 0.092 13.04 5.33 8.27
6/9/2022 3:45:00 AM 18.55 65.39 0.092 12.94 5.45 8.29
6/9/2022 4:00:00 AM 18.5 65.3 0.093 12.84 5.41 8.3
6/9/2022 4:15:00 AM 18.45 65.21 0.093 12.79 5.25 8.31
6/9/2022 4:30:00 AM 18.4 65.12 0.093 12.74 5.42 8.32
6/9/2022 4:45:00 AM 18.35 65.03 0.093 12.81 5.53 8.32
6/9/2022 5:00:00 AM 18.3 64.94 0.093 12.72 5.5 8.33
6/9/2022 5:15:00 AM 18.26 64.868 0.093 12.69 5.73 8.35
6/9/2022 5:30:00 AM 18.22 64.796 0.093 12.74 5.75 8.36
6/9/2022 5:45:00 AM 18.18 64.724 0.093 12.72 5.46 8.38
6/9/2022 6:00:00 AM 18.15 64.67 0.093 12.99 5.57 8.41
6/9/2022 6:15:00 AM 18.12 64.616 0.093 12.79 5.57 8.44
6/9/2022 6:30:00 AM 18.09 64.562 0.093 12.82 5.68 8.47
6/9/2022 6:45:00 AM 18.06 64.508 0.093 12.72 5.94 8.49
6/9/2022 7:00:00 AM 18.03 64.454 0.093 12.63 6.62 8.53
6/9/2022 7:15:00 AM 18.02 64.436 0.093 12.64 6.29 8.6
6/9/2022 7:30:00 AM 18.01 64.418 0.093 12.67 6.32 8.65
6/9/2022 7:45:00 AM 17.98 64.364 0.094 12.68 6.53 8.68
6/9/2022 8:00:00 AM 17.96 64.328 0.094 12.72 6.54 8.69
6/9/2022 8:15:00 AM 17.92 64.256 0.094 12.7 6.29 8.71
6/9/2022 8:30:00 AM 17.92 64.256 0.094 12.69 5.96 8.78
6/9/2022 8:45:00 AM 17.94 64.292 0.094 12.68 5.71 8.87
6/9/2022 9:00:00 AM 17.98 64.364 0.094 12.66 5.45 8.95
6/9/2022 9:15:00 AM 18.02 64.436 0.093 12.67 5.19 9
6/9/2022 9:30:00 AM 18.14 64.652 0.094 12.68 5.2 9.05
6/9/2022 9:45:00 AM 18.22 64.796 0.094 12.64 5.28 9.08
6/9/2022 10:00:00 AM 18.21 64.778 0.094 12.63 5.3 9.09
6/9/2022 10:15:00 AM 18.35 65.03 0.094 12.61 5.54 9.11
6/9/2022 10:30:00 AM 18.3 64.94 0.095 12.6 5.45 9.08
6/9/2022 10:45:00 AM 18.33 64.994 0.095 12.61 5.84 9.12
6/9/2022 11:00:00 AM 18.32 64.976 0.095 12.68 5.91 9.09
6/9/2022 11:15:00 AM 18.4 65.12 0.095 12.72 6.26 9.11
6/9/2022 11:30:00 AM 18.57 65.426 0.097 12.65 6.18 9.12
6/9/2022 11:45:00 AM 18.74 65.732 0.096 12.64 5.96 9.13
6/9/2022 12:00:00 PM 18.7 65.66 0.097 12.64 22.56 9.1
6/9/2022 12:15:00 PM 18.58 65.444 0.106 12.57 9.62 8.81
6/9/2022 12:30:00 PM 18.59 65.462 0.113 12.57 8.85 8.74
6/9/2022 12:45:00 PM 18.53 65.354 0.108 12.54 8.82 8.76
6/9/2022 1:00:00 PM 18.48 65.264 0.103 12.6 9.15 8.82
6/9/2022 1:15:00 PM 18.47 65.246 0.1 12.69 9.04 8.88
6/9/2022 1:30:00 PM 18.55 65.39 0.098 12.67 8.74 8.95
6/9/2022 1:45:00 PM 18.57 65.426 0.097 12.69 8.14 9
6/9/2022 2:00:00 PM 18.58 65.444 0.096 12.74 8.29 9.02
6/9/2022 2:15:00 PM 18.55 65.39 0.095 13.04 7.14 9.04
6/9/2022 2:30:00 PM 18.48 65.264 0.095 13.93 6.92 9.04
6/9/2022 2:45:00 PM 18.52 65.336 0.095 14.28 6.49 9.06
6/9/2022 3:00:00 PM 18.55 65.39 0.095 14.35 6.91 9.1
6/9/2022 3:15:00 PM 18.53 65.354 0.096 14.31 6.47 9.09
6/9/2022 3:30:00 PM 18.5 65.3 0.096 14.37 6.55 9.08
6/9/2022 3:45:00 PM 18.52 65.336 0.096 14.54 6.22 9.1
6/9/2022 4:00:00 PM 18.47 65.246 0.096 14.59 5.79 9.09
6/9/2022 4:15:00 PM 18.4 65.12 0.097 14.56 5.7 9.04
6/9/2022 4:30:00 PM 18.42 65.156 0.097 14.51 5.19 9.07
6/9/2022 4:45:00 PM 18.46 65.228 0.097 14.51 5.09 9.09
6/9/2022 5:00:00 PM 18.44 65.192 0.097 14.33 5.11 9.09
6/9/2022 5:15:00 PM 18.53 65.354 0.097 14.15 4.96 9.09
6/9/2022 5:30:00 PM 18.55 65.39 0.097 14.04 5.03 9.08